<?xml version="1.0" encoding="UTF-8" standalone="no" ?>
<gpx xmlns="http://www.topografix.com/GPX/1/1" xmlns:xsi="http://www.w3.org/2001/XMLSchema-instance" xsi:schemaLocation="http://www.topografix.com/GPX/1/1 http://www.topografix.com/GPX/1/1/gpx.xsd" version="1.1" creator="VisuGPX - https://www.visugpx.com">
  <metadata>
    <name>club vtt des rochers</name>
    <desc><![CDATA[sortie sur Thézac]]></desc>
  </metadata>
  <trk>
    <name><![CDATA[21-NOV-15 17:43:49]]></name>
    <trkseg>
      <trkpt lat="44.47194" lon="0.93435">
        <ele>69.83</ele>
        <time>2015-11-21T13:17:05Z</time>
      </trkpt>
      <trkpt lat="44.47196" lon="0.93434">
        <ele>68.39</ele>
        <time>2015-11-21T13:17:35Z</time>
      </trkpt>
      <trkpt lat="44.47196" lon="0.93435">
        <ele>68.87</ele>
        <time>2015-11-21T13:17:59Z</time>
      </trkpt>
      <trkpt lat="44.47196" lon="0.93435">
        <ele>69.35</ele>
        <time>2015-11-21T13:18:19Z</time>
      </trkpt>
      <trkpt lat="44.47196" lon="0.93434">
        <ele>68.87</ele>
        <time>2015-11-21T13:18:38Z</time>
      </trkpt>
      <trkpt lat="44.47196" lon="0.93435">
        <ele>68.39</ele>
        <time>2015-11-21T13:19:04Z</time>
      </trkpt>
      <trkpt lat="44.47196" lon="0.93436">
        <ele>68.87</ele>
        <time>2015-11-21T13:19:27Z</time>
      </trkpt>
      <trkpt lat="44.47195" lon="0.93435">
        <ele>68.87</ele>
        <time>2015-11-21T13:19:50Z</time>
      </trkpt>
      <trkpt lat="44.47196" lon="0.93436">
        <ele>66.95</ele>
        <time>2015-11-21T13:20:09Z</time>
      </trkpt>
      <trkpt lat="44.47195" lon="0.93436">
        <ele>67.43</ele>
        <time>2015-11-21T13:20:32Z</time>
      </trkpt>
      <trkpt lat="44.47195" lon="0.93435">
        <ele>67.43</ele>
        <time>2015-11-21T13:20:53Z</time>
      </trkpt>
      <trkpt lat="44.47195" lon="0.93436">
        <ele>67.91</ele>
        <time>2015-11-21T13:21:11Z</time>
      </trkpt>
      <trkpt lat="44.47195" lon="0.93437">
        <ele>68.87</ele>
        <time>2015-11-21T13:21:29Z</time>
      </trkpt>
      <trkpt lat="44.47195" lon="0.93439">
        <ele>69.35</ele>
        <time>2015-11-21T13:21:31Z</time>
      </trkpt>
      <trkpt lat="44.47197" lon="0.93452">
        <ele>70.31</ele>
        <time>2015-11-21T13:21:37Z</time>
      </trkpt>
      <trkpt lat="44.47198" lon="0.93454">
        <ele>70.79</ele>
        <time>2015-11-21T13:21:38Z</time>
      </trkpt>
      <trkpt lat="44.47201" lon="0.93459">
        <ele>70.79</ele>
        <time>2015-11-21T13:21:40Z</time>
      </trkpt>
      <trkpt lat="44.47223" lon="0.9349">
        <ele>70.79</ele>
        <time>2015-11-21T13:21:52Z</time>
      </trkpt>
      <trkpt lat="44.47229" lon="0.9354">
        <ele>70.31</ele>
        <time>2015-11-21T13:22:03Z</time>
      </trkpt>
      <trkpt lat="44.47238" lon="0.93584">
        <ele>69.83</ele>
        <time>2015-11-21T13:22:13Z</time>
      </trkpt>
      <trkpt lat="44.4727" lon="0.9364">
        <ele>69.83</ele>
        <time>2015-11-21T13:22:27Z</time>
      </trkpt>
      <trkpt lat="44.47279" lon="0.93649">
        <ele>70.31</ele>
        <time>2015-11-21T13:22:30Z</time>
      </trkpt>
      <trkpt lat="44.4728" lon="0.93654">
        <ele>70.31</ele>
        <time>2015-11-21T13:22:31Z</time>
      </trkpt>
      <trkpt lat="44.47297" lon="0.93691">
        <ele>69.83</ele>
        <time>2015-11-21T13:22:40Z</time>
      </trkpt>
      <trkpt lat="44.47312" lon="0.93733">
        <ele>70.79</ele>
        <time>2015-11-21T13:22:51Z</time>
      </trkpt>
      <trkpt lat="44.47335" lon="0.93765">
        <ele>72.72</ele>
        <time>2015-11-21T13:23:01Z</time>
      </trkpt>
      <trkpt lat="44.47348" lon="0.93809">
        <ele>71.27</ele>
        <time>2015-11-21T13:23:10Z</time>
      </trkpt>
      <trkpt lat="44.47361" lon="0.93827">
        <ele>70.79</ele>
        <time>2015-11-21T13:23:16Z</time>
      </trkpt>
      <trkpt lat="44.47364" lon="0.93833">
        <ele>71.27</ele>
        <time>2015-11-21T13:23:17Z</time>
      </trkpt>
      <trkpt lat="44.47366" lon="0.93839">
        <ele>71.27</ele>
        <time>2015-11-21T13:23:18Z</time>
      </trkpt>
      <trkpt lat="44.47368" lon="0.93846">
        <ele>71.27</ele>
        <time>2015-11-21T13:23:19Z</time>
      </trkpt>
      <trkpt lat="44.4737" lon="0.93851">
        <ele>71.27</ele>
        <time>2015-11-21T13:23:20Z</time>
      </trkpt>
      <trkpt lat="44.47372" lon="0.93857">
        <ele>71.27</ele>
        <time>2015-11-21T13:23:21Z</time>
      </trkpt>
      <trkpt lat="44.47373" lon="0.93862">
        <ele>71.27</ele>
        <time>2015-11-21T13:23:22Z</time>
      </trkpt>
      <trkpt lat="44.47384" lon="0.93908">
        <ele>73.2</ele>
        <time>2015-11-21T13:23:35Z</time>
      </trkpt>
      <trkpt lat="44.47389" lon="0.93936">
        <ele>74.16</ele>
        <time>2015-11-21T13:23:46Z</time>
      </trkpt>
      <trkpt lat="44.47393" lon="0.93954">
        <ele>73.68</ele>
        <time>2015-11-21T13:23:54Z</time>
      </trkpt>
      <trkpt lat="44.47391" lon="0.93958">
        <ele>73.2</ele>
        <time>2015-11-21T13:23:56Z</time>
      </trkpt>
      <trkpt lat="44.4739" lon="0.93959">
        <ele>72.72</ele>
        <time>2015-11-21T13:23:57Z</time>
      </trkpt>
      <trkpt lat="44.47358" lon="0.93988">
        <ele>70.79</ele>
        <time>2015-11-21T13:24:10Z</time>
      </trkpt>
      <trkpt lat="44.47341" lon="0.93999">
        <ele>72.72</ele>
        <time>2015-11-21T13:24:18Z</time>
      </trkpt>
      <trkpt lat="44.4734" lon="0.94">
        <ele>71.27</ele>
        <time>2015-11-21T13:24:25Z</time>
      </trkpt>
      <trkpt lat="44.4734" lon="0.94003">
        <ele>71.76</ele>
        <time>2015-11-21T13:24:26Z</time>
      </trkpt>
      <trkpt lat="44.4734" lon="0.94007">
        <ele>71.76</ele>
        <time>2015-11-21T13:24:27Z</time>
      </trkpt>
      <trkpt lat="44.47341" lon="0.9401">
        <ele>71.27</ele>
        <time>2015-11-21T13:24:28Z</time>
      </trkpt>
      <trkpt lat="44.47343" lon="0.94014">
        <ele>71.27</ele>
        <time>2015-11-21T13:24:29Z</time>
      </trkpt>
      <trkpt lat="44.47347" lon="0.94024">
        <ele>71.27</ele>
        <time>2015-11-21T13:24:31Z</time>
      </trkpt>
      <trkpt lat="44.47393" lon="0.94104">
        <ele>67.91</ele>
        <time>2015-11-21T13:24:43Z</time>
      </trkpt>
      <trkpt lat="44.47426" lon="0.94165">
        <ele>66.95</ele>
        <time>2015-11-21T13:24:52Z</time>
      </trkpt>
      <trkpt lat="44.47427" lon="0.94172">
        <ele>66.95</ele>
        <time>2015-11-21T13:24:53Z</time>
      </trkpt>
      <trkpt lat="44.47426" lon="0.94178">
        <ele>66.95</ele>
        <time>2015-11-21T13:24:54Z</time>
      </trkpt>
      <trkpt lat="44.47424" lon="0.94183">
        <ele>67.43</ele>
        <time>2015-11-21T13:24:55Z</time>
      </trkpt>
      <trkpt lat="44.47421" lon="0.94187">
        <ele>67.43</ele>
        <time>2015-11-21T13:24:56Z</time>
      </trkpt>
      <trkpt lat="44.47417" lon="0.94191">
        <ele>66.95</ele>
        <time>2015-11-21T13:24:57Z</time>
      </trkpt>
      <trkpt lat="44.47413" lon="0.94193">
        <ele>67.43</ele>
        <time>2015-11-21T13:24:58Z</time>
      </trkpt>
      <trkpt lat="44.47409" lon="0.94195">
        <ele>67.43</ele>
        <time>2015-11-21T13:24:59Z</time>
      </trkpt>
      <trkpt lat="44.47406" lon="0.94197">
        <ele>67.43</ele>
        <time>2015-11-21T13:25:00Z</time>
      </trkpt>
      <trkpt lat="44.47359" lon="0.94223">
        <ele>68.87</ele>
        <time>2015-11-21T13:25:11Z</time>
      </trkpt>
      <trkpt lat="44.47276" lon="0.94292">
        <ele>70.79</ele>
        <time>2015-11-21T13:25:30Z</time>
      </trkpt>
      <trkpt lat="44.47197" lon="0.94358">
        <ele>71.76</ele>
        <time>2015-11-21T13:25:47Z</time>
      </trkpt>
      <trkpt lat="44.47121" lon="0.94427">
        <ele>73.2</ele>
        <time>2015-11-21T13:26:03Z</time>
      </trkpt>
      <trkpt lat="44.47043" lon="0.94501">
        <ele>74.64</ele>
        <time>2015-11-21T13:26:20Z</time>
      </trkpt>
      <trkpt lat="44.4701" lon="0.94561">
        <ele>74.64</ele>
        <time>2015-11-21T13:26:29Z</time>
      </trkpt>
      <trkpt lat="44.46977" lon="0.94667">
        <ele>74.64</ele>
        <time>2015-11-21T13:26:43Z</time>
      </trkpt>
      <trkpt lat="44.46915" lon="0.94766">
        <ele>76.08</ele>
        <time>2015-11-21T13:27:00Z</time>
      </trkpt>
      <trkpt lat="44.46889" lon="0.94846">
        <ele>78.48</ele>
        <time>2015-11-21T13:27:12Z</time>
      </trkpt>
      <trkpt lat="44.46884" lon="0.94886">
        <ele>79.45</ele>
        <time>2015-11-21T13:27:18Z</time>
      </trkpt>
      <trkpt lat="44.46882" lon="0.94892">
        <ele>79.45</ele>
        <time>2015-11-21T13:27:19Z</time>
      </trkpt>
      <trkpt lat="44.46879" lon="0.94898">
        <ele>79.45</ele>
        <time>2015-11-21T13:27:20Z</time>
      </trkpt>
      <trkpt lat="44.46872" lon="0.94916">
        <ele>80.41</ele>
        <time>2015-11-21T13:27:23Z</time>
      </trkpt>
      <trkpt lat="44.46857" lon="0.94942">
        <ele>81.85</ele>
        <time>2015-11-21T13:27:28Z</time>
      </trkpt>
      <trkpt lat="44.46829" lon="0.94992">
        <ele>85.21</ele>
        <time>2015-11-21T13:27:41Z</time>
      </trkpt>
      <trkpt lat="44.46798" lon="0.95007">
        <ele>87.62</ele>
        <time>2015-11-21T13:27:52Z</time>
      </trkpt>
      <trkpt lat="44.46743" lon="0.9503">
        <ele>88.1</ele>
        <time>2015-11-21T13:28:07Z</time>
      </trkpt>
      <trkpt lat="44.46702" lon="0.95047">
        <ele>86.66</ele>
        <time>2015-11-21T13:28:21Z</time>
      </trkpt>
      <trkpt lat="44.46701" lon="0.95049">
        <ele>86.66</ele>
        <time>2015-11-21T13:28:35Z</time>
      </trkpt>
      <trkpt lat="44.467" lon="0.9505">
        <ele>86.66</ele>
        <time>2015-11-21T13:28:37Z</time>
      </trkpt>
      <trkpt lat="44.46699" lon="0.95053">
        <ele>86.66</ele>
        <time>2015-11-21T13:28:38Z</time>
      </trkpt>
      <trkpt lat="44.46697" lon="0.95056">
        <ele>86.66</ele>
        <time>2015-11-21T13:28:39Z</time>
      </trkpt>
      <trkpt lat="44.46696" lon="0.9506">
        <ele>86.66</ele>
        <time>2015-11-21T13:28:40Z</time>
      </trkpt>
      <trkpt lat="44.46696" lon="0.95065">
        <ele>86.66</ele>
        <time>2015-11-21T13:28:41Z</time>
      </trkpt>
      <trkpt lat="44.46696" lon="0.9507">
        <ele>86.66</ele>
        <time>2015-11-21T13:28:42Z</time>
      </trkpt>
      <trkpt lat="44.46697" lon="0.95076">
        <ele>87.14</ele>
        <time>2015-11-21T13:28:43Z</time>
      </trkpt>
      <trkpt lat="44.46698" lon="0.95082">
        <ele>87.14</ele>
        <time>2015-11-21T13:28:44Z</time>
      </trkpt>
      <trkpt lat="44.46699" lon="0.95088">
        <ele>87.62</ele>
        <time>2015-11-21T13:28:45Z</time>
      </trkpt>
      <trkpt lat="44.46717" lon="0.95168">
        <ele>90.5</ele>
        <time>2015-11-21T13:28:59Z</time>
      </trkpt>
      <trkpt lat="44.46734" lon="0.95256">
        <ele>97.71</ele>
        <time>2015-11-21T13:29:17Z</time>
      </trkpt>
      <trkpt lat="44.46759" lon="0.95359">
        <ele>100.11</ele>
        <time>2015-11-21T13:29:37Z</time>
      </trkpt>
      <trkpt lat="44.4676" lon="0.95364">
        <ele>99.63</ele>
        <time>2015-11-21T13:29:38Z</time>
      </trkpt>
      <trkpt lat="44.46761" lon="0.9537">
        <ele>100.11</ele>
        <time>2015-11-21T13:29:39Z</time>
      </trkpt>
      <trkpt lat="44.46762" lon="0.95377">
        <ele>100.11</ele>
        <time>2015-11-21T13:29:40Z</time>
      </trkpt>
      <trkpt lat="44.46763" lon="0.95382">
        <ele>100.11</ele>
        <time>2015-11-21T13:29:41Z</time>
      </trkpt>
      <trkpt lat="44.46764" lon="0.95388">
        <ele>99.63</ele>
        <time>2015-11-21T13:29:42Z</time>
      </trkpt>
      <trkpt lat="44.46765" lon="0.95394">
        <ele>99.63</ele>
        <time>2015-11-21T13:29:43Z</time>
      </trkpt>
      <trkpt lat="44.46776" lon="0.95529">
        <ele>99.63</ele>
        <time>2015-11-21T13:30:03Z</time>
      </trkpt>
      <trkpt lat="44.46781" lon="0.95593">
        <ele>99.15</ele>
        <time>2015-11-21T13:30:13Z</time>
      </trkpt>
      <trkpt lat="44.46779" lon="0.95597">
        <ele>99.15</ele>
        <time>2015-11-21T13:30:14Z</time>
      </trkpt>
      <trkpt lat="44.46776" lon="0.956">
        <ele>99.15</ele>
        <time>2015-11-21T13:30:15Z</time>
      </trkpt>
      <trkpt lat="44.46773" lon="0.95601">
        <ele>99.15</ele>
        <time>2015-11-21T13:30:16Z</time>
      </trkpt>
      <trkpt lat="44.46769" lon="0.95601">
        <ele>99.15</ele>
        <time>2015-11-21T13:30:17Z</time>
      </trkpt>
      <trkpt lat="44.46716" lon="0.95616">
        <ele>101.56</ele>
        <time>2015-11-21T13:30:33Z</time>
      </trkpt>
      <trkpt lat="44.46688" lon="0.95658">
        <ele>101.56</ele>
        <time>2015-11-21T13:30:45Z</time>
      </trkpt>
      <trkpt lat="44.46648" lon="0.95727">
        <ele>103</ele>
        <time>2015-11-21T13:31:02Z</time>
      </trkpt>
      <trkpt lat="44.46632" lon="0.95757">
        <ele>103.96</ele>
        <time>2015-11-21T13:31:10Z</time>
      </trkpt>
      <trkpt lat="44.46636" lon="0.95764">
        <ele>104.44</ele>
        <time>2015-11-21T13:31:14Z</time>
      </trkpt>
      <trkpt lat="44.46637" lon="0.95766">
        <ele>104.44</ele>
        <time>2015-11-21T13:31:15Z</time>
      </trkpt>
      <trkpt lat="44.4666" lon="0.95786">
        <ele>104.44</ele>
        <time>2015-11-21T13:31:26Z</time>
      </trkpt>
      <trkpt lat="44.467" lon="0.9583">
        <ele>103.48</ele>
        <time>2015-11-21T13:31:41Z</time>
      </trkpt>
      <trkpt lat="44.46754" lon="0.95887">
        <ele>101.56</ele>
        <time>2015-11-21T13:31:57Z</time>
      </trkpt>
      <trkpt lat="44.46772" lon="0.95912">
        <ele>101.08</ele>
        <time>2015-11-21T13:32:08Z</time>
      </trkpt>
      <trkpt lat="44.46772" lon="0.95912">
        <ele>101.08</ele>
        <time>2015-11-21T13:32:09Z</time>
      </trkpt>
      <trkpt lat="44.46772" lon="0.95914">
        <ele>101.08</ele>
        <time>2015-11-21T13:32:10Z</time>
      </trkpt>
      <trkpt lat="44.46771" lon="0.95916">
        <ele>101.08</ele>
        <time>2015-11-21T13:32:11Z</time>
      </trkpt>
      <trkpt lat="44.46769" lon="0.95918">
        <ele>101.08</ele>
        <time>2015-11-21T13:32:12Z</time>
      </trkpt>
      <trkpt lat="44.46767" lon="0.95921">
        <ele>101.08</ele>
        <time>2015-11-21T13:32:13Z</time>
      </trkpt>
      <trkpt lat="44.46765" lon="0.95924">
        <ele>101.08</ele>
        <time>2015-11-21T13:32:14Z</time>
      </trkpt>
      <trkpt lat="44.46762" lon="0.95928">
        <ele>101.08</ele>
        <time>2015-11-21T13:32:15Z</time>
      </trkpt>
      <trkpt lat="44.4676" lon="0.95931">
        <ele>101.08</ele>
        <time>2015-11-21T13:32:16Z</time>
      </trkpt>
      <trkpt lat="44.46757" lon="0.95935">
        <ele>101.08</ele>
        <time>2015-11-21T13:32:17Z</time>
      </trkpt>
      <trkpt lat="44.46754" lon="0.95939">
        <ele>101.08</ele>
        <time>2015-11-21T13:32:18Z</time>
      </trkpt>
      <trkpt lat="44.4673" lon="0.9597">
        <ele>101.56</ele>
        <time>2015-11-21T13:32:26Z</time>
      </trkpt>
      <trkpt lat="44.46673" lon="0.96041">
        <ele>103.48</ele>
        <time>2015-11-21T13:32:43Z</time>
      </trkpt>
      <trkpt lat="44.46655" lon="0.96069">
        <ele>104.92</ele>
        <time>2015-11-21T13:32:49Z</time>
      </trkpt>
      <trkpt lat="44.46652" lon="0.96073">
        <ele>104.92</ele>
        <time>2015-11-21T13:32:50Z</time>
      </trkpt>
      <trkpt lat="44.46583" lon="0.96142">
        <ele>107.32</ele>
        <time>2015-11-21T13:33:08Z</time>
      </trkpt>
      <trkpt lat="44.46563" lon="0.96163">
        <ele>108.29</ele>
        <time>2015-11-21T13:33:14Z</time>
      </trkpt>
      <trkpt lat="44.46562" lon="0.96168">
        <ele>108.77</ele>
        <time>2015-11-21T13:33:15Z</time>
      </trkpt>
      <trkpt lat="44.46563" lon="0.96173">
        <ele>109.25</ele>
        <time>2015-11-21T13:33:16Z</time>
      </trkpt>
      <trkpt lat="44.46566" lon="0.96178">
        <ele>109.25</ele>
        <time>2015-11-21T13:33:17Z</time>
      </trkpt>
      <trkpt lat="44.46569" lon="0.96183">
        <ele>109.25</ele>
        <time>2015-11-21T13:33:18Z</time>
      </trkpt>
      <trkpt lat="44.46572" lon="0.96188">
        <ele>109.25</ele>
        <time>2015-11-21T13:33:19Z</time>
      </trkpt>
      <trkpt lat="44.46609" lon="0.96258">
        <ele>108.77</ele>
        <time>2015-11-21T13:33:33Z</time>
      </trkpt>
      <trkpt lat="44.46611" lon="0.96264">
        <ele>108.77</ele>
        <time>2015-11-21T13:33:34Z</time>
      </trkpt>
      <trkpt lat="44.4661" lon="0.96308">
        <ele>109.73</ele>
        <time>2015-11-21T13:33:44Z</time>
      </trkpt>
      <trkpt lat="44.46593" lon="0.96347">
        <ele>115.98</ele>
        <time>2015-11-21T13:33:55Z</time>
      </trkpt>
      <trkpt lat="44.46593" lon="0.96355">
        <ele>118.86</ele>
        <time>2015-11-21T13:33:59Z</time>
      </trkpt>
      <trkpt lat="44.4659" lon="0.96359">
        <ele>120.3</ele>
        <time>2015-11-21T13:34:03Z</time>
      </trkpt>
      <trkpt lat="44.46575" lon="0.96392">
        <ele>126.07</ele>
        <time>2015-11-21T13:34:12Z</time>
      </trkpt>
      <trkpt lat="44.46556" lon="0.96434">
        <ele>130.88</ele>
        <time>2015-11-21T13:34:23Z</time>
      </trkpt>
      <trkpt lat="44.46529" lon="0.96483">
        <ele>137.61</ele>
        <time>2015-11-21T13:34:36Z</time>
      </trkpt>
      <trkpt lat="44.46507" lon="0.96518">
        <ele>140.97</ele>
        <time>2015-11-21T13:34:47Z</time>
      </trkpt>
      <trkpt lat="44.46483" lon="0.96555">
        <ele>145.3</ele>
        <time>2015-11-21T13:35:00Z</time>
      </trkpt>
      <trkpt lat="44.4648" lon="0.96559">
        <ele>146.26</ele>
        <time>2015-11-21T13:35:02Z</time>
      </trkpt>
      <trkpt lat="44.4648" lon="0.96568">
        <ele>143.85</ele>
        <time>2015-11-21T13:35:11Z</time>
      </trkpt>
      <trkpt lat="44.4648" lon="0.9657">
        <ele>142.89</ele>
        <time>2015-11-21T13:35:18Z</time>
      </trkpt>
      <trkpt lat="44.46485" lon="0.96572">
        <ele>141.93</ele>
        <time>2015-11-21T13:35:22Z</time>
      </trkpt>
      <trkpt lat="44.46493" lon="0.96576">
        <ele>140.97</ele>
        <time>2015-11-21T13:35:27Z</time>
      </trkpt>
      <trkpt lat="44.46518" lon="0.96587">
        <ele>137.61</ele>
        <time>2015-11-21T13:35:39Z</time>
      </trkpt>
      <trkpt lat="44.46551" lon="0.96623">
        <ele>137.61</ele>
        <time>2015-11-21T13:35:50Z</time>
      </trkpt>
      <trkpt lat="44.46561" lon="0.9665">
        <ele>135.2</ele>
        <time>2015-11-21T13:35:56Z</time>
      </trkpt>
      <trkpt lat="44.46579" lon="0.96683">
        <ele>132.32</ele>
        <time>2015-11-21T13:36:07Z</time>
      </trkpt>
      <trkpt lat="44.46595" lon="0.96701">
        <ele>130.88</ele>
        <time>2015-11-21T13:36:14Z</time>
      </trkpt>
      <trkpt lat="44.46602" lon="0.96714">
        <ele>128.47</ele>
        <time>2015-11-21T13:36:19Z</time>
      </trkpt>
      <trkpt lat="44.46629" lon="0.96768">
        <ele>128.47</ele>
        <time>2015-11-21T13:36:32Z</time>
      </trkpt>
      <trkpt lat="44.46634" lon="0.96776">
        <ele>130.88</ele>
        <time>2015-11-21T13:36:44Z</time>
      </trkpt>
      <trkpt lat="44.46634" lon="0.96777">
        <ele>129.92</ele>
        <time>2015-11-21T13:37:09Z</time>
      </trkpt>
      <trkpt lat="44.46634" lon="0.96777">
        <ele>128.95</ele>
        <time>2015-11-21T13:37:38Z</time>
      </trkpt>
      <trkpt lat="44.46633" lon="0.96778">
        <ele>126.07</ele>
        <time>2015-11-21T13:38:09Z</time>
      </trkpt>
      <trkpt lat="44.46634" lon="0.96779">
        <ele>126.55</ele>
        <time>2015-11-21T13:38:35Z</time>
      </trkpt>
      <trkpt lat="44.46635" lon="0.96781">
        <ele>126.55</ele>
        <time>2015-11-21T13:38:49Z</time>
      </trkpt>
      <trkpt lat="44.46638" lon="0.96784">
        <ele>126.55</ele>
        <time>2015-11-21T13:39:15Z</time>
      </trkpt>
      <trkpt lat="44.46645" lon="0.96796">
        <ele>126.07</ele>
        <time>2015-11-21T13:39:23Z</time>
      </trkpt>
      <trkpt lat="44.46654" lon="0.96807">
        <ele>127.03</ele>
        <time>2015-11-21T13:39:35Z</time>
      </trkpt>
      <trkpt lat="44.46661" lon="0.96805">
        <ele>127.03</ele>
        <time>2015-11-21T13:39:40Z</time>
      </trkpt>
      <trkpt lat="44.46675" lon="0.96796">
        <ele>126.55</ele>
        <time>2015-11-21T13:39:45Z</time>
      </trkpt>
      <trkpt lat="44.46697" lon="0.96784">
        <ele>125.59</ele>
        <time>2015-11-21T13:39:50Z</time>
      </trkpt>
      <trkpt lat="44.46745" lon="0.9675">
        <ele>122.22</ele>
        <time>2015-11-21T13:40:03Z</time>
      </trkpt>
      <trkpt lat="44.46747" lon="0.9675">
        <ele>121.74</ele>
        <time>2015-11-21T13:40:04Z</time>
      </trkpt>
      <trkpt lat="44.46759" lon="0.9676">
        <ele>119.34</ele>
        <time>2015-11-21T13:40:11Z</time>
      </trkpt>
      <trkpt lat="44.4676" lon="0.96763">
        <ele>119.34</ele>
        <time>2015-11-21T13:40:12Z</time>
      </trkpt>
      <trkpt lat="44.46782" lon="0.96815">
        <ele>118.86</ele>
        <time>2015-11-21T13:40:23Z</time>
      </trkpt>
      <trkpt lat="44.46821" lon="0.9691">
        <ele>113.09</ele>
        <time>2015-11-21T13:40:35Z</time>
      </trkpt>
      <trkpt lat="44.46857" lon="0.97005">
        <ele>102.52</ele>
        <time>2015-11-21T13:40:48Z</time>
      </trkpt>
      <trkpt lat="44.4689" lon="0.9709">
        <ele>96.75</ele>
        <time>2015-11-21T13:41:02Z</time>
      </trkpt>
      <trkpt lat="44.46916" lon="0.97147">
        <ele>94.35</ele>
        <time>2015-11-21T13:41:17Z</time>
      </trkpt>
      <trkpt lat="44.46923" lon="0.97164">
        <ele>93.87</ele>
        <time>2015-11-21T13:41:21Z</time>
      </trkpt>
      <trkpt lat="44.46925" lon="0.97168">
        <ele>93.87</ele>
        <time>2015-11-21T13:41:22Z</time>
      </trkpt>
      <trkpt lat="44.46929" lon="0.97179">
        <ele>93.87</ele>
        <time>2015-11-21T13:41:24Z</time>
      </trkpt>
      <trkpt lat="44.46936" lon="0.97193">
        <ele>93.39</ele>
        <time>2015-11-21T13:41:27Z</time>
      </trkpt>
      <trkpt lat="44.46964" lon="0.97261">
        <ele>92.42</ele>
        <time>2015-11-21T13:41:42Z</time>
      </trkpt>
      <trkpt lat="44.46968" lon="0.97272">
        <ele>92.42</ele>
        <time>2015-11-21T13:41:52Z</time>
      </trkpt>
      <trkpt lat="44.46977" lon="0.97311">
        <ele>92.9</ele>
        <time>2015-11-21T13:42:03Z</time>
      </trkpt>
      <trkpt lat="44.46996" lon="0.97394">
        <ele>93.87</ele>
        <time>2015-11-21T13:42:17Z</time>
      </trkpt>
      <trkpt lat="44.47024" lon="0.97498">
        <ele>98.19</ele>
        <time>2015-11-21T13:42:35Z</time>
      </trkpt>
      <trkpt lat="44.47052" lon="0.97582">
        <ele>100.6</ele>
        <time>2015-11-21T13:42:50Z</time>
      </trkpt>
      <trkpt lat="44.47069" lon="0.97617">
        <ele>101.08</ele>
        <time>2015-11-21T13:42:57Z</time>
      </trkpt>
      <trkpt lat="44.47071" lon="0.97623">
        <ele>101.08</ele>
        <time>2015-11-21T13:42:58Z</time>
      </trkpt>
      <trkpt lat="44.47071" lon="0.97628">
        <ele>101.08</ele>
        <time>2015-11-21T13:42:59Z</time>
      </trkpt>
      <trkpt lat="44.4707" lon="0.97633">
        <ele>101.08</ele>
        <time>2015-11-21T13:43:00Z</time>
      </trkpt>
      <trkpt lat="44.47067" lon="0.97637">
        <ele>101.56</ele>
        <time>2015-11-21T13:43:01Z</time>
      </trkpt>
      <trkpt lat="44.47064" lon="0.97639">
        <ele>102.04</ele>
        <time>2015-11-21T13:43:02Z</time>
      </trkpt>
      <trkpt lat="44.4706" lon="0.97641">
        <ele>102.52</ele>
        <time>2015-11-21T13:43:03Z</time>
      </trkpt>
      <trkpt lat="44.46998" lon="0.97679">
        <ele>105.88</ele>
        <time>2015-11-21T13:43:19Z</time>
      </trkpt>
      <trkpt lat="44.46979" lon="0.97694">
        <ele>105.88</ele>
        <time>2015-11-21T13:43:24Z</time>
      </trkpt>
      <trkpt lat="44.46975" lon="0.97697">
        <ele>105.88</ele>
        <time>2015-11-21T13:43:25Z</time>
      </trkpt>
      <trkpt lat="44.46926" lon="0.97738">
        <ele>106.36</ele>
        <time>2015-11-21T13:43:39Z</time>
      </trkpt>
      <trkpt lat="44.46915" lon="0.97751">
        <ele>106.36</ele>
        <time>2015-11-21T13:43:44Z</time>
      </trkpt>
      <trkpt lat="44.46912" lon="0.97752">
        <ele>106.84</ele>
        <time>2015-11-21T13:43:45Z</time>
      </trkpt>
      <trkpt lat="44.4687" lon="0.97771">
        <ele>106.84</ele>
        <time>2015-11-21T13:43:59Z</time>
      </trkpt>
      <trkpt lat="44.4683" lon="0.97791">
        <ele>108.29</ele>
        <time>2015-11-21T13:44:15Z</time>
      </trkpt>
      <trkpt lat="44.468" lon="0.978">
        <ele>112.13</ele>
        <time>2015-11-21T13:44:30Z</time>
      </trkpt>
      <trkpt lat="44.46795" lon="0.97803">
        <ele>113.09</ele>
        <time>2015-11-21T13:44:33Z</time>
      </trkpt>
      <trkpt lat="44.46782" lon="0.97807">
        <ele>119.34</ele>
        <time>2015-11-21T13:44:44Z</time>
      </trkpt>
      <trkpt lat="44.46761" lon="0.97816">
        <ele>126.07</ele>
        <time>2015-11-21T13:44:58Z</time>
      </trkpt>
      <trkpt lat="44.46738" lon="0.97824">
        <ele>129.43</ele>
        <time>2015-11-21T13:45:13Z</time>
      </trkpt>
      <trkpt lat="44.46723" lon="0.9783">
        <ele>132.8</ele>
        <time>2015-11-21T13:45:24Z</time>
      </trkpt>
      <trkpt lat="44.46719" lon="0.97832">
        <ele>133.76</ele>
        <time>2015-11-21T13:45:27Z</time>
      </trkpt>
      <trkpt lat="44.46696" lon="0.97843">
        <ele>136.64</ele>
        <time>2015-11-21T13:45:42Z</time>
      </trkpt>
      <trkpt lat="44.46673" lon="0.97856">
        <ele>137.61</ele>
        <time>2015-11-21T13:45:56Z</time>
      </trkpt>
      <trkpt lat="44.46645" lon="0.97868">
        <ele>139.53</ele>
        <time>2015-11-21T13:46:12Z</time>
      </trkpt>
      <trkpt lat="44.46621" lon="0.97871">
        <ele>142.89</ele>
        <time>2015-11-21T13:46:25Z</time>
      </trkpt>
      <trkpt lat="44.46596" lon="0.97885">
        <ele>141.45</ele>
        <time>2015-11-21T13:46:39Z</time>
      </trkpt>
      <trkpt lat="44.46595" lon="0.97888">
        <ele>140.97</ele>
        <time>2015-11-21T13:46:52Z</time>
      </trkpt>
      <trkpt lat="44.46594" lon="0.97889">
        <ele>140.49</ele>
        <time>2015-11-21T13:47:10Z</time>
      </trkpt>
      <trkpt lat="44.46593" lon="0.97889">
        <ele>140.01</ele>
        <time>2015-11-21T13:47:25Z</time>
      </trkpt>
      <trkpt lat="44.46587" lon="0.97901">
        <ele>140.49</ele>
        <time>2015-11-21T13:47:39Z</time>
      </trkpt>
      <trkpt lat="44.46567" lon="0.97944">
        <ele>142.41</ele>
        <time>2015-11-21T13:47:53Z</time>
      </trkpt>
      <trkpt lat="44.46531" lon="0.98005">
        <ele>141.45</ele>
        <time>2015-11-21T13:48:08Z</time>
      </trkpt>
      <trkpt lat="44.46506" lon="0.98059">
        <ele>140.97</ele>
        <time>2015-11-21T13:48:20Z</time>
      </trkpt>
      <trkpt lat="44.46495" lon="0.98087">
        <ele>140.49</ele>
        <time>2015-11-21T13:48:26Z</time>
      </trkpt>
      <trkpt lat="44.46471" lon="0.98144">
        <ele>141.45</ele>
        <time>2015-11-21T13:48:40Z</time>
      </trkpt>
      <trkpt lat="44.46436" lon="0.9821">
        <ele>141.93</ele>
        <time>2015-11-21T13:48:56Z</time>
      </trkpt>
      <trkpt lat="44.46405" lon="0.98267">
        <ele>142.89</ele>
        <time>2015-11-21T13:49:11Z</time>
      </trkpt>
      <trkpt lat="44.4637" lon="0.98325">
        <ele>144.82</ele>
        <time>2015-11-21T13:49:27Z</time>
      </trkpt>
      <trkpt lat="44.46336" lon="0.98368">
        <ele>148.18</ele>
        <time>2015-11-21T13:49:42Z</time>
      </trkpt>
      <trkpt lat="44.46299" lon="0.98382">
        <ele>151.06</ele>
        <time>2015-11-21T13:49:55Z</time>
      </trkpt>
      <trkpt lat="44.46264" lon="0.98398">
        <ele>153.95</ele>
        <time>2015-11-21T13:50:09Z</time>
      </trkpt>
      <trkpt lat="44.46234" lon="0.98378">
        <ele>156.83</ele>
        <time>2015-11-21T13:50:22Z</time>
      </trkpt>
      <trkpt lat="44.46205" lon="0.98374">
        <ele>158.75</ele>
        <time>2015-11-21T13:50:34Z</time>
      </trkpt>
      <trkpt lat="44.46173" lon="0.98408">
        <ele>161.64</ele>
        <time>2015-11-21T13:50:49Z</time>
      </trkpt>
      <trkpt lat="44.46136" lon="0.98449">
        <ele>164.04</ele>
        <time>2015-11-21T13:51:06Z</time>
      </trkpt>
      <trkpt lat="44.46106" lon="0.98492">
        <ele>167.41</ele>
        <time>2015-11-21T13:51:22Z</time>
      </trkpt>
      <trkpt lat="44.46075" lon="0.98541">
        <ele>170.29</ele>
        <time>2015-11-21T13:51:38Z</time>
      </trkpt>
      <trkpt lat="44.46044" lon="0.98593">
        <ele>169.81</ele>
        <time>2015-11-21T13:51:53Z</time>
      </trkpt>
      <trkpt lat="44.46018" lon="0.98635">
        <ele>171.73</ele>
        <time>2015-11-21T13:52:05Z</time>
      </trkpt>
      <trkpt lat="44.45996" lon="0.98685">
        <ele>173.66</ele>
        <time>2015-11-21T13:52:19Z</time>
      </trkpt>
      <trkpt lat="44.45974" lon="0.98723">
        <ele>177.5</ele>
        <time>2015-11-21T13:52:32Z</time>
      </trkpt>
      <trkpt lat="44.45971" lon="0.98727">
        <ele>177.98</ele>
        <time>2015-11-21T13:52:34Z</time>
      </trkpt>
      <trkpt lat="44.4597" lon="0.98729">
        <ele>178.46</ele>
        <time>2015-11-21T13:52:35Z</time>
      </trkpt>
      <trkpt lat="44.45967" lon="0.98737">
        <ele>177.98</ele>
        <time>2015-11-21T13:52:47Z</time>
      </trkpt>
      <trkpt lat="44.45967" lon="0.98737">
        <ele>176.54</ele>
        <time>2015-11-21T13:53:20Z</time>
      </trkpt>
      <trkpt lat="44.45967" lon="0.98736">
        <ele>176.06</ele>
        <time>2015-11-21T13:53:54Z</time>
      </trkpt>
      <trkpt lat="44.45967" lon="0.98735">
        <ele>176.06</ele>
        <time>2015-11-21T13:54:20Z</time>
      </trkpt>
      <trkpt lat="44.45967" lon="0.98736">
        <ele>175.58</ele>
        <time>2015-11-21T13:54:35Z</time>
      </trkpt>
      <trkpt lat="44.45967" lon="0.98738">
        <ele>175.58</ele>
        <time>2015-11-21T13:54:36Z</time>
      </trkpt>
      <trkpt lat="44.45966" lon="0.98739">
        <ele>176.06</ele>
        <time>2015-11-21T13:54:37Z</time>
      </trkpt>
      <trkpt lat="44.45965" lon="0.98741">
        <ele>176.06</ele>
        <time>2015-11-21T13:54:38Z</time>
      </trkpt>
      <trkpt lat="44.45965" lon="0.98744">
        <ele>176.54</ele>
        <time>2015-11-21T13:54:39Z</time>
      </trkpt>
      <trkpt lat="44.45947" lon="0.98779">
        <ele>180.38</ele>
        <time>2015-11-21T13:54:52Z</time>
      </trkpt>
      <trkpt lat="44.45913" lon="0.98824">
        <ele>182.31</ele>
        <time>2015-11-21T13:55:09Z</time>
      </trkpt>
      <trkpt lat="44.4588" lon="0.98864">
        <ele>184.23</ele>
        <time>2015-11-21T13:55:23Z</time>
      </trkpt>
      <trkpt lat="44.4586" lon="0.98918">
        <ele>186.63</ele>
        <time>2015-11-21T13:55:37Z</time>
      </trkpt>
      <trkpt lat="44.45853" lon="0.98997">
        <ele>188.08</ele>
        <time>2015-11-21T13:55:54Z</time>
      </trkpt>
      <trkpt lat="44.45848" lon="0.99059">
        <ele>189.04</ele>
        <time>2015-11-21T13:56:06Z</time>
      </trkpt>
      <trkpt lat="44.45848" lon="0.99065">
        <ele>189.04</ele>
        <time>2015-11-21T13:56:07Z</time>
      </trkpt>
      <trkpt lat="44.45845" lon="0.99097">
        <ele>188.56</ele>
        <time>2015-11-21T13:56:12Z</time>
      </trkpt>
      <trkpt lat="44.45841" lon="0.99158">
        <ele>187.11</ele>
        <time>2015-11-21T13:56:21Z</time>
      </trkpt>
      <trkpt lat="44.45842" lon="0.99166">
        <ele>187.11</ele>
        <time>2015-11-21T13:56:22Z</time>
      </trkpt>
      <trkpt lat="44.45843" lon="0.99173">
        <ele>186.63</ele>
        <time>2015-11-21T13:56:23Z</time>
      </trkpt>
      <trkpt lat="44.45845" lon="0.99181">
        <ele>186.63</ele>
        <time>2015-11-21T13:56:24Z</time>
      </trkpt>
      <trkpt lat="44.45848" lon="0.99188">
        <ele>186.63</ele>
        <time>2015-11-21T13:56:25Z</time>
      </trkpt>
      <trkpt lat="44.45852" lon="0.99195">
        <ele>186.63</ele>
        <time>2015-11-21T13:56:26Z</time>
      </trkpt>
      <trkpt lat="44.45856" lon="0.992">
        <ele>186.15</ele>
        <time>2015-11-21T13:56:27Z</time>
      </trkpt>
      <trkpt lat="44.4586" lon="0.99205">
        <ele>186.15</ele>
        <time>2015-11-21T13:56:28Z</time>
      </trkpt>
      <trkpt lat="44.45865" lon="0.9921">
        <ele>186.15</ele>
        <time>2015-11-21T13:56:29Z</time>
      </trkpt>
      <trkpt lat="44.4587" lon="0.99214">
        <ele>185.67</ele>
        <time>2015-11-21T13:56:30Z</time>
      </trkpt>
      <trkpt lat="44.4596" lon="0.99282">
        <ele>182.79</ele>
        <time>2015-11-21T13:56:49Z</time>
      </trkpt>
      <trkpt lat="44.46036" lon="0.99351">
        <ele>180.87</ele>
        <time>2015-11-21T13:57:04Z</time>
      </trkpt>
      <trkpt lat="44.46041" lon="0.99355">
        <ele>180.87</ele>
        <time>2015-11-21T13:57:05Z</time>
      </trkpt>
      <trkpt lat="44.46045" lon="0.99359">
        <ele>180.87</ele>
        <time>2015-11-21T13:57:06Z</time>
      </trkpt>
      <trkpt lat="44.46099" lon="0.99412">
        <ele>181.83</ele>
        <time>2015-11-21T13:57:21Z</time>
      </trkpt>
      <trkpt lat="44.46118" lon="0.99436">
        <ele>182.31</ele>
        <time>2015-11-21T13:57:33Z</time>
      </trkpt>
      <trkpt lat="44.46116" lon="0.99435">
        <ele>182.31</ele>
        <time>2015-11-21T13:57:39Z</time>
      </trkpt>
      <trkpt lat="44.46115" lon="0.99433">
        <ele>182.31</ele>
        <time>2015-11-21T13:57:40Z</time>
      </trkpt>
      <trkpt lat="44.46113" lon="0.99431">
        <ele>182.31</ele>
        <time>2015-11-21T13:57:41Z</time>
      </trkpt>
      <trkpt lat="44.46111" lon="0.99429">
        <ele>182.31</ele>
        <time>2015-11-21T13:57:42Z</time>
      </trkpt>
      <trkpt lat="44.46109" lon="0.99428">
        <ele>182.31</ele>
        <time>2015-11-21T13:57:43Z</time>
      </trkpt>
      <trkpt lat="44.46107" lon="0.99425">
        <ele>182.31</ele>
        <time>2015-11-21T13:57:44Z</time>
      </trkpt>
      <trkpt lat="44.46071" lon="0.99414">
        <ele>182.31</ele>
        <time>2015-11-21T13:57:57Z</time>
      </trkpt>
      <trkpt lat="44.46016" lon="0.99419">
        <ele>181.35</ele>
        <time>2015-11-21T13:58:10Z</time>
      </trkpt>
      <trkpt lat="44.46012" lon="0.99419">
        <ele>181.35</ele>
        <time>2015-11-21T13:58:11Z</time>
      </trkpt>
      <trkpt lat="44.46007" lon="0.9942">
        <ele>181.35</ele>
        <time>2015-11-21T13:58:12Z</time>
      </trkpt>
      <trkpt lat="44.45942" lon="0.99425">
        <ele>179.9</ele>
        <time>2015-11-21T13:58:26Z</time>
      </trkpt>
      <trkpt lat="44.45883" lon="0.99431">
        <ele>184.23</ele>
        <time>2015-11-21T13:58:42Z</time>
      </trkpt>
      <trkpt lat="44.4583" lon="0.99435">
        <ele>185.19</ele>
        <time>2015-11-21T13:58:58Z</time>
      </trkpt>
      <trkpt lat="44.45784" lon="0.99436">
        <ele>188.56</ele>
        <time>2015-11-21T13:59:14Z</time>
      </trkpt>
      <trkpt lat="44.45751" lon="0.99427">
        <ele>193.36</ele>
        <time>2015-11-21T13:59:26Z</time>
      </trkpt>
      <trkpt lat="44.45718" lon="0.99411">
        <ele>192.88</ele>
        <time>2015-11-21T13:59:39Z</time>
      </trkpt>
      <trkpt lat="44.45683" lon="0.99399">
        <ele>193.84</ele>
        <time>2015-11-21T13:59:52Z</time>
      </trkpt>
      <trkpt lat="44.45641" lon="0.99383">
        <ele>194.32</ele>
        <time>2015-11-21T14:00:06Z</time>
      </trkpt>
      <trkpt lat="44.45573" lon="0.99336">
        <ele>192.4</ele>
        <time>2015-11-21T14:00:23Z</time>
      </trkpt>
      <trkpt lat="44.45501" lon="0.99287">
        <ele>195.77</ele>
        <time>2015-11-21T14:00:44Z</time>
      </trkpt>
      <trkpt lat="44.45451" lon="0.99254">
        <ele>197.21</ele>
        <time>2015-11-21T14:01:00Z</time>
      </trkpt>
      <trkpt lat="44.45391" lon="0.99208">
        <ele>198.65</ele>
        <time>2015-11-21T14:01:21Z</time>
      </trkpt>
      <trkpt lat="44.45337" lon="0.99175">
        <ele>199.13</ele>
        <time>2015-11-21T14:01:37Z</time>
      </trkpt>
      <trkpt lat="44.4531" lon="0.9916">
        <ele>200.57</ele>
        <time>2015-11-21T14:01:49Z</time>
      </trkpt>
      <trkpt lat="44.453" lon="0.99167">
        <ele>201.53</ele>
        <time>2015-11-21T14:02:00Z</time>
      </trkpt>
      <trkpt lat="44.453" lon="0.99166">
        <ele>201.53</ele>
        <time>2015-11-21T14:02:22Z</time>
      </trkpt>
      <trkpt lat="44.453" lon="0.99165">
        <ele>201.53</ele>
        <time>2015-11-21T14:02:45Z</time>
      </trkpt>
      <trkpt lat="44.45288" lon="0.99176">
        <ele>202.49</ele>
        <time>2015-11-21T14:02:56Z</time>
      </trkpt>
      <trkpt lat="44.45251" lon="0.99203">
        <ele>200.09</ele>
        <time>2015-11-21T14:03:08Z</time>
      </trkpt>
      <trkpt lat="44.45187" lon="0.99257">
        <ele>192.88</ele>
        <time>2015-11-21T14:03:19Z</time>
      </trkpt>
      <trkpt lat="44.4517" lon="0.99274">
        <ele>190.96</ele>
        <time>2015-11-21T14:03:22Z</time>
      </trkpt>
      <trkpt lat="44.45152" lon="0.9928">
        <ele>188.56</ele>
        <time>2015-11-21T14:03:26Z</time>
      </trkpt>
      <trkpt lat="44.45134" lon="0.99285">
        <ele>184.71</ele>
        <time>2015-11-21T14:03:30Z</time>
      </trkpt>
      <trkpt lat="44.45078" lon="0.99283">
        <ele>174.14</ele>
        <time>2015-11-21T14:03:39Z</time>
      </trkpt>
      <trkpt lat="44.45041" lon="0.99262">
        <ele>166.45</ele>
        <time>2015-11-21T14:03:45Z</time>
      </trkpt>
      <trkpt lat="44.45022" lon="0.99254">
        <ele>163.56</ele>
        <time>2015-11-21T14:03:48Z</time>
      </trkpt>
      <trkpt lat="44.45" lon="0.99237">
        <ele>159.24</ele>
        <time>2015-11-21T14:03:52Z</time>
      </trkpt>
      <trkpt lat="44.44973" lon="0.99201">
        <ele>151.54</ele>
        <time>2015-11-21T14:03:58Z</time>
      </trkpt>
      <trkpt lat="44.44961" lon="0.99192">
        <ele>148.18</ele>
        <time>2015-11-21T14:04:01Z</time>
      </trkpt>
      <trkpt lat="44.44927" lon="0.99208">
        <ele>140.01</ele>
        <time>2015-11-21T14:04:09Z</time>
      </trkpt>
      <trkpt lat="44.44895" lon="0.99268">
        <ele>137.13</ele>
        <time>2015-11-21T14:04:17Z</time>
      </trkpt>
      <trkpt lat="44.44828" lon="0.99343">
        <ele>131.36</ele>
        <time>2015-11-21T14:04:29Z</time>
      </trkpt>
      <trkpt lat="44.44773" lon="0.99416">
        <ele>124.15</ele>
        <time>2015-11-21T14:04:39Z</time>
      </trkpt>
      <trkpt lat="44.44768" lon="0.99426">
        <ele>122.22</ele>
        <time>2015-11-21T14:04:41Z</time>
      </trkpt>
      <trkpt lat="44.44743" lon="0.99431">
        <ele>118.38</ele>
        <time>2015-11-21T14:04:46Z</time>
      </trkpt>
      <trkpt lat="44.44694" lon="0.99482">
        <ele>117.9</ele>
        <time>2015-11-21T14:04:57Z</time>
      </trkpt>
      <trkpt lat="44.44665" lon="0.99546">
        <ele>122.22</ele>
        <time>2015-11-21T14:05:13Z</time>
      </trkpt>
      <trkpt lat="44.44659" lon="0.99552">
        <ele>123.67</ele>
        <time>2015-11-21T14:05:17Z</time>
      </trkpt>
      <trkpt lat="44.44665" lon="0.99563">
        <ele>124.63</ele>
        <time>2015-11-21T14:05:26Z</time>
      </trkpt>
      <trkpt lat="44.44667" lon="0.99564">
        <ele>125.11</ele>
        <time>2015-11-21T14:05:27Z</time>
      </trkpt>
      <trkpt lat="44.44669" lon="0.99566">
        <ele>125.11</ele>
        <time>2015-11-21T14:05:28Z</time>
      </trkpt>
      <trkpt lat="44.44671" lon="0.99568">
        <ele>125.11</ele>
        <time>2015-11-21T14:05:29Z</time>
      </trkpt>
      <trkpt lat="44.44673" lon="0.99571">
        <ele>125.11</ele>
        <time>2015-11-21T14:05:30Z</time>
      </trkpt>
      <trkpt lat="44.44675" lon="0.99573">
        <ele>125.11</ele>
        <time>2015-11-21T14:05:31Z</time>
      </trkpt>
      <trkpt lat="44.44677" lon="0.99575">
        <ele>125.11</ele>
        <time>2015-11-21T14:05:32Z</time>
      </trkpt>
      <trkpt lat="44.44679" lon="0.99577">
        <ele>125.59</ele>
        <time>2015-11-21T14:05:33Z</time>
      </trkpt>
      <trkpt lat="44.44681" lon="0.9958">
        <ele>125.59</ele>
        <time>2015-11-21T14:05:34Z</time>
      </trkpt>
      <trkpt lat="44.44713" lon="0.99619">
        <ele>126.55</ele>
        <time>2015-11-21T14:05:48Z</time>
      </trkpt>
      <trkpt lat="44.44738" lon="0.99662">
        <ele>127.51</ele>
        <time>2015-11-21T14:06:01Z</time>
      </trkpt>
      <trkpt lat="44.44779" lon="0.99711">
        <ele>129.43</ele>
        <time>2015-11-21T14:06:18Z</time>
      </trkpt>
      <trkpt lat="44.44807" lon="0.99735">
        <ele>129.92</ele>
        <time>2015-11-21T14:06:29Z</time>
      </trkpt>
      <trkpt lat="44.44809" lon="0.99738">
        <ele>129.92</ele>
        <time>2015-11-21T14:06:30Z</time>
      </trkpt>
      <trkpt lat="44.44811" lon="0.9974">
        <ele>129.92</ele>
        <time>2015-11-21T14:06:31Z</time>
      </trkpt>
      <trkpt lat="44.44814" lon="0.99742">
        <ele>129.92</ele>
        <time>2015-11-21T14:06:32Z</time>
      </trkpt>
      <trkpt lat="44.44816" lon="0.99744">
        <ele>129.92</ele>
        <time>2015-11-21T14:06:33Z</time>
      </trkpt>
      <trkpt lat="44.44819" lon="0.99747">
        <ele>129.43</ele>
        <time>2015-11-21T14:06:34Z</time>
      </trkpt>
      <trkpt lat="44.44822" lon="0.99749">
        <ele>129.43</ele>
        <time>2015-11-21T14:06:35Z</time>
      </trkpt>
      <trkpt lat="44.44824" lon="0.99751">
        <ele>129.43</ele>
        <time>2015-11-21T14:06:36Z</time>
      </trkpt>
      <trkpt lat="44.44827" lon="0.99754">
        <ele>129.43</ele>
        <time>2015-11-21T14:06:37Z</time>
      </trkpt>
      <trkpt lat="44.4483" lon="0.99756">
        <ele>129.43</ele>
        <time>2015-11-21T14:06:38Z</time>
      </trkpt>
      <trkpt lat="44.44833" lon="0.99759">
        <ele>129.43</ele>
        <time>2015-11-21T14:06:39Z</time>
      </trkpt>
      <trkpt lat="44.44837" lon="0.99762">
        <ele>129.43</ele>
        <time>2015-11-21T14:06:40Z</time>
      </trkpt>
      <trkpt lat="44.4484" lon="0.99765">
        <ele>128.95</ele>
        <time>2015-11-21T14:06:41Z</time>
      </trkpt>
      <trkpt lat="44.44887" lon="0.99803">
        <ele>127.03</ele>
        <time>2015-11-21T14:06:52Z</time>
      </trkpt>
      <trkpt lat="44.44901" lon="0.99816">
        <ele>127.03</ele>
        <time>2015-11-21T14:06:56Z</time>
      </trkpt>
      <trkpt lat="44.44908" lon="0.99823">
        <ele>126.55</ele>
        <time>2015-11-21T14:06:58Z</time>
      </trkpt>
      <trkpt lat="44.44911" lon="0.99827">
        <ele>126.55</ele>
        <time>2015-11-21T14:06:59Z</time>
      </trkpt>
      <trkpt lat="44.44915" lon="0.9983">
        <ele>126.55</ele>
        <time>2015-11-21T14:07:00Z</time>
      </trkpt>
      <trkpt lat="44.44945" lon="0.99869">
        <ele>126.07</ele>
        <time>2015-11-21T14:07:10Z</time>
      </trkpt>
      <trkpt lat="44.44969" lon="0.99902">
        <ele>128.95</ele>
        <time>2015-11-21T14:07:19Z</time>
      </trkpt>
      <trkpt lat="44.44998" lon="0.99934">
        <ele>128.95</ele>
        <time>2015-11-21T14:07:29Z</time>
      </trkpt>
      <trkpt lat="44.44999" lon="0.99937">
        <ele>128.95</ele>
        <time>2015-11-21T14:07:30Z</time>
      </trkpt>
      <trkpt lat="44.44998" lon="0.99941">
        <ele>129.43</ele>
        <time>2015-11-21T14:07:32Z</time>
      </trkpt>
      <trkpt lat="44.44995" lon="0.99945">
        <ele>129.92</ele>
        <time>2015-11-21T14:07:35Z</time>
      </trkpt>
      <trkpt lat="44.44992" lon="0.99952">
        <ele>130.88</ele>
        <time>2015-11-21T14:07:39Z</time>
      </trkpt>
      <trkpt lat="44.44984" lon="0.99964">
        <ele>135.2</ele>
        <time>2015-11-21T14:07:48Z</time>
      </trkpt>
      <trkpt lat="44.4497" lon="0.99985">
        <ele>139.05</ele>
        <time>2015-11-21T14:08:00Z</time>
      </trkpt>
      <trkpt lat="44.44957" lon="1.0001">
        <ele>145.3</ele>
        <time>2015-11-21T14:08:14Z</time>
      </trkpt>
      <trkpt lat="44.44941" lon="1.00044">
        <ele>151.06</ele>
        <time>2015-11-21T14:08:30Z</time>
      </trkpt>
      <trkpt lat="44.4493" lon="1.00064">
        <ele>154.43</ele>
        <time>2015-11-21T14:08:42Z</time>
      </trkpt>
      <trkpt lat="44.44919" lon="1.00087">
        <ele>157.31</ele>
        <time>2015-11-21T14:08:55Z</time>
      </trkpt>
      <trkpt lat="44.44915" lon="1.00098">
        <ele>157.79</ele>
        <time>2015-11-21T14:09:01Z</time>
      </trkpt>
      <trkpt lat="44.44908" lon="1.00113">
        <ele>162.6</ele>
        <time>2015-11-21T14:09:10Z</time>
      </trkpt>
      <trkpt lat="44.44897" lon="1.00134">
        <ele>165.96</ele>
        <time>2015-11-21T14:09:22Z</time>
      </trkpt>
      <trkpt lat="44.44884" lon="1.00154">
        <ele>167.41</ele>
        <time>2015-11-21T14:09:35Z</time>
      </trkpt>
      <trkpt lat="44.44869" lon="1.00177">
        <ele>168.37</ele>
        <time>2015-11-21T14:09:47Z</time>
      </trkpt>
      <trkpt lat="44.44857" lon="1.00199">
        <ele>167.89</ele>
        <time>2015-11-21T14:09:59Z</time>
      </trkpt>
      <trkpt lat="44.44853" lon="1.00208">
        <ele>168.85</ele>
        <time>2015-11-21T14:10:04Z</time>
      </trkpt>
      <trkpt lat="44.44841" lon="1.00235">
        <ele>172.21</ele>
        <time>2015-11-21T14:10:20Z</time>
      </trkpt>
      <trkpt lat="44.44832" lon="1.00257">
        <ele>178.94</ele>
        <time>2015-11-21T14:10:34Z</time>
      </trkpt>
      <trkpt lat="44.44824" lon="1.00282">
        <ele>182.31</ele>
        <time>2015-11-21T14:10:47Z</time>
      </trkpt>
      <trkpt lat="44.44818" lon="1.00307">
        <ele>187.59</ele>
        <time>2015-11-21T14:11:02Z</time>
      </trkpt>
      <trkpt lat="44.44816" lon="1.00315">
        <ele>187.11</ele>
        <time>2015-11-21T14:11:06Z</time>
      </trkpt>
      <trkpt lat="44.44808" lon="1.00345">
        <ele>185.67</ele>
        <time>2015-11-21T14:11:20Z</time>
      </trkpt>
      <trkpt lat="44.44807" lon="1.00346">
        <ele>185.67</ele>
        <time>2015-11-21T14:11:21Z</time>
      </trkpt>
      <trkpt lat="44.44806" lon="1.0035">
        <ele>185.67</ele>
        <time>2015-11-21T14:11:23Z</time>
      </trkpt>
      <trkpt lat="44.44802" lon="1.00357">
        <ele>184.71</ele>
        <time>2015-11-21T14:11:27Z</time>
      </trkpt>
      <trkpt lat="44.44791" lon="1.00389">
        <ele>182.79</ele>
        <time>2015-11-21T14:11:42Z</time>
      </trkpt>
      <trkpt lat="44.44778" lon="1.00414">
        <ele>183.27</ele>
        <time>2015-11-21T14:11:56Z</time>
      </trkpt>
      <trkpt lat="44.44764" lon="1.00439">
        <ele>183.75</ele>
        <time>2015-11-21T14:12:11Z</time>
      </trkpt>
      <trkpt lat="44.4476" lon="1.0045">
        <ele>184.71</ele>
        <time>2015-11-21T14:12:18Z</time>
      </trkpt>
      <trkpt lat="44.44751" lon="1.00476">
        <ele>187.59</ele>
        <time>2015-11-21T14:12:32Z</time>
      </trkpt>
      <trkpt lat="44.44746" lon="1.00489">
        <ele>189.04</ele>
        <time>2015-11-21T14:12:39Z</time>
      </trkpt>
      <trkpt lat="44.44731" lon="1.00515">
        <ele>190.96</ele>
        <time>2015-11-21T14:12:55Z</time>
      </trkpt>
      <trkpt lat="44.44716" lon="1.00532">
        <ele>194.32</ele>
        <time>2015-11-21T14:13:08Z</time>
      </trkpt>
      <trkpt lat="44.44703" lon="1.00549">
        <ele>199.61</ele>
        <time>2015-11-21T14:13:21Z</time>
      </trkpt>
      <trkpt lat="44.44699" lon="1.00555">
        <ele>201.53</ele>
        <time>2015-11-21T14:13:26Z</time>
      </trkpt>
      <trkpt lat="44.44687" lon="1.00569">
        <ele>204.42</ele>
        <time>2015-11-21T14:13:39Z</time>
      </trkpt>
      <trkpt lat="44.44674" lon="1.00586">
        <ele>206.82</ele>
        <time>2015-11-21T14:13:52Z</time>
      </trkpt>
      <trkpt lat="44.44672" lon="1.0059">
        <ele>208.26</ele>
        <time>2015-11-21T14:13:56Z</time>
      </trkpt>
      <trkpt lat="44.44657" lon="1.00611">
        <ele>211.63</ele>
        <time>2015-11-21T14:14:10Z</time>
      </trkpt>
      <trkpt lat="44.44644" lon="1.00628">
        <ele>214.03</ele>
        <time>2015-11-21T14:14:22Z</time>
      </trkpt>
      <trkpt lat="44.4463" lon="1.00643">
        <ele>215.95</ele>
        <time>2015-11-21T14:14:34Z</time>
      </trkpt>
      <trkpt lat="44.44608" lon="1.00629">
        <ele>212.11</ele>
        <time>2015-11-21T14:14:45Z</time>
      </trkpt>
      <trkpt lat="44.44603" lon="1.00625">
        <ele>212.11</ele>
        <time>2015-11-21T14:14:48Z</time>
      </trkpt>
      <trkpt lat="44.44599" lon="1.00618">
        <ele>212.11</ele>
        <time>2015-11-21T14:14:59Z</time>
      </trkpt>
      <trkpt lat="44.44597" lon="1.00618">
        <ele>211.15</ele>
        <time>2015-11-21T14:15:13Z</time>
      </trkpt>
      <trkpt lat="44.44596" lon="1.00617">
        <ele>210.67</ele>
        <time>2015-11-21T14:15:39Z</time>
      </trkpt>
      <trkpt lat="44.44595" lon="1.00618">
        <ele>210.67</ele>
        <time>2015-11-21T14:16:13Z</time>
      </trkpt>
      <trkpt lat="44.44595" lon="1.0062">
        <ele>210.19</ele>
        <time>2015-11-21T14:16:51Z</time>
      </trkpt>
      <trkpt lat="44.44594" lon="1.00622">
        <ele>210.19</ele>
        <time>2015-11-21T14:17:26Z</time>
      </trkpt>
      <trkpt lat="44.44594" lon="1.00622">
        <ele>208.74</ele>
        <time>2015-11-21T14:18:03Z</time>
      </trkpt>
      <trkpt lat="44.44595" lon="1.00621">
        <ele>208.74</ele>
        <time>2015-11-21T14:18:44Z</time>
      </trkpt>
      <trkpt lat="44.44594" lon="1.0062">
        <ele>208.26</ele>
        <time>2015-11-21T14:19:14Z</time>
      </trkpt>
      <trkpt lat="44.44595" lon="1.0062">
        <ele>209.22</ele>
        <time>2015-11-21T14:19:50Z</time>
      </trkpt>
      <trkpt lat="44.44595" lon="1.00621">
        <ele>209.22</ele>
        <time>2015-11-21T14:20:32Z</time>
      </trkpt>
      <trkpt lat="44.44595" lon="1.00622">
        <ele>209.22</ele>
        <time>2015-11-21T14:21:03Z</time>
      </trkpt>
      <trkpt lat="44.44595" lon="1.00623">
        <ele>208.74</ele>
        <time>2015-11-21T14:21:39Z</time>
      </trkpt>
      <trkpt lat="44.44595" lon="1.00623">
        <ele>209.22</ele>
        <time>2015-11-21T14:22:08Z</time>
      </trkpt>
      <trkpt lat="44.44596" lon="1.00622">
        <ele>209.7</ele>
        <time>2015-11-21T14:22:18Z</time>
      </trkpt>
      <trkpt lat="44.44579" lon="1.00599">
        <ele>212.59</ele>
        <time>2015-11-21T14:22:31Z</time>
      </trkpt>
      <trkpt lat="44.44559" lon="1.00607">
        <ele>214.51</ele>
        <time>2015-11-21T14:22:42Z</time>
      </trkpt>
      <trkpt lat="44.44536" lon="1.00628">
        <ele>215.47</ele>
        <time>2015-11-21T14:22:58Z</time>
      </trkpt>
      <trkpt lat="44.44508" lon="1.0065">
        <ele>215.47</ele>
        <time>2015-11-21T14:23:13Z</time>
      </trkpt>
      <trkpt lat="44.44475" lon="1.00682">
        <ele>212.59</ele>
        <time>2015-11-21T14:23:28Z</time>
      </trkpt>
      <trkpt lat="44.44469" lon="1.00691">
        <ele>211.63</ele>
        <time>2015-11-21T14:23:32Z</time>
      </trkpt>
      <trkpt lat="44.44465" lon="1.00691">
        <ele>211.15</ele>
        <time>2015-11-21T14:23:42Z</time>
      </trkpt>
      <trkpt lat="44.44465" lon="1.00691">
        <ele>211.15</ele>
        <time>2015-11-21T14:23:44Z</time>
      </trkpt>
      <trkpt lat="44.44448" lon="1.00653">
        <ele>212.11</ele>
        <time>2015-11-21T14:23:56Z</time>
      </trkpt>
      <trkpt lat="44.44424" lon="1.00606">
        <ele>210.67</ele>
        <time>2015-11-21T14:24:11Z</time>
      </trkpt>
      <trkpt lat="44.44412" lon="1.0054">
        <ele>206.34</ele>
        <time>2015-11-21T14:24:24Z</time>
      </trkpt>
      <trkpt lat="44.44396" lon="1.00453">
        <ele>205.38</ele>
        <time>2015-11-21T14:24:39Z</time>
      </trkpt>
      <trkpt lat="44.44402" lon="1.00395">
        <ele>206.82</ele>
        <time>2015-11-21T14:24:51Z</time>
      </trkpt>
      <trkpt lat="44.44399" lon="1.00385">
        <ele>207.3</ele>
        <time>2015-11-21T14:25:01Z</time>
      </trkpt>
      <trkpt lat="44.44376" lon="1.0037">
        <ele>207.3</ele>
        <time>2015-11-21T14:25:11Z</time>
      </trkpt>
      <trkpt lat="44.44372" lon="1.00367">
        <ele>207.3</ele>
        <time>2015-11-21T14:25:12Z</time>
      </trkpt>
      <trkpt lat="44.44342" lon="1.00361">
        <ele>204.9</ele>
        <time>2015-11-21T14:25:20Z</time>
      </trkpt>
      <trkpt lat="44.44338" lon="1.00372">
        <ele>202.49</ele>
        <time>2015-11-21T14:25:25Z</time>
      </trkpt>
      <trkpt lat="44.4435" lon="1.00376">
        <ele>200.57</ele>
        <time>2015-11-21T14:25:28Z</time>
      </trkpt>
      <trkpt lat="44.44363" lon="1.004">
        <ele>198.17</ele>
        <time>2015-11-21T14:25:32Z</time>
      </trkpt>
      <trkpt lat="44.44362" lon="1.00432">
        <ele>195.77</ele>
        <time>2015-11-21T14:25:36Z</time>
      </trkpt>
      <trkpt lat="44.44355" lon="1.00462">
        <ele>192.4</ele>
        <time>2015-11-21T14:25:43Z</time>
      </trkpt>
      <trkpt lat="44.44359" lon="1.00479">
        <ele>190.48</ele>
        <time>2015-11-21T14:25:49Z</time>
      </trkpt>
      <trkpt lat="44.44367" lon="1.00509">
        <ele>190</ele>
        <time>2015-11-21T14:25:58Z</time>
      </trkpt>
      <trkpt lat="44.44366" lon="1.00518">
        <ele>189.52</ele>
        <time>2015-11-21T14:26:02Z</time>
      </trkpt>
      <trkpt lat="44.44363" lon="1.00546">
        <ele>189.04</ele>
        <time>2015-11-21T14:26:10Z</time>
      </trkpt>
      <trkpt lat="44.44357" lon="1.0058">
        <ele>188.08</ele>
        <time>2015-11-21T14:26:19Z</time>
      </trkpt>
      <trkpt lat="44.44354" lon="1.00585">
        <ele>187.59</ele>
        <time>2015-11-21T14:26:22Z</time>
      </trkpt>
      <trkpt lat="44.44342" lon="1.00604">
        <ele>183.75</ele>
        <time>2015-11-21T14:26:32Z</time>
      </trkpt>
      <trkpt lat="44.44346" lon="1.00627">
        <ele>188.56</ele>
        <time>2015-11-21T14:26:43Z</time>
      </trkpt>
      <trkpt lat="44.44348" lon="1.0063">
        <ele>189.52</ele>
        <time>2015-11-21T14:26:45Z</time>
      </trkpt>
      <trkpt lat="44.4435" lon="1.0064">
        <ele>190</ele>
        <time>2015-11-21T14:26:59Z</time>
      </trkpt>
      <trkpt lat="44.44349" lon="1.00641">
        <ele>188.56</ele>
        <time>2015-11-21T14:27:23Z</time>
      </trkpt>
      <trkpt lat="44.4435" lon="1.00642">
        <ele>186.63</ele>
        <time>2015-11-21T14:27:56Z</time>
      </trkpt>
      <trkpt lat="44.44349" lon="1.00642">
        <ele>185.19</ele>
        <time>2015-11-21T14:28:25Z</time>
      </trkpt>
      <trkpt lat="44.44348" lon="1.00642">
        <ele>185.19</ele>
        <time>2015-11-21T14:28:54Z</time>
      </trkpt>
      <trkpt lat="44.44348" lon="1.00642">
        <ele>185.19</ele>
        <time>2015-11-21T14:28:57Z</time>
      </trkpt>
      <trkpt lat="44.4435" lon="1.00648">
        <ele>186.15</ele>
        <time>2015-11-21T14:29:01Z</time>
      </trkpt>
      <trkpt lat="44.44353" lon="1.00675">
        <ele>189.52</ele>
        <time>2015-11-21T14:29:13Z</time>
      </trkpt>
      <trkpt lat="44.44374" lon="1.00699">
        <ele>190.96</ele>
        <time>2015-11-21T14:29:30Z</time>
      </trkpt>
      <trkpt lat="44.44381" lon="1.00707">
        <ele>192.88</ele>
        <time>2015-11-21T14:29:36Z</time>
      </trkpt>
      <trkpt lat="44.44382" lon="1.00709">
        <ele>192.88</ele>
        <time>2015-11-21T14:29:38Z</time>
      </trkpt>
      <trkpt lat="44.44385" lon="1.00715">
        <ele>194.32</ele>
        <time>2015-11-21T14:29:42Z</time>
      </trkpt>
      <trkpt lat="44.44387" lon="1.00726">
        <ele>194.32</ele>
        <time>2015-11-21T14:29:48Z</time>
      </trkpt>
      <trkpt lat="44.44388" lon="1.0074">
        <ele>196.25</ele>
        <time>2015-11-21T14:29:56Z</time>
      </trkpt>
      <trkpt lat="44.44389" lon="1.00752">
        <ele>198.65</ele>
        <time>2015-11-21T14:30:03Z</time>
      </trkpt>
      <trkpt lat="44.44389" lon="1.00772">
        <ele>201.05</ele>
        <time>2015-11-21T14:30:14Z</time>
      </trkpt>
      <trkpt lat="44.44388" lon="1.00784">
        <ele>203.94</ele>
        <time>2015-11-21T14:30:21Z</time>
      </trkpt>
      <trkpt lat="44.44389" lon="1.0079">
        <ele>204.42</ele>
        <time>2015-11-21T14:30:24Z</time>
      </trkpt>
      <trkpt lat="44.44404" lon="1.00807">
        <ele>207.3</ele>
        <time>2015-11-21T14:30:38Z</time>
      </trkpt>
      <trkpt lat="44.44421" lon="1.0081">
        <ele>208.74</ele>
        <time>2015-11-21T14:30:52Z</time>
      </trkpt>
      <trkpt lat="44.44424" lon="1.00808">
        <ele>209.7</ele>
        <time>2015-11-21T14:30:55Z</time>
      </trkpt>
      <trkpt lat="44.44444" lon="1.00795">
        <ele>215.95</ele>
        <time>2015-11-21T14:31:08Z</time>
      </trkpt>
      <trkpt lat="44.44451" lon="1.00792">
        <ele>217.4</ele>
        <time>2015-11-21T14:31:13Z</time>
      </trkpt>
      <trkpt lat="44.44454" lon="1.00798">
        <ele>218.84</ele>
        <time>2015-11-21T14:31:20Z</time>
      </trkpt>
      <trkpt lat="44.4445" lon="1.00812">
        <ele>220.76</ele>
        <time>2015-11-21T14:31:29Z</time>
      </trkpt>
      <trkpt lat="44.44447" lon="1.00824">
        <ele>221.24</ele>
        <time>2015-11-21T14:31:36Z</time>
      </trkpt>
      <trkpt lat="44.44446" lon="1.00826">
        <ele>220.76</ele>
        <time>2015-11-21T14:31:38Z</time>
      </trkpt>
      <trkpt lat="44.44442" lon="1.00831">
        <ele>219.8</ele>
        <time>2015-11-21T14:31:50Z</time>
      </trkpt>
      <trkpt lat="44.44442" lon="1.00833">
        <ele>216.91</ele>
        <time>2015-11-21T14:32:11Z</time>
      </trkpt>
      <trkpt lat="44.44441" lon="1.00833">
        <ele>214.99</ele>
        <time>2015-11-21T14:32:33Z</time>
      </trkpt>
      <trkpt lat="44.44441" lon="1.00834">
        <ele>214.03</ele>
        <time>2015-11-21T14:32:55Z</time>
      </trkpt>
      <trkpt lat="44.4444" lon="1.00834">
        <ele>213.55</ele>
        <time>2015-11-21T14:33:16Z</time>
      </trkpt>
      <trkpt lat="44.4444" lon="1.00834">
        <ele>213.55</ele>
        <time>2015-11-21T14:33:37Z</time>
      </trkpt>
      <trkpt lat="44.44441" lon="1.00834">
        <ele>214.03</ele>
        <time>2015-11-21T14:33:47Z</time>
      </trkpt>
      <trkpt lat="44.44441" lon="1.00833">
        <ele>213.07</ele>
        <time>2015-11-21T14:34:06Z</time>
      </trkpt>
      <trkpt lat="44.44441" lon="1.00833">
        <ele>213.07</ele>
        <time>2015-11-21T14:34:31Z</time>
      </trkpt>
      <trkpt lat="44.44441" lon="1.00834">
        <ele>214.03</ele>
        <time>2015-11-21T14:34:52Z</time>
      </trkpt>
      <trkpt lat="44.44441" lon="1.00833">
        <ele>213.55</ele>
        <time>2015-11-21T14:35:28Z</time>
      </trkpt>
      <trkpt lat="44.44441" lon="1.00833">
        <ele>213.07</ele>
        <time>2015-11-21T14:35:51Z</time>
      </trkpt>
      <trkpt lat="44.44441" lon="1.00833">
        <ele>212.59</ele>
        <time>2015-11-21T14:36:19Z</time>
      </trkpt>
      <trkpt lat="44.4444" lon="1.00833">
        <ele>211.63</ele>
        <time>2015-11-21T14:36:36Z</time>
      </trkpt>
      <trkpt lat="44.4444" lon="1.00833">
        <ele>212.11</ele>
        <time>2015-11-21T14:36:58Z</time>
      </trkpt>
      <trkpt lat="44.4442" lon="1.00862">
        <ele>214.03</ele>
        <time>2015-11-21T14:37:11Z</time>
      </trkpt>
      <trkpt lat="44.44393" lon="1.00886">
        <ele>213.55</ele>
        <time>2015-11-21T14:37:24Z</time>
      </trkpt>
      <trkpt lat="44.44377" lon="1.00903">
        <ele>214.99</ele>
        <time>2015-11-21T14:37:35Z</time>
      </trkpt>
      <trkpt lat="44.44364" lon="1.00935">
        <ele>219.32</ele>
        <time>2015-11-21T14:37:48Z</time>
      </trkpt>
      <trkpt lat="44.4435" lon="1.00971">
        <ele>222.2</ele>
        <time>2015-11-21T14:38:02Z</time>
      </trkpt>
      <trkpt lat="44.44331" lon="1.01012">
        <ele>224.12</ele>
        <time>2015-11-21T14:38:16Z</time>
      </trkpt>
      <trkpt lat="44.44325" lon="1.01026">
        <ele>225.09</ele>
        <time>2015-11-21T14:38:22Z</time>
      </trkpt>
      <trkpt lat="44.44324" lon="1.01027">
        <ele>225.09</ele>
        <time>2015-11-21T14:38:23Z</time>
      </trkpt>
      <trkpt lat="44.44322" lon="1.01028">
        <ele>225.09</ele>
        <time>2015-11-21T14:38:24Z</time>
      </trkpt>
      <trkpt lat="44.4429" lon="1.0105">
        <ele>227.49</ele>
        <time>2015-11-21T14:38:41Z</time>
      </trkpt>
      <trkpt lat="44.44272" lon="1.01072">
        <ele>227.97</ele>
        <time>2015-11-21T14:38:52Z</time>
      </trkpt>
      <trkpt lat="44.44256" lon="1.01085">
        <ele>227.97</ele>
        <time>2015-11-21T14:39:00Z</time>
      </trkpt>
      <trkpt lat="44.44254" lon="1.01087">
        <ele>228.45</ele>
        <time>2015-11-21T14:39:01Z</time>
      </trkpt>
      <trkpt lat="44.44264" lon="1.01108">
        <ele>227.01</ele>
        <time>2015-11-21T14:39:08Z</time>
      </trkpt>
      <trkpt lat="44.44269" lon="1.01117">
        <ele>226.53</ele>
        <time>2015-11-21T14:39:10Z</time>
      </trkpt>
      <trkpt lat="44.44261" lon="1.01137">
        <ele>225.09</ele>
        <time>2015-11-21T14:39:15Z</time>
      </trkpt>
      <trkpt lat="44.44232" lon="1.01182">
        <ele>223.64</ele>
        <time>2015-11-21T14:39:27Z</time>
      </trkpt>
      <trkpt lat="44.44226" lon="1.01196">
        <ele>222.68</ele>
        <time>2015-11-21T14:39:30Z</time>
      </trkpt>
      <trkpt lat="44.44218" lon="1.01211">
        <ele>222.2</ele>
        <time>2015-11-21T14:39:33Z</time>
      </trkpt>
      <trkpt lat="44.44195" lon="1.01243">
        <ele>221.24</ele>
        <time>2015-11-21T14:39:42Z</time>
      </trkpt>
      <trkpt lat="44.44192" lon="1.01243">
        <ele>221.24</ele>
        <time>2015-11-21T14:39:43Z</time>
      </trkpt>
      <trkpt lat="44.44189" lon="1.01243">
        <ele>221.24</ele>
        <time>2015-11-21T14:39:44Z</time>
      </trkpt>
      <trkpt lat="44.44187" lon="1.01241">
        <ele>221.24</ele>
        <time>2015-11-21T14:39:45Z</time>
      </trkpt>
      <trkpt lat="44.44185" lon="1.0124">
        <ele>221.72</ele>
        <time>2015-11-21T14:39:46Z</time>
      </trkpt>
      <trkpt lat="44.44183" lon="1.01237">
        <ele>221.72</ele>
        <time>2015-11-21T14:39:47Z</time>
      </trkpt>
      <trkpt lat="44.44181" lon="1.01236">
        <ele>221.72</ele>
        <time>2015-11-21T14:39:48Z</time>
      </trkpt>
      <trkpt lat="44.4415" lon="1.0122">
        <ele>222.68</ele>
        <time>2015-11-21T14:40:01Z</time>
      </trkpt>
      <trkpt lat="44.44114" lon="1.0122">
        <ele>221.24</ele>
        <time>2015-11-21T14:40:14Z</time>
      </trkpt>
      <trkpt lat="44.44081" lon="1.01233">
        <ele>218.84</ele>
        <time>2015-11-21T14:40:22Z</time>
      </trkpt>
      <trkpt lat="44.44078" lon="1.01237">
        <ele>218.36</ele>
        <time>2015-11-21T14:40:23Z</time>
      </trkpt>
      <trkpt lat="44.44076" lon="1.01241">
        <ele>217.88</ele>
        <time>2015-11-21T14:40:24Z</time>
      </trkpt>
      <trkpt lat="44.44074" lon="1.01247">
        <ele>217.88</ele>
        <time>2015-11-21T14:40:25Z</time>
      </trkpt>
      <trkpt lat="44.44074" lon="1.01253">
        <ele>217.4</ele>
        <time>2015-11-21T14:40:26Z</time>
      </trkpt>
      <trkpt lat="44.44073" lon="1.01259">
        <ele>216.91</ele>
        <time>2015-11-21T14:40:27Z</time>
      </trkpt>
      <trkpt lat="44.44073" lon="1.01266">
        <ele>216.43</ele>
        <time>2015-11-21T14:40:28Z</time>
      </trkpt>
      <trkpt lat="44.44072" lon="1.01274">
        <ele>216.43</ele>
        <time>2015-11-21T14:40:29Z</time>
      </trkpt>
      <trkpt lat="44.44072" lon="1.01281">
        <ele>215.95</ele>
        <time>2015-11-21T14:40:30Z</time>
      </trkpt>
      <trkpt lat="44.44073" lon="1.01288">
        <ele>215.95</ele>
        <time>2015-11-21T14:40:31Z</time>
      </trkpt>
      <trkpt lat="44.44073" lon="1.01296">
        <ele>215.95</ele>
        <time>2015-11-21T14:40:32Z</time>
      </trkpt>
      <trkpt lat="44.44076" lon="1.01326">
        <ele>214.99</ele>
        <time>2015-11-21T14:40:36Z</time>
      </trkpt>
      <trkpt lat="44.44077" lon="1.01334">
        <ele>214.99</ele>
        <time>2015-11-21T14:40:37Z</time>
      </trkpt>
      <trkpt lat="44.44079" lon="1.01414">
        <ele>214.03</ele>
        <time>2015-11-21T14:40:48Z</time>
      </trkpt>
      <trkpt lat="44.44077" lon="1.01441">
        <ele>214.51</ele>
        <time>2015-11-21T14:40:52Z</time>
      </trkpt>
      <trkpt lat="44.44077" lon="1.01448">
        <ele>214.51</ele>
        <time>2015-11-21T14:40:53Z</time>
      </trkpt>
      <trkpt lat="44.44076" lon="1.01455">
        <ele>214.99</ele>
        <time>2015-11-21T14:40:54Z</time>
      </trkpt>
      <trkpt lat="44.44076" lon="1.01461">
        <ele>215.47</ele>
        <time>2015-11-21T14:40:55Z</time>
      </trkpt>
      <trkpt lat="44.44076" lon="1.01468">
        <ele>215.47</ele>
        <time>2015-11-21T14:40:56Z</time>
      </trkpt>
      <trkpt lat="44.44075" lon="1.01474">
        <ele>215.95</ele>
        <time>2015-11-21T14:40:57Z</time>
      </trkpt>
      <trkpt lat="44.44073" lon="1.01529">
        <ele>218.36</ele>
        <time>2015-11-21T14:41:06Z</time>
      </trkpt>
      <trkpt lat="44.44073" lon="1.01535">
        <ele>218.84</ele>
        <time>2015-11-21T14:41:07Z</time>
      </trkpt>
      <trkpt lat="44.44066" lon="1.01633">
        <ele>220.76</ele>
        <time>2015-11-21T14:41:23Z</time>
      </trkpt>
      <trkpt lat="44.44063" lon="1.01659">
        <ele>218.84</ele>
        <time>2015-11-21T14:41:33Z</time>
      </trkpt>
      <trkpt lat="44.44064" lon="1.01656">
        <ele>218.36</ele>
        <time>2015-11-21T14:41:51Z</time>
      </trkpt>
      <trkpt lat="44.44065" lon="1.01654">
        <ele>218.36</ele>
        <time>2015-11-21T14:41:52Z</time>
      </trkpt>
      <trkpt lat="44.44065" lon="1.01653">
        <ele>218.36</ele>
        <time>2015-11-21T14:41:53Z</time>
      </trkpt>
      <trkpt lat="44.44066" lon="1.01651">
        <ele>218.36</ele>
        <time>2015-11-21T14:41:54Z</time>
      </trkpt>
      <trkpt lat="44.44067" lon="1.0165">
        <ele>217.88</ele>
        <time>2015-11-21T14:41:55Z</time>
      </trkpt>
      <trkpt lat="44.44068" lon="1.01646">
        <ele>217.88</ele>
        <time>2015-11-21T14:42:04Z</time>
      </trkpt>
      <trkpt lat="44.44067" lon="1.01645">
        <ele>217.4</ele>
        <time>2015-11-21T14:42:13Z</time>
      </trkpt>
      <trkpt lat="44.44066" lon="1.01645">
        <ele>217.88</ele>
        <time>2015-11-21T14:42:14Z</time>
      </trkpt>
      <trkpt lat="44.44064" lon="1.01645">
        <ele>217.4</ele>
        <time>2015-11-21T14:42:15Z</time>
      </trkpt>
      <trkpt lat="44.44062" lon="1.01644">
        <ele>217.4</ele>
        <time>2015-11-21T14:42:16Z</time>
      </trkpt>
      <trkpt lat="44.44059" lon="1.01644">
        <ele>217.4</ele>
        <time>2015-11-21T14:42:17Z</time>
      </trkpt>
      <trkpt lat="44.44056" lon="1.01645">
        <ele>217.4</ele>
        <time>2015-11-21T14:42:18Z</time>
      </trkpt>
      <trkpt lat="44.44053" lon="1.01647">
        <ele>216.91</ele>
        <time>2015-11-21T14:42:19Z</time>
      </trkpt>
      <trkpt lat="44.4405" lon="1.01649">
        <ele>215.95</ele>
        <time>2015-11-21T14:42:20Z</time>
      </trkpt>
      <trkpt lat="44.44047" lon="1.01652">
        <ele>215.47</ele>
        <time>2015-11-21T14:42:21Z</time>
      </trkpt>
      <trkpt lat="44.44041" lon="1.01657">
        <ele>214.03</ele>
        <time>2015-11-21T14:42:23Z</time>
      </trkpt>
      <trkpt lat="44.44019" lon="1.01676">
        <ele>207.78</ele>
        <time>2015-11-21T14:42:29Z</time>
      </trkpt>
      <trkpt lat="44.44008" lon="1.01689">
        <ele>204.42</ele>
        <time>2015-11-21T14:42:32Z</time>
      </trkpt>
      <trkpt lat="44.43993" lon="1.01704">
        <ele>200.57</ele>
        <time>2015-11-21T14:42:36Z</time>
      </trkpt>
      <trkpt lat="44.43985" lon="1.01708">
        <ele>198.65</ele>
        <time>2015-11-21T14:42:38Z</time>
      </trkpt>
      <trkpt lat="44.43976" lon="1.01712">
        <ele>196.73</ele>
        <time>2015-11-21T14:42:40Z</time>
      </trkpt>
      <trkpt lat="44.43947" lon="1.01716">
        <ele>190.96</ele>
        <time>2015-11-21T14:42:46Z</time>
      </trkpt>
      <trkpt lat="44.43913" lon="1.01706">
        <ele>183.75</ele>
        <time>2015-11-21T14:42:55Z</time>
      </trkpt>
      <trkpt lat="44.43885" lon="1.01688">
        <ele>184.71</ele>
        <time>2015-11-21T14:43:04Z</time>
      </trkpt>
      <trkpt lat="44.4388" lon="1.01691">
        <ele>185.19</ele>
        <time>2015-11-21T14:43:07Z</time>
      </trkpt>
      <trkpt lat="44.4388" lon="1.01694">
        <ele>185.67</ele>
        <time>2015-11-21T14:43:22Z</time>
      </trkpt>
      <trkpt lat="44.43881" lon="1.01696">
        <ele>187.11</ele>
        <time>2015-11-21T14:43:46Z</time>
      </trkpt>
      <trkpt lat="44.4388" lon="1.01697">
        <ele>186.63</ele>
        <time>2015-11-21T14:44:14Z</time>
      </trkpt>
      <trkpt lat="44.43879" lon="1.01698">
        <ele>186.63</ele>
        <time>2015-11-21T14:44:19Z</time>
      </trkpt>
      <trkpt lat="44.43876" lon="1.01726">
        <ele>187.11</ele>
        <time>2015-11-21T14:44:30Z</time>
      </trkpt>
      <trkpt lat="44.4386" lon="1.01753">
        <ele>187.11</ele>
        <time>2015-11-21T14:44:40Z</time>
      </trkpt>
      <trkpt lat="44.43853" lon="1.01759">
        <ele>186.63</ele>
        <time>2015-11-21T14:44:43Z</time>
      </trkpt>
      <trkpt lat="44.43827" lon="1.01786">
        <ele>186.15</ele>
        <time>2015-11-21T14:44:55Z</time>
      </trkpt>
      <trkpt lat="44.43787" lon="1.01804">
        <ele>189.04</ele>
        <time>2015-11-21T14:45:08Z</time>
      </trkpt>
      <trkpt lat="44.43762" lon="1.01818">
        <ele>189.04</ele>
        <time>2015-11-21T14:45:20Z</time>
      </trkpt>
      <trkpt lat="44.43741" lon="1.0183">
        <ele>190</ele>
        <time>2015-11-21T14:45:31Z</time>
      </trkpt>
      <trkpt lat="44.43723" lon="1.01839">
        <ele>190</ele>
        <time>2015-11-21T14:45:41Z</time>
      </trkpt>
      <trkpt lat="44.43708" lon="1.01848">
        <ele>192.4</ele>
        <time>2015-11-21T14:45:51Z</time>
      </trkpt>
      <trkpt lat="44.43696" lon="1.01862">
        <ele>194.32</ele>
        <time>2015-11-21T14:46:02Z</time>
      </trkpt>
      <trkpt lat="44.43695" lon="1.01867">
        <ele>195.28</ele>
        <time>2015-11-21T14:46:05Z</time>
      </trkpt>
      <trkpt lat="44.43701" lon="1.01886">
        <ele>195.77</ele>
        <time>2015-11-21T14:46:15Z</time>
      </trkpt>
      <trkpt lat="44.43693" lon="1.01923">
        <ele>195.28</ele>
        <time>2015-11-21T14:46:31Z</time>
      </trkpt>
      <trkpt lat="44.43684" lon="1.01958">
        <ele>193.84</ele>
        <time>2015-11-21T14:46:45Z</time>
      </trkpt>
      <trkpt lat="44.4368" lon="1.01978">
        <ele>193.36</ele>
        <time>2015-11-21T14:46:54Z</time>
      </trkpt>
      <trkpt lat="44.43681" lon="1.01984">
        <ele>193.84</ele>
        <time>2015-11-21T14:46:57Z</time>
      </trkpt>
      <trkpt lat="44.43691" lon="1.01991">
        <ele>198.17</ele>
        <time>2015-11-21T14:47:10Z</time>
      </trkpt>
      <trkpt lat="44.43697" lon="1.01987">
        <ele>199.61</ele>
        <time>2015-11-21T14:47:16Z</time>
      </trkpt>
      <trkpt lat="44.43701" lon="1.01984">
        <ele>200.57</ele>
        <time>2015-11-21T14:47:20Z</time>
      </trkpt>
      <trkpt lat="44.43706" lon="1.01981">
        <ele>201.53</ele>
        <time>2015-11-21T14:47:24Z</time>
      </trkpt>
      <trkpt lat="44.43713" lon="1.01977">
        <ele>202.98</ele>
        <time>2015-11-21T14:47:30Z</time>
      </trkpt>
      <trkpt lat="44.43715" lon="1.01994">
        <ele>205.38</ele>
        <time>2015-11-21T14:47:42Z</time>
      </trkpt>
      <trkpt lat="44.43715" lon="1.01995">
        <ele>205.38</ele>
        <time>2015-11-21T14:47:43Z</time>
      </trkpt>
      <trkpt lat="44.43716" lon="1.02008">
        <ele>205.86</ele>
        <time>2015-11-21T14:47:51Z</time>
      </trkpt>
      <trkpt lat="44.43715" lon="1.02021">
        <ele>207.3</ele>
        <time>2015-11-21T14:47:59Z</time>
      </trkpt>
      <trkpt lat="44.43716" lon="1.02044">
        <ele>209.22</ele>
        <time>2015-11-21T14:48:13Z</time>
      </trkpt>
      <trkpt lat="44.43718" lon="1.02046">
        <ele>209.7</ele>
        <time>2015-11-21T14:48:16Z</time>
      </trkpt>
      <trkpt lat="44.43736" lon="1.02036">
        <ele>213.07</ele>
        <time>2015-11-21T14:48:32Z</time>
      </trkpt>
      <trkpt lat="44.43754" lon="1.02032">
        <ele>216.91</ele>
        <time>2015-11-21T14:48:46Z</time>
      </trkpt>
      <trkpt lat="44.43781" lon="1.02023">
        <ele>219.32</ele>
        <time>2015-11-21T14:49:03Z</time>
      </trkpt>
      <trkpt lat="44.43798" lon="1.02011">
        <ele>221.24</ele>
        <time>2015-11-21T14:49:15Z</time>
      </trkpt>
      <trkpt lat="44.43801" lon="1.02014">
        <ele>221.72</ele>
        <time>2015-11-21T14:49:18Z</time>
      </trkpt>
      <trkpt lat="44.43801" lon="1.02014">
        <ele>221.72</ele>
        <time>2015-11-21T14:49:32Z</time>
      </trkpt>
      <trkpt lat="44.43801" lon="1.02015">
        <ele>222.2</ele>
        <time>2015-11-21T14:49:52Z</time>
      </trkpt>
      <trkpt lat="44.43801" lon="1.02015">
        <ele>221.24</ele>
        <time>2015-11-21T14:50:13Z</time>
      </trkpt>
      <trkpt lat="44.43801" lon="1.02015">
        <ele>221.72</ele>
        <time>2015-11-21T14:50:35Z</time>
      </trkpt>
      <trkpt lat="44.43802" lon="1.02015">
        <ele>221.24</ele>
        <time>2015-11-21T14:50:55Z</time>
      </trkpt>
      <trkpt lat="44.43802" lon="1.02015">
        <ele>221.24</ele>
        <time>2015-11-21T14:51:17Z</time>
      </trkpt>
      <trkpt lat="44.43801" lon="1.02015">
        <ele>221.24</ele>
        <time>2015-11-21T14:51:43Z</time>
      </trkpt>
      <trkpt lat="44.43802" lon="1.02016">
        <ele>221.24</ele>
        <time>2015-11-21T14:52:11Z</time>
      </trkpt>
      <trkpt lat="44.43802" lon="1.02017">
        <ele>220.76</ele>
        <time>2015-11-21T14:52:32Z</time>
      </trkpt>
      <trkpt lat="44.43801" lon="1.02018">
        <ele>220.28</ele>
        <time>2015-11-21T14:52:55Z</time>
      </trkpt>
      <trkpt lat="44.43801" lon="1.02017">
        <ele>221.24</ele>
        <time>2015-11-21T14:53:20Z</time>
      </trkpt>
      <trkpt lat="44.43801" lon="1.02017">
        <ele>221.72</ele>
        <time>2015-11-21T14:53:55Z</time>
      </trkpt>
      <trkpt lat="44.438" lon="1.02016">
        <ele>222.2</ele>
        <time>2015-11-21T14:54:24Z</time>
      </trkpt>
      <trkpt lat="44.438" lon="1.02016">
        <ele>222.2</ele>
        <time>2015-11-21T14:54:53Z</time>
      </trkpt>
      <trkpt lat="44.438" lon="1.02016">
        <ele>221.72</ele>
        <time>2015-11-21T14:55:18Z</time>
      </trkpt>
      <trkpt lat="44.43799" lon="1.02017">
        <ele>220.76</ele>
        <time>2015-11-21T14:55:47Z</time>
      </trkpt>
      <trkpt lat="44.43797" lon="1.02017">
        <ele>221.24</ele>
        <time>2015-11-21T14:56:00Z</time>
      </trkpt>
      <trkpt lat="44.43797" lon="1.02018">
        <ele>218.84</ele>
        <time>2015-11-21T14:56:24Z</time>
      </trkpt>
      <trkpt lat="44.43796" lon="1.02019">
        <ele>217.88</ele>
        <time>2015-11-21T14:56:48Z</time>
      </trkpt>
      <trkpt lat="44.43797" lon="1.02019">
        <ele>218.36</ele>
        <time>2015-11-21T14:57:15Z</time>
      </trkpt>
      <trkpt lat="44.43797" lon="1.02019">
        <ele>218.84</ele>
        <time>2015-11-21T14:57:34Z</time>
      </trkpt>
      <trkpt lat="44.43797" lon="1.02018">
        <ele>217.4</ele>
        <time>2015-11-21T14:57:54Z</time>
      </trkpt>
      <trkpt lat="44.43797" lon="1.02018">
        <ele>216.91</ele>
        <time>2015-11-21T14:58:26Z</time>
      </trkpt>
      <trkpt lat="44.43798" lon="1.02019">
        <ele>215.47</ele>
        <time>2015-11-21T14:58:53Z</time>
      </trkpt>
      <trkpt lat="44.43798" lon="1.0202">
        <ele>216.43</ele>
        <time>2015-11-21T14:59:16Z</time>
      </trkpt>
      <trkpt lat="44.43797" lon="1.02021">
        <ele>217.4</ele>
        <time>2015-11-21T14:59:42Z</time>
      </trkpt>
      <trkpt lat="44.43797" lon="1.02021">
        <ele>217.4</ele>
        <time>2015-11-21T15:00:10Z</time>
      </trkpt>
      <trkpt lat="44.43797" lon="1.0202">
        <ele>216.91</ele>
        <time>2015-11-21T15:00:36Z</time>
      </trkpt>
      <trkpt lat="44.43797" lon="1.02021">
        <ele>216.43</ele>
        <time>2015-11-21T15:01:13Z</time>
      </trkpt>
      <trkpt lat="44.43797" lon="1.02019">
        <ele>216.43</ele>
        <time>2015-11-21T15:01:54Z</time>
      </trkpt>
      <trkpt lat="44.43797" lon="1.02019">
        <ele>216.91</ele>
        <time>2015-11-21T15:02:24Z</time>
      </trkpt>
      <trkpt lat="44.43796" lon="1.02019">
        <ele>217.88</ele>
        <time>2015-11-21T15:02:56Z</time>
      </trkpt>
      <trkpt lat="44.43797" lon="1.02017">
        <ele>216.91</ele>
        <time>2015-11-21T15:03:43Z</time>
      </trkpt>
      <trkpt lat="44.43797" lon="1.02017">
        <ele>216.43</ele>
        <time>2015-11-21T15:04:20Z</time>
      </trkpt>
      <trkpt lat="44.43798" lon="1.02018">
        <ele>215.47</ele>
        <time>2015-11-21T15:04:54Z</time>
      </trkpt>
      <trkpt lat="44.43798" lon="1.02019">
        <ele>214.99</ele>
        <time>2015-11-21T15:05:29Z</time>
      </trkpt>
      <trkpt lat="44.43797" lon="1.02018">
        <ele>215.47</ele>
        <time>2015-11-21T15:06:04Z</time>
      </trkpt>
      <trkpt lat="44.43796" lon="1.02019">
        <ele>215.47</ele>
        <time>2015-11-21T15:06:38Z</time>
      </trkpt>
      <trkpt lat="44.43797" lon="1.02018">
        <ele>215.47</ele>
        <time>2015-11-21T15:07:12Z</time>
      </trkpt>
      <trkpt lat="44.43797" lon="1.02019">
        <ele>214.99</ele>
        <time>2015-11-21T15:07:40Z</time>
      </trkpt>
      <trkpt lat="44.43799" lon="1.02018">
        <ele>214.99</ele>
        <time>2015-11-21T15:08:04Z</time>
      </trkpt>
      <trkpt lat="44.43799" lon="1.02017">
        <ele>215.95</ele>
        <time>2015-11-21T15:08:12Z</time>
      </trkpt>
      <trkpt lat="44.43817" lon="1.01996">
        <ele>215.95</ele>
        <time>2015-11-21T15:08:23Z</time>
      </trkpt>
      <trkpt lat="44.43845" lon="1.01968">
        <ele>217.88</ele>
        <time>2015-11-21T15:08:35Z</time>
      </trkpt>
      <trkpt lat="44.43844" lon="1.01966">
        <ele>218.36</ele>
        <time>2015-11-21T15:08:38Z</time>
      </trkpt>
      <trkpt lat="44.43843" lon="1.01967">
        <ele>218.84</ele>
        <time>2015-11-21T15:08:39Z</time>
      </trkpt>
      <trkpt lat="44.43822" lon="1.01988">
        <ele>218.84</ele>
        <time>2015-11-21T15:08:50Z</time>
      </trkpt>
      <trkpt lat="44.43803" lon="1.02013">
        <ele>219.32</ele>
        <time>2015-11-21T15:09:02Z</time>
      </trkpt>
      <trkpt lat="44.438" lon="1.02018">
        <ele>219.8</ele>
        <time>2015-11-21T15:09:09Z</time>
      </trkpt>
      <trkpt lat="44.43798" lon="1.02018">
        <ele>219.8</ele>
        <time>2015-11-21T15:09:20Z</time>
      </trkpt>
      <trkpt lat="44.43797" lon="1.02019">
        <ele>220.76</ele>
        <time>2015-11-21T15:09:51Z</time>
      </trkpt>
      <trkpt lat="44.43797" lon="1.0202">
        <ele>220.76</ele>
        <time>2015-11-21T15:10:19Z</time>
      </trkpt>
      <trkpt lat="44.43798" lon="1.0202">
        <ele>220.28</ele>
        <time>2015-11-21T15:10:32Z</time>
      </trkpt>
      <trkpt lat="44.43798" lon="1.0202">
        <ele>220.28</ele>
        <time>2015-11-21T15:10:47Z</time>
      </trkpt>
      <trkpt lat="44.43798" lon="1.02021">
        <ele>219.32</ele>
        <time>2015-11-21T15:11:10Z</time>
      </trkpt>
      <trkpt lat="44.43797" lon="1.02021">
        <ele>219.8</ele>
        <time>2015-11-21T15:11:33Z</time>
      </trkpt>
      <trkpt lat="44.43797" lon="1.02021">
        <ele>219.8</ele>
        <time>2015-11-21T15:11:56Z</time>
      </trkpt>
      <trkpt lat="44.43797" lon="1.02021">
        <ele>219.8</ele>
        <time>2015-11-21T15:12:03Z</time>
      </trkpt>
      <trkpt lat="44.43796" lon="1.02023">
        <ele>219.8</ele>
        <time>2015-11-21T15:12:04Z</time>
      </trkpt>
      <trkpt lat="44.43795" lon="1.02024">
        <ele>219.32</ele>
        <time>2015-11-21T15:12:05Z</time>
      </trkpt>
      <trkpt lat="44.43794" lon="1.02025">
        <ele>219.32</ele>
        <time>2015-11-21T15:12:06Z</time>
      </trkpt>
      <trkpt lat="44.43793" lon="1.02027">
        <ele>219.32</ele>
        <time>2015-11-21T15:12:07Z</time>
      </trkpt>
      <trkpt lat="44.43792" lon="1.02028">
        <ele>219.32</ele>
        <time>2015-11-21T15:12:08Z</time>
      </trkpt>
      <trkpt lat="44.4379" lon="1.0203">
        <ele>218.84</ele>
        <time>2015-11-21T15:12:09Z</time>
      </trkpt>
      <trkpt lat="44.43789" lon="1.02031">
        <ele>218.84</ele>
        <time>2015-11-21T15:12:10Z</time>
      </trkpt>
      <trkpt lat="44.4377" lon="1.02062">
        <ele>222.2</ele>
        <time>2015-11-21T15:12:22Z</time>
      </trkpt>
      <trkpt lat="44.43739" lon="1.0211">
        <ele>223.64</ele>
        <time>2015-11-21T15:12:37Z</time>
      </trkpt>
      <trkpt lat="44.43708" lon="1.02136">
        <ele>224.12</ele>
        <time>2015-11-21T15:12:49Z</time>
      </trkpt>
      <trkpt lat="44.43659" lon="1.02153">
        <ele>222.2</ele>
        <time>2015-11-21T15:13:00Z</time>
      </trkpt>
      <trkpt lat="44.4357" lon="1.02181">
        <ele>216.43</ele>
        <time>2015-11-21T15:13:13Z</time>
      </trkpt>
      <trkpt lat="44.43506" lon="1.02192">
        <ele>215.95</ele>
        <time>2015-11-21T15:13:26Z</time>
      </trkpt>
      <trkpt lat="44.43472" lon="1.02181">
        <ele>218.84</ele>
        <time>2015-11-21T15:13:35Z</time>
      </trkpt>
      <trkpt lat="44.43412" lon="1.02171">
        <ele>220.76</ele>
        <time>2015-11-21T15:13:50Z</time>
      </trkpt>
      <trkpt lat="44.4336" lon="1.02169">
        <ele>217.88</ele>
        <time>2015-11-21T15:14:00Z</time>
      </trkpt>
      <trkpt lat="44.43272" lon="1.02171">
        <ele>212.11</ele>
        <time>2015-11-21T15:14:13Z</time>
      </trkpt>
      <trkpt lat="44.43222" lon="1.02172">
        <ele>209.22</ele>
        <time>2015-11-21T15:14:21Z</time>
      </trkpt>
      <trkpt lat="44.43219" lon="1.02169">
        <ele>209.22</ele>
        <time>2015-11-21T15:14:22Z</time>
      </trkpt>
      <trkpt lat="44.43192" lon="1.02142">
        <ele>209.22</ele>
        <time>2015-11-21T15:14:31Z</time>
      </trkpt>
      <trkpt lat="44.43184" lon="1.02113">
        <ele>209.7</ele>
        <time>2015-11-21T15:14:36Z</time>
      </trkpt>
      <trkpt lat="44.43175" lon="1.02019">
        <ele>210.67</ele>
        <time>2015-11-21T15:14:53Z</time>
      </trkpt>
      <trkpt lat="44.43175" lon="1.01987">
        <ele>211.15</ele>
        <time>2015-11-21T15:15:01Z</time>
      </trkpt>
      <trkpt lat="44.43174" lon="1.01981">
        <ele>211.63</ele>
        <time>2015-11-21T15:15:03Z</time>
      </trkpt>
      <trkpt lat="44.43144" lon="1.01944">
        <ele>214.03</ele>
        <time>2015-11-21T15:15:18Z</time>
      </trkpt>
      <trkpt lat="44.43136" lon="1.01934">
        <ele>214.51</ele>
        <time>2015-11-21T15:15:28Z</time>
      </trkpt>
      <trkpt lat="44.43126" lon="1.01921">
        <ele>214.99</ele>
        <time>2015-11-21T15:15:39Z</time>
      </trkpt>
      <trkpt lat="44.43094" lon="1.01884">
        <ele>214.03</ele>
        <time>2015-11-21T15:15:51Z</time>
      </trkpt>
      <trkpt lat="44.43047" lon="1.01823">
        <ele>212.59</ele>
        <time>2015-11-21T15:16:08Z</time>
      </trkpt>
      <trkpt lat="44.43017" lon="1.01785">
        <ele>214.51</ele>
        <time>2015-11-21T15:16:23Z</time>
      </trkpt>
      <trkpt lat="44.43015" lon="1.01783">
        <ele>214.03</ele>
        <time>2015-11-21T15:16:39Z</time>
      </trkpt>
      <trkpt lat="44.43015" lon="1.01782">
        <ele>214.03</ele>
        <time>2015-11-21T15:16:42Z</time>
      </trkpt>
      <trkpt lat="44.43015" lon="1.01779">
        <ele>214.51</ele>
        <time>2015-11-21T15:16:43Z</time>
      </trkpt>
      <trkpt lat="44.42996" lon="1.01736">
        <ele>214.99</ele>
        <time>2015-11-21T15:16:55Z</time>
      </trkpt>
      <trkpt lat="44.42966" lon="1.01679">
        <ele>217.4</ele>
        <time>2015-11-21T15:17:11Z</time>
      </trkpt>
      <trkpt lat="44.42942" lon="1.01643">
        <ele>220.76</ele>
        <time>2015-11-21T15:17:24Z</time>
      </trkpt>
      <trkpt lat="44.42917" lon="1.01618">
        <ele>222.68</ele>
        <time>2015-11-21T15:17:35Z</time>
      </trkpt>
      <trkpt lat="44.42908" lon="1.01571">
        <ele>225.57</ele>
        <time>2015-11-21T15:17:46Z</time>
      </trkpt>
      <trkpt lat="44.42924" lon="1.01513">
        <ele>227.97</ele>
        <time>2015-11-21T15:18:00Z</time>
      </trkpt>
      <trkpt lat="44.42934" lon="1.01487">
        <ele>227.97</ele>
        <time>2015-11-21T15:18:07Z</time>
      </trkpt>
      <trkpt lat="44.42939" lon="1.01484">
        <ele>227.49</ele>
        <time>2015-11-21T15:18:09Z</time>
      </trkpt>
      <trkpt lat="44.42942" lon="1.01479">
        <ele>227.01</ele>
        <time>2015-11-21T15:18:11Z</time>
      </trkpt>
      <trkpt lat="44.42943" lon="1.01476">
        <ele>227.01</ele>
        <time>2015-11-21T15:18:12Z</time>
      </trkpt>
      <trkpt lat="44.42943" lon="1.01473">
        <ele>227.49</ele>
        <time>2015-11-21T15:18:13Z</time>
      </trkpt>
      <trkpt lat="44.42944" lon="1.01471">
        <ele>227.49</ele>
        <time>2015-11-21T15:18:14Z</time>
      </trkpt>
      <trkpt lat="44.42944" lon="1.01469">
        <ele>227.49</ele>
        <time>2015-11-21T15:18:15Z</time>
      </trkpt>
      <trkpt lat="44.42945" lon="1.01467">
        <ele>227.49</ele>
        <time>2015-11-21T15:18:16Z</time>
      </trkpt>
      <trkpt lat="44.42945" lon="1.01465">
        <ele>227.01</ele>
        <time>2015-11-21T15:18:26Z</time>
      </trkpt>
      <trkpt lat="44.42944" lon="1.01464">
        <ele>224.12</ele>
        <time>2015-11-21T15:19:07Z</time>
      </trkpt>
      <trkpt lat="44.42945" lon="1.01465">
        <ele>223.16</ele>
        <time>2015-11-21T15:19:45Z</time>
      </trkpt>
      <trkpt lat="44.42945" lon="1.01467">
        <ele>225.09</ele>
        <time>2015-11-21T15:20:16Z</time>
      </trkpt>
      <trkpt lat="44.42945" lon="1.01465">
        <ele>224.12</ele>
        <time>2015-11-21T15:20:50Z</time>
      </trkpt>
      <trkpt lat="44.42947" lon="1.01465">
        <ele>224.61</ele>
        <time>2015-11-21T15:21:28Z</time>
      </trkpt>
      <trkpt lat="44.42947" lon="1.01465">
        <ele>224.61</ele>
        <time>2015-11-21T15:21:35Z</time>
      </trkpt>
      <trkpt lat="44.42948" lon="1.01464">
        <ele>224.61</ele>
        <time>2015-11-21T15:21:36Z</time>
      </trkpt>
      <trkpt lat="44.42949" lon="1.01462">
        <ele>225.09</ele>
        <time>2015-11-21T15:21:37Z</time>
      </trkpt>
      <trkpt lat="44.4295" lon="1.01461">
        <ele>225.09</ele>
        <time>2015-11-21T15:21:38Z</time>
      </trkpt>
      <trkpt lat="44.42952" lon="1.0146">
        <ele>225.09</ele>
        <time>2015-11-21T15:21:39Z</time>
      </trkpt>
      <trkpt lat="44.42953" lon="1.0146">
        <ele>225.09</ele>
        <time>2015-11-21T15:21:40Z</time>
      </trkpt>
      <trkpt lat="44.42955" lon="1.01458">
        <ele>225.09</ele>
        <time>2015-11-21T15:21:41Z</time>
      </trkpt>
      <trkpt lat="44.42956" lon="1.01457">
        <ele>225.09</ele>
        <time>2015-11-21T15:21:42Z</time>
      </trkpt>
      <trkpt lat="44.42957" lon="1.01456">
        <ele>225.09</ele>
        <time>2015-11-21T15:21:43Z</time>
      </trkpt>
      <trkpt lat="44.42959" lon="1.01454">
        <ele>225.57</ele>
        <time>2015-11-21T15:21:44Z</time>
      </trkpt>
      <trkpt lat="44.4296" lon="1.01453">
        <ele>226.05</ele>
        <time>2015-11-21T15:21:45Z</time>
      </trkpt>
      <trkpt lat="44.42961" lon="1.01451">
        <ele>226.53</ele>
        <time>2015-11-21T15:21:46Z</time>
      </trkpt>
      <trkpt lat="44.42961" lon="1.01449">
        <ele>226.53</ele>
        <time>2015-11-21T15:21:47Z</time>
      </trkpt>
      <trkpt lat="44.4296" lon="1.01448">
        <ele>227.01</ele>
        <time>2015-11-21T15:21:48Z</time>
      </trkpt>
      <trkpt lat="44.42959" lon="1.01447">
        <ele>227.01</ele>
        <time>2015-11-21T15:21:49Z</time>
      </trkpt>
      <trkpt lat="44.42956" lon="1.01443">
        <ele>227.49</ele>
        <time>2015-11-21T15:21:52Z</time>
      </trkpt>
      <trkpt lat="44.42955" lon="1.01442">
        <ele>227.49</ele>
        <time>2015-11-21T15:21:53Z</time>
      </trkpt>
      <trkpt lat="44.42954" lon="1.0144">
        <ele>227.49</ele>
        <time>2015-11-21T15:21:54Z</time>
      </trkpt>
      <trkpt lat="44.42952" lon="1.01438">
        <ele>227.97</ele>
        <time>2015-11-21T15:21:55Z</time>
      </trkpt>
      <trkpt lat="44.42951" lon="1.01437">
        <ele>227.97</ele>
        <time>2015-11-21T15:21:56Z</time>
      </trkpt>
      <trkpt lat="44.4295" lon="1.01435">
        <ele>227.97</ele>
        <time>2015-11-21T15:21:57Z</time>
      </trkpt>
      <trkpt lat="44.42949" lon="1.01433">
        <ele>227.97</ele>
        <time>2015-11-21T15:22:14Z</time>
      </trkpt>
      <trkpt lat="44.42949" lon="1.01433">
        <ele>228.45</ele>
        <time>2015-11-21T15:22:38Z</time>
      </trkpt>
      <trkpt lat="44.42949" lon="1.01432">
        <ele>228.93</ele>
        <time>2015-11-21T15:23:00Z</time>
      </trkpt>
      <trkpt lat="44.42948" lon="1.0143">
        <ele>228.93</ele>
        <time>2015-11-21T15:23:01Z</time>
      </trkpt>
      <trkpt lat="44.42949" lon="1.01427">
        <ele>228.93</ele>
        <time>2015-11-21T15:23:03Z</time>
      </trkpt>
      <trkpt lat="44.42949" lon="1.01425">
        <ele>228.93</ele>
        <time>2015-11-21T15:23:04Z</time>
      </trkpt>
      <trkpt lat="44.42949" lon="1.01423">
        <ele>229.41</ele>
        <time>2015-11-21T15:23:05Z</time>
      </trkpt>
      <trkpt lat="44.4295" lon="1.01422">
        <ele>229.41</ele>
        <time>2015-11-21T15:23:06Z</time>
      </trkpt>
      <trkpt lat="44.42949" lon="1.01419">
        <ele>229.41</ele>
        <time>2015-11-21T15:23:07Z</time>
      </trkpt>
      <trkpt lat="44.42953" lon="1.01378">
        <ele>231.33</ele>
        <time>2015-11-21T15:23:20Z</time>
      </trkpt>
      <trkpt lat="44.42953" lon="1.01359">
        <ele>232.3</ele>
        <time>2015-11-21T15:23:25Z</time>
      </trkpt>
      <trkpt lat="44.42954" lon="1.01356">
        <ele>232.3</ele>
        <time>2015-11-21T15:23:26Z</time>
      </trkpt>
      <trkpt lat="44.42955" lon="1.01353">
        <ele>232.3</ele>
        <time>2015-11-21T15:23:27Z</time>
      </trkpt>
      <trkpt lat="44.42958" lon="1.01352">
        <ele>232.3</ele>
        <time>2015-11-21T15:23:28Z</time>
      </trkpt>
      <trkpt lat="44.4296" lon="1.01351">
        <ele>232.3</ele>
        <time>2015-11-21T15:23:29Z</time>
      </trkpt>
      <trkpt lat="44.42998" lon="1.01326">
        <ele>230.85</ele>
        <time>2015-11-21T15:23:41Z</time>
      </trkpt>
      <trkpt lat="44.43" lon="1.01322">
        <ele>230.37</ele>
        <time>2015-11-21T15:23:42Z</time>
      </trkpt>
      <trkpt lat="44.43018" lon="1.01276">
        <ele>229.41</ele>
        <time>2015-11-21T15:23:50Z</time>
      </trkpt>
      <trkpt lat="44.43025" lon="1.01184">
        <ele>227.49</ele>
        <time>2015-11-21T15:24:04Z</time>
      </trkpt>
      <trkpt lat="44.43026" lon="1.0115">
        <ele>226.53</ele>
        <time>2015-11-21T15:24:09Z</time>
      </trkpt>
      <trkpt lat="44.43027" lon="1.01143">
        <ele>226.53</ele>
        <time>2015-11-21T15:24:10Z</time>
      </trkpt>
      <trkpt lat="44.4303" lon="1.01137">
        <ele>226.53</ele>
        <time>2015-11-21T15:24:11Z</time>
      </trkpt>
      <trkpt lat="44.43033" lon="1.01131">
        <ele>226.53</ele>
        <time>2015-11-21T15:24:12Z</time>
      </trkpt>
      <trkpt lat="44.43037" lon="1.01125">
        <ele>226.53</ele>
        <time>2015-11-21T15:24:13Z</time>
      </trkpt>
      <trkpt lat="44.43068" lon="1.0108">
        <ele>224.61</ele>
        <time>2015-11-21T15:24:21Z</time>
      </trkpt>
      <trkpt lat="44.43073" lon="1.01075">
        <ele>224.61</ele>
        <time>2015-11-21T15:24:22Z</time>
      </trkpt>
      <trkpt lat="44.43078" lon="1.01072">
        <ele>224.61</ele>
        <time>2015-11-21T15:24:23Z</time>
      </trkpt>
      <trkpt lat="44.43083" lon="1.01069">
        <ele>224.61</ele>
        <time>2015-11-21T15:24:24Z</time>
      </trkpt>
      <trkpt lat="44.4309" lon="1.01067">
        <ele>224.61</ele>
        <time>2015-11-21T15:24:25Z</time>
      </trkpt>
      <trkpt lat="44.43096" lon="1.01063">
        <ele>224.12</ele>
        <time>2015-11-21T15:24:26Z</time>
      </trkpt>
      <trkpt lat="44.43101" lon="1.01057">
        <ele>224.12</ele>
        <time>2015-11-21T15:24:27Z</time>
      </trkpt>
      <trkpt lat="44.43106" lon="1.01051">
        <ele>224.12</ele>
        <time>2015-11-21T15:24:28Z</time>
      </trkpt>
      <trkpt lat="44.4311" lon="1.01044">
        <ele>224.12</ele>
        <time>2015-11-21T15:24:29Z</time>
      </trkpt>
      <trkpt lat="44.43114" lon="1.01038">
        <ele>224.12</ele>
        <time>2015-11-21T15:24:30Z</time>
      </trkpt>
      <trkpt lat="44.43127" lon="1.0101">
        <ele>224.61</ele>
        <time>2015-11-21T15:24:34Z</time>
      </trkpt>
      <trkpt lat="44.43129" lon="1.01003">
        <ele>225.09</ele>
        <time>2015-11-21T15:24:35Z</time>
      </trkpt>
      <trkpt lat="44.43134" lon="1.00977">
        <ele>225.57</ele>
        <time>2015-11-21T15:24:38Z</time>
      </trkpt>
      <trkpt lat="44.43138" lon="1.0097">
        <ele>225.57</ele>
        <time>2015-11-21T15:24:39Z</time>
      </trkpt>
      <trkpt lat="44.43198" lon="1.00877">
        <ele>222.68</ele>
        <time>2015-11-21T15:24:52Z</time>
      </trkpt>
      <trkpt lat="44.43206" lon="1.00863">
        <ele>222.2</ele>
        <time>2015-11-21T15:24:54Z</time>
      </trkpt>
      <trkpt lat="44.43229" lon="1.0082">
        <ele>219.32</ele>
        <time>2015-11-21T15:25:02Z</time>
      </trkpt>
      <trkpt lat="44.43228" lon="1.00817">
        <ele>219.32</ele>
        <time>2015-11-21T15:25:03Z</time>
      </trkpt>
      <trkpt lat="44.43226" lon="1.00815">
        <ele>218.84</ele>
        <time>2015-11-21T15:25:04Z</time>
      </trkpt>
      <trkpt lat="44.43224" lon="1.00814">
        <ele>218.36</ele>
        <time>2015-11-21T15:25:05Z</time>
      </trkpt>
      <trkpt lat="44.43223" lon="1.00814">
        <ele>218.36</ele>
        <time>2015-11-21T15:25:06Z</time>
      </trkpt>
      <trkpt lat="44.43217" lon="1.00812">
        <ele>217.4</ele>
        <time>2015-11-21T15:25:10Z</time>
      </trkpt>
      <trkpt lat="44.43216" lon="1.00812">
        <ele>217.4</ele>
        <time>2015-11-21T15:25:11Z</time>
      </trkpt>
      <trkpt lat="44.43195" lon="1.00821">
        <ele>218.36</ele>
        <time>2015-11-21T15:25:21Z</time>
      </trkpt>
      <trkpt lat="44.43187" lon="1.00827">
        <ele>218.84</ele>
        <time>2015-11-21T15:25:25Z</time>
      </trkpt>
      <trkpt lat="44.43185" lon="1.00829">
        <ele>219.32</ele>
        <time>2015-11-21T15:25:26Z</time>
      </trkpt>
      <trkpt lat="44.43183" lon="1.00831">
        <ele>219.8</ele>
        <time>2015-11-21T15:25:27Z</time>
      </trkpt>
      <trkpt lat="44.43154" lon="1.00831">
        <ele>217.88</ele>
        <time>2015-11-21T15:25:35Z</time>
      </trkpt>
      <trkpt lat="44.43124" lon="1.00841">
        <ele>215.95</ele>
        <time>2015-11-21T15:25:41Z</time>
      </trkpt>
      <trkpt lat="44.43107" lon="1.00854">
        <ele>214.51</ele>
        <time>2015-11-21T15:25:45Z</time>
      </trkpt>
      <trkpt lat="44.43095" lon="1.00865">
        <ele>213.55</ele>
        <time>2015-11-21T15:25:48Z</time>
      </trkpt>
      <trkpt lat="44.4308" lon="1.00881">
        <ele>213.55</ele>
        <time>2015-11-21T15:25:52Z</time>
      </trkpt>
      <trkpt lat="44.43065" lon="1.00897">
        <ele>212.59</ele>
        <time>2015-11-21T15:25:56Z</time>
      </trkpt>
      <trkpt lat="44.43038" lon="1.00921">
        <ele>210.67</ele>
        <time>2015-11-21T15:26:02Z</time>
      </trkpt>
      <trkpt lat="44.42974" lon="1.00972">
        <ele>206.34</ele>
        <time>2015-11-21T15:26:15Z</time>
      </trkpt>
      <trkpt lat="44.42957" lon="1.00986">
        <ele>206.34</ele>
        <time>2015-11-21T15:26:19Z</time>
      </trkpt>
      <trkpt lat="44.42938" lon="1.0099">
        <ele>206.82</ele>
        <time>2015-11-21T15:26:23Z</time>
      </trkpt>
      <trkpt lat="44.42928" lon="1.00987">
        <ele>207.3</ele>
        <time>2015-11-21T15:26:25Z</time>
      </trkpt>
      <trkpt lat="44.42854" lon="1.00948">
        <ele>209.22</ele>
        <time>2015-11-21T15:26:42Z</time>
      </trkpt>
      <trkpt lat="44.4285" lon="1.00949">
        <ele>210.19</ele>
        <time>2015-11-21T15:26:43Z</time>
      </trkpt>
      <trkpt lat="44.42825" lon="1.00963">
        <ele>211.15</ele>
        <time>2015-11-21T15:26:50Z</time>
      </trkpt>
      <trkpt lat="44.42822" lon="1.00964">
        <ele>211.15</ele>
        <time>2015-11-21T15:26:51Z</time>
      </trkpt>
      <trkpt lat="44.4282" lon="1.00964">
        <ele>211.63</ele>
        <time>2015-11-21T15:26:52Z</time>
      </trkpt>
      <trkpt lat="44.42819" lon="1.00962">
        <ele>211.63</ele>
        <time>2015-11-21T15:26:53Z</time>
      </trkpt>
      <trkpt lat="44.42818" lon="1.0096">
        <ele>212.11</ele>
        <time>2015-11-21T15:26:54Z</time>
      </trkpt>
      <trkpt lat="44.42818" lon="1.00958">
        <ele>212.11</ele>
        <time>2015-11-21T15:26:55Z</time>
      </trkpt>
      <trkpt lat="44.42818" lon="1.00956">
        <ele>212.11</ele>
        <time>2015-11-21T15:26:56Z</time>
      </trkpt>
      <trkpt lat="44.42818" lon="1.00954">
        <ele>212.11</ele>
        <time>2015-11-21T15:26:57Z</time>
      </trkpt>
      <trkpt lat="44.42817" lon="1.00951">
        <ele>213.07</ele>
        <time>2015-11-21T15:27:08Z</time>
      </trkpt>
      <trkpt lat="44.42817" lon="1.0095">
        <ele>213.07</ele>
        <time>2015-11-21T15:27:15Z</time>
      </trkpt>
      <trkpt lat="44.42816" lon="1.00948">
        <ele>213.07</ele>
        <time>2015-11-21T15:27:16Z</time>
      </trkpt>
      <trkpt lat="44.42815" lon="1.00946">
        <ele>213.07</ele>
        <time>2015-11-21T15:27:17Z</time>
      </trkpt>
      <trkpt lat="44.42814" lon="1.00943">
        <ele>213.07</ele>
        <time>2015-11-21T15:27:18Z</time>
      </trkpt>
      <trkpt lat="44.42814" lon="1.00939">
        <ele>213.07</ele>
        <time>2015-11-21T15:27:19Z</time>
      </trkpt>
      <trkpt lat="44.42815" lon="1.00936">
        <ele>213.07</ele>
        <time>2015-11-21T15:27:20Z</time>
      </trkpt>
      <trkpt lat="44.42812" lon="1.00874">
        <ele>212.11</ele>
        <time>2015-11-21T15:27:34Z</time>
      </trkpt>
      <trkpt lat="44.42809" lon="1.00827">
        <ele>212.11</ele>
        <time>2015-11-21T15:27:43Z</time>
      </trkpt>
      <trkpt lat="44.42807" lon="1.00787">
        <ele>212.11</ele>
        <time>2015-11-21T15:27:50Z</time>
      </trkpt>
      <trkpt lat="44.42798" lon="1.00709">
        <ele>214.99</ele>
        <time>2015-11-21T15:28:05Z</time>
      </trkpt>
      <trkpt lat="44.42789" lon="1.00638">
        <ele>218.84</ele>
        <time>2015-11-21T15:28:20Z</time>
      </trkpt>
      <trkpt lat="44.42784" lon="1.0058">
        <ele>220.28</ele>
        <time>2015-11-21T15:28:33Z</time>
      </trkpt>
      <trkpt lat="44.42779" lon="1.00518">
        <ele>219.32</ele>
        <time>2015-11-21T15:28:47Z</time>
      </trkpt>
      <trkpt lat="44.42758" lon="1.00428">
        <ele>217.88</ele>
        <time>2015-11-21T15:29:03Z</time>
      </trkpt>
      <trkpt lat="44.42734" lon="1.00332">
        <ele>214.99</ele>
        <time>2015-11-21T15:29:19Z</time>
      </trkpt>
      <trkpt lat="44.42708" lon="1.0024">
        <ele>210.67</ele>
        <time>2015-11-21T15:29:34Z</time>
      </trkpt>
      <trkpt lat="44.42705" lon="1.00234">
        <ele>210.19</ele>
        <time>2015-11-21T15:29:36Z</time>
      </trkpt>
      <trkpt lat="44.42704" lon="1.00234">
        <ele>210.19</ele>
        <time>2015-11-21T15:29:37Z</time>
      </trkpt>
      <trkpt lat="44.42702" lon="1.00235">
        <ele>209.7</ele>
        <time>2015-11-21T15:29:38Z</time>
      </trkpt>
      <trkpt lat="44.42701" lon="1.00236">
        <ele>209.7</ele>
        <time>2015-11-21T15:29:39Z</time>
      </trkpt>
      <trkpt lat="44.427" lon="1.00238">
        <ele>209.7</ele>
        <time>2015-11-21T15:29:40Z</time>
      </trkpt>
      <trkpt lat="44.427" lon="1.0024">
        <ele>209.22</ele>
        <time>2015-11-21T15:29:41Z</time>
      </trkpt>
      <trkpt lat="44.42699" lon="1.00242">
        <ele>209.22</ele>
        <time>2015-11-21T15:29:42Z</time>
      </trkpt>
      <trkpt lat="44.42697" lon="1.00243">
        <ele>208.74</ele>
        <time>2015-11-21T15:29:43Z</time>
      </trkpt>
      <trkpt lat="44.42695" lon="1.00244">
        <ele>208.26</ele>
        <time>2015-11-21T15:29:44Z</time>
      </trkpt>
      <trkpt lat="44.42676" lon="1.00265">
        <ele>199.61</ele>
        <time>2015-11-21T15:29:53Z</time>
      </trkpt>
      <trkpt lat="44.42672" lon="1.00269">
        <ele>198.17</ele>
        <time>2015-11-21T15:29:54Z</time>
      </trkpt>
      <trkpt lat="44.4265" lon="1.00291">
        <ele>189.52</ele>
        <time>2015-11-21T15:30:01Z</time>
      </trkpt>
      <trkpt lat="44.42645" lon="1.00292">
        <ele>188.56</ele>
        <time>2015-11-21T15:30:02Z</time>
      </trkpt>
      <trkpt lat="44.4264" lon="1.00292">
        <ele>187.59</ele>
        <time>2015-11-21T15:30:03Z</time>
      </trkpt>
      <trkpt lat="44.42614" lon="1.00285">
        <ele>184.71</ele>
        <time>2015-11-21T15:30:07Z</time>
      </trkpt>
      <trkpt lat="44.42608" lon="1.00281">
        <ele>184.23</ele>
        <time>2015-11-21T15:30:08Z</time>
      </trkpt>
      <trkpt lat="44.42602" lon="1.00277">
        <ele>183.75</ele>
        <time>2015-11-21T15:30:09Z</time>
      </trkpt>
      <trkpt lat="44.42596" lon="1.00271">
        <ele>183.27</ele>
        <time>2015-11-21T15:30:10Z</time>
      </trkpt>
      <trkpt lat="44.4259" lon="1.00266">
        <ele>182.31</ele>
        <time>2015-11-21T15:30:11Z</time>
      </trkpt>
      <trkpt lat="44.42563" lon="1.0024">
        <ele>179.42</ele>
        <time>2015-11-21T15:30:16Z</time>
      </trkpt>
      <trkpt lat="44.42554" lon="1.00235">
        <ele>177.98</ele>
        <time>2015-11-21T15:30:18Z</time>
      </trkpt>
      <trkpt lat="44.42549" lon="1.00235">
        <ele>177.5</ele>
        <time>2015-11-21T15:30:19Z</time>
      </trkpt>
      <trkpt lat="44.42545" lon="1.00236">
        <ele>177.5</ele>
        <time>2015-11-21T15:30:20Z</time>
      </trkpt>
      <trkpt lat="44.4254" lon="1.00237">
        <ele>177.02</ele>
        <time>2015-11-21T15:30:21Z</time>
      </trkpt>
      <trkpt lat="44.42535" lon="1.00238">
        <ele>176.54</ele>
        <time>2015-11-21T15:30:22Z</time>
      </trkpt>
      <trkpt lat="44.4253" lon="1.00239">
        <ele>176.06</ele>
        <time>2015-11-21T15:30:23Z</time>
      </trkpt>
      <trkpt lat="44.4249" lon="1.00252">
        <ele>174.62</ele>
        <time>2015-11-21T15:30:29Z</time>
      </trkpt>
      <trkpt lat="44.42446" lon="1.00274">
        <ele>174.62</ele>
        <time>2015-11-21T15:30:35Z</time>
      </trkpt>
      <trkpt lat="44.42414" lon="1.00253">
        <ele>174.62</ele>
        <time>2015-11-21T15:30:41Z</time>
      </trkpt>
      <trkpt lat="44.42411" lon="1.00247">
        <ele>174.62</ele>
        <time>2015-11-21T15:30:42Z</time>
      </trkpt>
      <trkpt lat="44.42404" lon="1.00233">
        <ele>174.14</ele>
        <time>2015-11-21T15:30:44Z</time>
      </trkpt>
      <trkpt lat="44.42395" lon="1.00211">
        <ele>173.17</ele>
        <time>2015-11-21T15:30:47Z</time>
      </trkpt>
      <trkpt lat="44.42386" lon="1.00183">
        <ele>171.73</ele>
        <time>2015-11-21T15:30:51Z</time>
      </trkpt>
      <trkpt lat="44.42362" lon="1.00139">
        <ele>170.29</ele>
        <time>2015-11-21T15:30:58Z</time>
      </trkpt>
      <trkpt lat="44.42352" lon="1.00111">
        <ele>169.33</ele>
        <time>2015-11-21T15:31:02Z</time>
      </trkpt>
      <trkpt lat="44.42349" lon="1.00106">
        <ele>168.85</ele>
        <time>2015-11-21T15:31:03Z</time>
      </trkpt>
      <trkpt lat="44.42348" lon="1.00101">
        <ele>168.85</ele>
        <time>2015-11-21T15:31:04Z</time>
      </trkpt>
      <trkpt lat="44.42347" lon="1.00097">
        <ele>168.85</ele>
        <time>2015-11-21T15:31:05Z</time>
      </trkpt>
      <trkpt lat="44.42347" lon="1.00089">
        <ele>168.37</ele>
        <time>2015-11-21T15:31:13Z</time>
      </trkpt>
      <trkpt lat="44.42345" lon="1.0009">
        <ele>166.93</ele>
        <time>2015-11-21T15:31:30Z</time>
      </trkpt>
      <trkpt lat="44.42346" lon="1.00089">
        <ele>167.41</ele>
        <time>2015-11-21T15:31:57Z</time>
      </trkpt>
      <trkpt lat="44.42346" lon="1.00088">
        <ele>167.41</ele>
        <time>2015-11-21T15:32:14Z</time>
      </trkpt>
      <trkpt lat="44.42344" lon="1.00088">
        <ele>169.33</ele>
        <time>2015-11-21T15:32:38Z</time>
      </trkpt>
      <trkpt lat="44.42344" lon="1.00087">
        <ele>169.33</ele>
        <time>2015-11-21T15:32:41Z</time>
      </trkpt>
      <trkpt lat="44.42349" lon="1.00044">
        <ele>168.85</ele>
        <time>2015-11-21T15:32:53Z</time>
      </trkpt>
      <trkpt lat="44.42352" lon="1.00021">
        <ele>167.89</ele>
        <time>2015-11-21T15:32:57Z</time>
      </trkpt>
      <trkpt lat="44.42353" lon="1.00003">
        <ele>166.93</ele>
        <time>2015-11-21T15:33:00Z</time>
      </trkpt>
      <trkpt lat="44.42379" lon="0.99937">
        <ele>165.96</ele>
        <time>2015-11-21T15:33:12Z</time>
      </trkpt>
      <trkpt lat="44.42424" lon="0.99865">
        <ele>165</ele>
        <time>2015-11-21T15:33:27Z</time>
      </trkpt>
      <trkpt lat="44.42445" lon="0.99839">
        <ele>164.52</ele>
        <time>2015-11-21T15:33:34Z</time>
      </trkpt>
      <trkpt lat="44.42476" lon="0.99804">
        <ele>166.45</ele>
        <time>2015-11-21T15:33:48Z</time>
      </trkpt>
      <trkpt lat="44.42482" lon="0.99797">
        <ele>166.93</ele>
        <time>2015-11-21T15:33:59Z</time>
      </trkpt>
      <trkpt lat="44.42489" lon="0.99783">
        <ele>168.37</ele>
        <time>2015-11-21T15:34:05Z</time>
      </trkpt>
      <trkpt lat="44.42493" lon="0.99776">
        <ele>169.33</ele>
        <time>2015-11-21T15:34:07Z</time>
      </trkpt>
      <trkpt lat="44.42497" lon="0.99766">
        <ele>170.29</ele>
        <time>2015-11-21T15:34:09Z</time>
      </trkpt>
      <trkpt lat="44.42502" lon="0.99757">
        <ele>170.77</ele>
        <time>2015-11-21T15:34:11Z</time>
      </trkpt>
      <trkpt lat="44.42508" lon="0.99746">
        <ele>171.25</ele>
        <time>2015-11-21T15:34:16Z</time>
      </trkpt>
      <trkpt lat="44.42516" lon="0.9973">
        <ele>170.77</ele>
        <time>2015-11-21T15:34:21Z</time>
      </trkpt>
      <trkpt lat="44.42529" lon="0.99699">
        <ele>170.29</ele>
        <time>2015-11-21T15:34:32Z</time>
      </trkpt>
      <trkpt lat="44.42532" lon="0.99696">
        <ele>169.33</ele>
        <time>2015-11-21T15:34:35Z</time>
      </trkpt>
      <trkpt lat="44.42532" lon="0.99692">
        <ele>169.33</ele>
        <time>2015-11-21T15:34:37Z</time>
      </trkpt>
      <trkpt lat="44.42547" lon="0.99657">
        <ele>168.85</ele>
        <time>2015-11-21T15:34:47Z</time>
      </trkpt>
      <trkpt lat="44.42554" lon="0.99639">
        <ele>169.81</ele>
        <time>2015-11-21T15:34:51Z</time>
      </trkpt>
      <trkpt lat="44.42564" lon="0.99614">
        <ele>170.29</ele>
        <time>2015-11-21T15:34:57Z</time>
      </trkpt>
      <trkpt lat="44.42568" lon="0.99595">
        <ele>171.73</ele>
        <time>2015-11-21T15:35:02Z</time>
      </trkpt>
      <trkpt lat="44.4257" lon="0.99586">
        <ele>172.21</ele>
        <time>2015-11-21T15:35:06Z</time>
      </trkpt>
      <trkpt lat="44.4258" lon="0.99542">
        <ele>172.69</ele>
        <time>2015-11-21T15:35:15Z</time>
      </trkpt>
      <trkpt lat="44.42582" lon="0.99538">
        <ele>172.69</ele>
        <time>2015-11-21T15:35:16Z</time>
      </trkpt>
      <trkpt lat="44.42585" lon="0.99535">
        <ele>172.69</ele>
        <time>2015-11-21T15:35:17Z</time>
      </trkpt>
      <trkpt lat="44.42588" lon="0.99531">
        <ele>172.21</ele>
        <time>2015-11-21T15:35:18Z</time>
      </trkpt>
      <trkpt lat="44.42592" lon="0.99527">
        <ele>171.73</ele>
        <time>2015-11-21T15:35:19Z</time>
      </trkpt>
      <trkpt lat="44.42597" lon="0.9952">
        <ele>171.73</ele>
        <time>2015-11-21T15:35:22Z</time>
      </trkpt>
      <trkpt lat="44.42599" lon="0.99515">
        <ele>171.25</ele>
        <time>2015-11-21T15:35:24Z</time>
      </trkpt>
      <trkpt lat="44.42599" lon="0.99505">
        <ele>170.29</ele>
        <time>2015-11-21T15:35:37Z</time>
      </trkpt>
      <trkpt lat="44.426" lon="0.99502">
        <ele>166.45</ele>
        <time>2015-11-21T15:36:04Z</time>
      </trkpt>
      <trkpt lat="44.42601" lon="0.99502">
        <ele>164.52</ele>
        <time>2015-11-21T15:36:31Z</time>
      </trkpt>
      <trkpt lat="44.42602" lon="0.99502">
        <ele>164.52</ele>
        <time>2015-11-21T15:36:55Z</time>
      </trkpt>
      <trkpt lat="44.42601" lon="0.99504">
        <ele>165</ele>
        <time>2015-11-21T15:37:20Z</time>
      </trkpt>
      <trkpt lat="44.426" lon="0.99503">
        <ele>165.48</ele>
        <time>2015-11-21T15:37:40Z</time>
      </trkpt>
      <trkpt lat="44.42601" lon="0.995">
        <ele>166.93</ele>
        <time>2015-11-21T15:37:52Z</time>
      </trkpt>
      <trkpt lat="44.426" lon="0.99497">
        <ele>166.93</ele>
        <time>2015-11-21T15:37:54Z</time>
      </trkpt>
      <trkpt lat="44.42598" lon="0.99494">
        <ele>166.93</ele>
        <time>2015-11-21T15:37:55Z</time>
      </trkpt>
      <trkpt lat="44.42597" lon="0.99491">
        <ele>166.93</ele>
        <time>2015-11-21T15:37:56Z</time>
      </trkpt>
      <trkpt lat="44.42595" lon="0.99487">
        <ele>167.41</ele>
        <time>2015-11-21T15:37:57Z</time>
      </trkpt>
      <trkpt lat="44.42585" lon="0.99457">
        <ele>165.96</ele>
        <time>2015-11-21T15:38:03Z</time>
      </trkpt>
      <trkpt lat="44.42584" lon="0.99451">
        <ele>165.96</ele>
        <time>2015-11-21T15:38:04Z</time>
      </trkpt>
      <trkpt lat="44.42583" lon="0.99446">
        <ele>165.96</ele>
        <time>2015-11-21T15:38:05Z</time>
      </trkpt>
      <trkpt lat="44.42583" lon="0.9944">
        <ele>165.96</ele>
        <time>2015-11-21T15:38:06Z</time>
      </trkpt>
      <trkpt lat="44.42583" lon="0.99435">
        <ele>165.96</ele>
        <time>2015-11-21T15:38:07Z</time>
      </trkpt>
      <trkpt lat="44.42584" lon="0.9943">
        <ele>165.96</ele>
        <time>2015-11-21T15:38:08Z</time>
      </trkpt>
      <trkpt lat="44.42585" lon="0.99425">
        <ele>165.96</ele>
        <time>2015-11-21T15:38:09Z</time>
      </trkpt>
      <trkpt lat="44.42586" lon="0.9942">
        <ele>165.96</ele>
        <time>2015-11-21T15:38:10Z</time>
      </trkpt>
      <trkpt lat="44.42583" lon="0.99374">
        <ele>165.96</ele>
        <time>2015-11-21T15:38:21Z</time>
      </trkpt>
      <trkpt lat="44.42553" lon="0.99336">
        <ele>167.41</ele>
        <time>2015-11-21T15:38:34Z</time>
      </trkpt>
      <trkpt lat="44.42527" lon="0.99298">
        <ele>171.25</ele>
        <time>2015-11-21T15:38:47Z</time>
      </trkpt>
      <trkpt lat="44.42521" lon="0.99243">
        <ele>173.17</ele>
        <time>2015-11-21T15:39:00Z</time>
      </trkpt>
      <trkpt lat="44.42535" lon="0.99191">
        <ele>177.02</ele>
        <time>2015-11-21T15:39:14Z</time>
      </trkpt>
      <trkpt lat="44.4255" lon="0.99141">
        <ele>180.38</ele>
        <time>2015-11-21T15:39:29Z</time>
      </trkpt>
      <trkpt lat="44.42572" lon="0.99086">
        <ele>184.23</ele>
        <time>2015-11-21T15:39:46Z</time>
      </trkpt>
      <trkpt lat="44.42587" lon="0.99041">
        <ele>188.56</ele>
        <time>2015-11-21T15:40:00Z</time>
      </trkpt>
      <trkpt lat="44.42587" lon="0.99036">
        <ele>188.56</ele>
        <time>2015-11-21T15:40:02Z</time>
      </trkpt>
      <trkpt lat="44.42587" lon="0.99034">
        <ele>188.56</ele>
        <time>2015-11-21T15:40:03Z</time>
      </trkpt>
      <trkpt lat="44.42586" lon="0.99032">
        <ele>188.08</ele>
        <time>2015-11-21T15:40:04Z</time>
      </trkpt>
      <trkpt lat="44.42586" lon="0.9903">
        <ele>188.08</ele>
        <time>2015-11-21T15:40:05Z</time>
      </trkpt>
      <trkpt lat="44.42586" lon="0.99027">
        <ele>188.08</ele>
        <time>2015-11-21T15:40:06Z</time>
      </trkpt>
      <trkpt lat="44.42587" lon="0.99025">
        <ele>188.08</ele>
        <time>2015-11-21T15:40:07Z</time>
      </trkpt>
      <trkpt lat="44.42588" lon="0.99023">
        <ele>188.56</ele>
        <time>2015-11-21T15:40:08Z</time>
      </trkpt>
      <trkpt lat="44.42589" lon="0.99023">
        <ele>188.56</ele>
        <time>2015-11-21T15:40:09Z</time>
      </trkpt>
      <trkpt lat="44.4259" lon="0.99022">
        <ele>188.56</ele>
        <time>2015-11-21T15:40:10Z</time>
      </trkpt>
      <trkpt lat="44.4261" lon="0.98997">
        <ele>190.96</ele>
        <time>2015-11-21T15:40:27Z</time>
      </trkpt>
      <trkpt lat="44.42624" lon="0.9899">
        <ele>192.4</ele>
        <time>2015-11-21T15:40:38Z</time>
      </trkpt>
      <trkpt lat="44.4264" lon="0.99004">
        <ele>194.8</ele>
        <time>2015-11-21T15:40:51Z</time>
      </trkpt>
      <trkpt lat="44.42641" lon="0.99005">
        <ele>194.8</ele>
        <time>2015-11-21T15:40:52Z</time>
      </trkpt>
      <trkpt lat="44.42662" lon="0.99022">
        <ele>197.69</ele>
        <time>2015-11-21T15:41:10Z</time>
      </trkpt>
      <trkpt lat="44.42664" lon="0.99022">
        <ele>197.69</ele>
        <time>2015-11-21T15:41:11Z</time>
      </trkpt>
      <trkpt lat="44.42665" lon="0.99021">
        <ele>197.21</ele>
        <time>2015-11-21T15:41:12Z</time>
      </trkpt>
      <trkpt lat="44.42666" lon="0.99019">
        <ele>197.21</ele>
        <time>2015-11-21T15:41:13Z</time>
      </trkpt>
      <trkpt lat="44.42666" lon="0.99018">
        <ele>197.21</ele>
        <time>2015-11-21T15:41:14Z</time>
      </trkpt>
      <trkpt lat="44.42667" lon="0.99016">
        <ele>197.21</ele>
        <time>2015-11-21T15:41:15Z</time>
      </trkpt>
      <trkpt lat="44.42668" lon="0.99014">
        <ele>197.21</ele>
        <time>2015-11-21T15:41:16Z</time>
      </trkpt>
      <trkpt lat="44.42668" lon="0.99012">
        <ele>197.21</ele>
        <time>2015-11-21T15:41:17Z</time>
      </trkpt>
      <trkpt lat="44.4267" lon="0.9901">
        <ele>197.21</ele>
        <time>2015-11-21T15:41:18Z</time>
      </trkpt>
      <trkpt lat="44.42671" lon="0.99007">
        <ele>197.21</ele>
        <time>2015-11-21T15:41:19Z</time>
      </trkpt>
      <trkpt lat="44.42672" lon="0.99005">
        <ele>197.21</ele>
        <time>2015-11-21T15:41:20Z</time>
      </trkpt>
      <trkpt lat="44.42673" lon="0.99003">
        <ele>197.69</ele>
        <time>2015-11-21T15:41:21Z</time>
      </trkpt>
      <trkpt lat="44.42693" lon="0.98967">
        <ele>199.61</ele>
        <time>2015-11-21T15:41:38Z</time>
      </trkpt>
      <trkpt lat="44.42713" lon="0.9893">
        <ele>201.05</ele>
        <time>2015-11-21T15:41:55Z</time>
      </trkpt>
      <trkpt lat="44.42733" lon="0.98895">
        <ele>204.9</ele>
        <time>2015-11-21T15:42:13Z</time>
      </trkpt>
      <trkpt lat="44.42753" lon="0.98862">
        <ele>207.3</ele>
        <time>2015-11-21T15:42:30Z</time>
      </trkpt>
      <trkpt lat="44.42777" lon="0.9883">
        <ele>207.78</ele>
        <time>2015-11-21T15:42:46Z</time>
      </trkpt>
      <trkpt lat="44.42805" lon="0.98813">
        <ele>208.26</ele>
        <time>2015-11-21T15:43:02Z</time>
      </trkpt>
      <trkpt lat="44.42811" lon="0.9882">
        <ele>208.26</ele>
        <time>2015-11-21T15:43:06Z</time>
      </trkpt>
      <trkpt lat="44.42817" lon="0.98827">
        <ele>208.26</ele>
        <time>2015-11-21T15:43:10Z</time>
      </trkpt>
      <trkpt lat="44.42828" lon="0.98821">
        <ele>207.78</ele>
        <time>2015-11-21T15:43:16Z</time>
      </trkpt>
      <trkpt lat="44.4283" lon="0.98819">
        <ele>207.78</ele>
        <time>2015-11-21T15:43:17Z</time>
      </trkpt>
      <trkpt lat="44.42831" lon="0.98816">
        <ele>207.78</ele>
        <time>2015-11-21T15:43:18Z</time>
      </trkpt>
      <trkpt lat="44.42832" lon="0.98787">
        <ele>206.34</ele>
        <time>2015-11-21T15:43:31Z</time>
      </trkpt>
      <trkpt lat="44.42809" lon="0.98744">
        <ele>202.98</ele>
        <time>2015-11-21T15:43:49Z</time>
      </trkpt>
      <trkpt lat="44.42782" lon="0.98719">
        <ele>202.98</ele>
        <time>2015-11-21T15:44:05Z</time>
      </trkpt>
      <trkpt lat="44.42758" lon="0.98723">
        <ele>205.86</ele>
        <time>2015-11-21T15:44:19Z</time>
      </trkpt>
      <trkpt lat="44.42747" lon="0.98726">
        <ele>206.82</ele>
        <time>2015-11-21T15:44:32Z</time>
      </trkpt>
      <trkpt lat="44.42747" lon="0.98726">
        <ele>206.34</ele>
        <time>2015-11-21T15:44:57Z</time>
      </trkpt>
      <trkpt lat="44.42748" lon="0.98727">
        <ele>205.38</ele>
        <time>2015-11-21T15:45:28Z</time>
      </trkpt>
      <trkpt lat="44.42748" lon="0.98727">
        <ele>206.34</ele>
        <time>2015-11-21T15:46:02Z</time>
      </trkpt>
      <trkpt lat="44.42749" lon="0.98726">
        <ele>206.34</ele>
        <time>2015-11-21T15:46:25Z</time>
      </trkpt>
      <trkpt lat="44.42749" lon="0.98726">
        <ele>207.3</ele>
        <time>2015-11-21T15:46:57Z</time>
      </trkpt>
      <trkpt lat="44.42749" lon="0.98726">
        <ele>207.3</ele>
        <time>2015-11-21T15:47:05Z</time>
      </trkpt>
      <trkpt lat="44.4274" lon="0.98729">
        <ele>207.3</ele>
        <time>2015-11-21T15:47:10Z</time>
      </trkpt>
      <trkpt lat="44.427" lon="0.98745">
        <ele>207.78</ele>
        <time>2015-11-21T15:47:25Z</time>
      </trkpt>
      <trkpt lat="44.42663" lon="0.98757">
        <ele>205.86</ele>
        <time>2015-11-21T15:47:36Z</time>
      </trkpt>
      <trkpt lat="44.42619" lon="0.98755">
        <ele>202.49</ele>
        <time>2015-11-21T15:47:44Z</time>
      </trkpt>
      <trkpt lat="44.42614" lon="0.98755">
        <ele>202.01</ele>
        <time>2015-11-21T15:47:45Z</time>
      </trkpt>
      <trkpt lat="44.42584" lon="0.98756">
        <ele>201.53</ele>
        <time>2015-11-21T15:47:51Z</time>
      </trkpt>
      <trkpt lat="44.42579" lon="0.98757">
        <ele>201.53</ele>
        <time>2015-11-21T15:47:52Z</time>
      </trkpt>
      <trkpt lat="44.42502" lon="0.98769">
        <ele>204.42</ele>
        <time>2015-11-21T15:48:08Z</time>
      </trkpt>
      <trkpt lat="44.42451" lon="0.9878">
        <ele>205.38</ele>
        <time>2015-11-21T15:48:20Z</time>
      </trkpt>
      <trkpt lat="44.42428" lon="0.98785">
        <ele>205.86</ele>
        <time>2015-11-21T15:48:26Z</time>
      </trkpt>
      <trkpt lat="44.42424" lon="0.98786">
        <ele>205.86</ele>
        <time>2015-11-21T15:48:27Z</time>
      </trkpt>
      <trkpt lat="44.4242" lon="0.98787">
        <ele>205.86</ele>
        <time>2015-11-21T15:48:28Z</time>
      </trkpt>
      <trkpt lat="44.42408" lon="0.98789">
        <ele>205.38</ele>
        <time>2015-11-21T15:48:31Z</time>
      </trkpt>
      <trkpt lat="44.42378" lon="0.98789">
        <ele>203.94</ele>
        <time>2015-11-21T15:48:42Z</time>
      </trkpt>
      <trkpt lat="44.42378" lon="0.98788">
        <ele>203.46</ele>
        <time>2015-11-21T15:48:57Z</time>
      </trkpt>
      <trkpt lat="44.42373" lon="0.98778">
        <ele>203.94</ele>
        <time>2015-11-21T15:49:10Z</time>
      </trkpt>
      <trkpt lat="44.42367" lon="0.98753">
        <ele>203.46</ele>
        <time>2015-11-21T15:49:15Z</time>
      </trkpt>
      <trkpt lat="44.42365" lon="0.98748">
        <ele>203.46</ele>
        <time>2015-11-21T15:49:16Z</time>
      </trkpt>
      <trkpt lat="44.42362" lon="0.98743">
        <ele>203.46</ele>
        <time>2015-11-21T15:49:17Z</time>
      </trkpt>
      <trkpt lat="44.42322" lon="0.98681">
        <ele>203.94</ele>
        <time>2015-11-21T15:49:30Z</time>
      </trkpt>
      <trkpt lat="44.42265" lon="0.98593">
        <ele>203.94</ele>
        <time>2015-11-21T15:49:48Z</time>
      </trkpt>
      <trkpt lat="44.42243" lon="0.98561">
        <ele>202.98</ele>
        <time>2015-11-21T15:49:55Z</time>
      </trkpt>
      <trkpt lat="44.42237" lon="0.98552">
        <ele>202.98</ele>
        <time>2015-11-21T15:49:57Z</time>
      </trkpt>
      <trkpt lat="44.42234" lon="0.98548">
        <ele>202.98</ele>
        <time>2015-11-21T15:49:58Z</time>
      </trkpt>
      <trkpt lat="44.42223" lon="0.98532">
        <ele>203.94</ele>
        <time>2015-11-21T15:50:08Z</time>
      </trkpt>
      <trkpt lat="44.42222" lon="0.98531">
        <ele>203.46</ele>
        <time>2015-11-21T15:50:29Z</time>
      </trkpt>
      <trkpt lat="44.42221" lon="0.9853">
        <ele>203.94</ele>
        <time>2015-11-21T15:50:46Z</time>
      </trkpt>
      <trkpt lat="44.42199" lon="0.98493">
        <ele>205.86</ele>
        <time>2015-11-21T15:50:57Z</time>
      </trkpt>
      <trkpt lat="44.4217" lon="0.98453">
        <ele>203.46</ele>
        <time>2015-11-21T15:51:09Z</time>
      </trkpt>
      <trkpt lat="44.42156" lon="0.98441">
        <ele>202.49</ele>
        <time>2015-11-21T15:51:13Z</time>
      </trkpt>
      <trkpt lat="44.42143" lon="0.98429">
        <ele>201.05</ele>
        <time>2015-11-21T15:51:17Z</time>
      </trkpt>
      <trkpt lat="44.42133" lon="0.98419">
        <ele>200.09</ele>
        <time>2015-11-21T15:51:20Z</time>
      </trkpt>
      <trkpt lat="44.42116" lon="0.98405">
        <ele>198.65</ele>
        <time>2015-11-21T15:51:24Z</time>
      </trkpt>
      <trkpt lat="44.42109" lon="0.98395">
        <ele>197.69</ele>
        <time>2015-11-21T15:51:26Z</time>
      </trkpt>
      <trkpt lat="44.42105" lon="0.98375">
        <ele>195.77</ele>
        <time>2015-11-21T15:51:30Z</time>
      </trkpt>
      <trkpt lat="44.42105" lon="0.98348">
        <ele>193.36</ele>
        <time>2015-11-21T15:51:36Z</time>
      </trkpt>
      <trkpt lat="44.42081" lon="0.9827">
        <ele>185.67</ele>
        <time>2015-11-21T15:51:49Z</time>
      </trkpt>
      <trkpt lat="44.42066" lon="0.98207">
        <ele>183.75</ele>
        <time>2015-11-21T15:52:03Z</time>
      </trkpt>
      <trkpt lat="44.42061" lon="0.98164">
        <ele>186.15</ele>
        <time>2015-11-21T15:52:15Z</time>
      </trkpt>
      <trkpt lat="44.42056" lon="0.98108">
        <ele>188.08</ele>
        <time>2015-11-21T15:52:29Z</time>
      </trkpt>
      <trkpt lat="44.42057" lon="0.98098">
        <ele>188.56</ele>
        <time>2015-11-21T15:52:32Z</time>
      </trkpt>
      <trkpt lat="44.42056" lon="0.98094">
        <ele>189.04</ele>
        <time>2015-11-21T15:52:35Z</time>
      </trkpt>
      <trkpt lat="44.4206" lon="0.98047">
        <ele>188.56</ele>
        <time>2015-11-21T15:52:49Z</time>
      </trkpt>
      <trkpt lat="44.42058" lon="0.98016">
        <ele>190</ele>
        <time>2015-11-21T15:53:02Z</time>
      </trkpt>
      <trkpt lat="44.42057" lon="0.98016">
        <ele>190</ele>
        <time>2015-11-21T15:53:18Z</time>
      </trkpt>
      <trkpt lat="44.42058" lon="0.98016">
        <ele>190.48</ele>
        <time>2015-11-21T15:53:47Z</time>
      </trkpt>
      <trkpt lat="44.42057" lon="0.98015">
        <ele>190.48</ele>
        <time>2015-11-21T15:53:48Z</time>
      </trkpt>
      <trkpt lat="44.42055" lon="0.98014">
        <ele>190.48</ele>
        <time>2015-11-21T15:53:49Z</time>
      </trkpt>
      <trkpt lat="44.42054" lon="0.98013">
        <ele>190.48</ele>
        <time>2015-11-21T15:53:50Z</time>
      </trkpt>
      <trkpt lat="44.42052" lon="0.98012">
        <ele>190.48</ele>
        <time>2015-11-21T15:53:51Z</time>
      </trkpt>
      <trkpt lat="44.4205" lon="0.98011">
        <ele>190</ele>
        <time>2015-11-21T15:53:52Z</time>
      </trkpt>
      <trkpt lat="44.42048" lon="0.98009">
        <ele>189.52</ele>
        <time>2015-11-21T15:53:53Z</time>
      </trkpt>
      <trkpt lat="44.42046" lon="0.98007">
        <ele>189.52</ele>
        <time>2015-11-21T15:53:54Z</time>
      </trkpt>
      <trkpt lat="44.42044" lon="0.98006">
        <ele>189.52</ele>
        <time>2015-11-21T15:53:55Z</time>
      </trkpt>
      <trkpt lat="44.42004" lon="0.97983">
        <ele>189.52</ele>
        <time>2015-11-21T15:54:08Z</time>
      </trkpt>
      <trkpt lat="44.41974" lon="0.97943">
        <ele>190</ele>
        <time>2015-11-21T15:54:21Z</time>
      </trkpt>
      <trkpt lat="44.41972" lon="0.97882">
        <ele>191.92</ele>
        <time>2015-11-21T15:54:34Z</time>
      </trkpt>
      <trkpt lat="44.41973" lon="0.97787">
        <ele>190.48</ele>
        <time>2015-11-21T15:54:52Z</time>
      </trkpt>
      <trkpt lat="44.41971" lon="0.97693">
        <ele>186.15</ele>
        <time>2015-11-21T15:55:05Z</time>
      </trkpt>
      <trkpt lat="44.41935" lon="0.97561">
        <ele>179.9</ele>
        <time>2015-11-21T15:55:18Z</time>
      </trkpt>
      <trkpt lat="44.41895" lon="0.9746">
        <ele>178.46</ele>
        <time>2015-11-21T15:55:30Z</time>
      </trkpt>
      <trkpt lat="44.41877" lon="0.9737">
        <ele>179.9</ele>
        <time>2015-11-21T15:55:44Z</time>
      </trkpt>
      <trkpt lat="44.41877" lon="0.97362">
        <ele>179.42</ele>
        <time>2015-11-21T15:55:45Z</time>
      </trkpt>
      <trkpt lat="44.41878" lon="0.97355">
        <ele>178.94</ele>
        <time>2015-11-21T15:55:46Z</time>
      </trkpt>
      <trkpt lat="44.41879" lon="0.97347">
        <ele>178.46</ele>
        <time>2015-11-21T15:55:47Z</time>
      </trkpt>
      <trkpt lat="44.41901" lon="0.97282">
        <ele>174.14</ele>
        <time>2015-11-21T15:55:55Z</time>
      </trkpt>
      <trkpt lat="44.41903" lon="0.97274">
        <ele>173.66</ele>
        <time>2015-11-21T15:55:56Z</time>
      </trkpt>
      <trkpt lat="44.41905" lon="0.97264">
        <ele>173.17</ele>
        <time>2015-11-21T15:55:57Z</time>
      </trkpt>
      <trkpt lat="44.41905" lon="0.97255">
        <ele>172.69</ele>
        <time>2015-11-21T15:55:58Z</time>
      </trkpt>
      <trkpt lat="44.41904" lon="0.97246">
        <ele>172.21</ele>
        <time>2015-11-21T15:55:59Z</time>
      </trkpt>
      <trkpt lat="44.41903" lon="0.97237">
        <ele>171.73</ele>
        <time>2015-11-21T15:56:00Z</time>
      </trkpt>
      <trkpt lat="44.41902" lon="0.97228">
        <ele>170.77</ele>
        <time>2015-11-21T15:56:01Z</time>
      </trkpt>
      <trkpt lat="44.41902" lon="0.97211">
        <ele>169.33</ele>
        <time>2015-11-21T15:56:03Z</time>
      </trkpt>
      <trkpt lat="44.41903" lon="0.97204">
        <ele>168.85</ele>
        <time>2015-11-21T15:56:04Z</time>
      </trkpt>
      <trkpt lat="44.41904" lon="0.97199">
        <ele>168.37</ele>
        <time>2015-11-21T15:56:05Z</time>
      </trkpt>
      <trkpt lat="44.41911" lon="0.97179">
        <ele>166.93</ele>
        <time>2015-11-21T15:56:15Z</time>
      </trkpt>
      <trkpt lat="44.41911" lon="0.97179">
        <ele>167.89</ele>
        <time>2015-11-21T15:56:33Z</time>
      </trkpt>
      <trkpt lat="44.4191" lon="0.97177">
        <ele>167.89</ele>
        <time>2015-11-21T15:56:39Z</time>
      </trkpt>
      <trkpt lat="44.41909" lon="0.97175">
        <ele>167.89</ele>
        <time>2015-11-21T15:56:40Z</time>
      </trkpt>
      <trkpt lat="44.41906" lon="0.97173">
        <ele>167.89</ele>
        <time>2015-11-21T15:56:41Z</time>
      </trkpt>
      <trkpt lat="44.41904" lon="0.97172">
        <ele>167.89</ele>
        <time>2015-11-21T15:56:42Z</time>
      </trkpt>
      <trkpt lat="44.419" lon="0.97171">
        <ele>167.89</ele>
        <time>2015-11-21T15:56:43Z</time>
      </trkpt>
      <trkpt lat="44.41891" lon="0.97161">
        <ele>167.41</ele>
        <time>2015-11-21T15:56:46Z</time>
      </trkpt>
      <trkpt lat="44.4189" lon="0.97155">
        <ele>166.93</ele>
        <time>2015-11-21T15:56:47Z</time>
      </trkpt>
      <trkpt lat="44.4189" lon="0.97147">
        <ele>166.45</ele>
        <time>2015-11-21T15:56:48Z</time>
      </trkpt>
      <trkpt lat="44.41891" lon="0.9714">
        <ele>165.96</ele>
        <time>2015-11-21T15:56:49Z</time>
      </trkpt>
      <trkpt lat="44.41892" lon="0.97131">
        <ele>165.48</ele>
        <time>2015-11-21T15:56:50Z</time>
      </trkpt>
      <trkpt lat="44.41893" lon="0.97123">
        <ele>165.48</ele>
        <time>2015-11-21T15:56:51Z</time>
      </trkpt>
      <trkpt lat="44.41893" lon="0.97113">
        <ele>165</ele>
        <time>2015-11-21T15:56:52Z</time>
      </trkpt>
      <trkpt lat="44.41896" lon="0.9703">
        <ele>160.2</ele>
        <time>2015-11-21T15:57:01Z</time>
      </trkpt>
      <trkpt lat="44.41898" lon="0.97024">
        <ele>160.2</ele>
        <time>2015-11-21T15:57:02Z</time>
      </trkpt>
      <trkpt lat="44.41901" lon="0.97018">
        <ele>159.72</ele>
        <time>2015-11-21T15:57:03Z</time>
      </trkpt>
      <trkpt lat="44.41912" lon="0.96996">
        <ele>160.2</ele>
        <time>2015-11-21T15:57:07Z</time>
      </trkpt>
      <trkpt lat="44.41916" lon="0.96985">
        <ele>160.2</ele>
        <time>2015-11-21T15:57:09Z</time>
      </trkpt>
      <trkpt lat="44.41919" lon="0.96973">
        <ele>160.68</ele>
        <time>2015-11-21T15:57:11Z</time>
      </trkpt>
      <trkpt lat="44.4192" lon="0.96967">
        <ele>160.68</ele>
        <time>2015-11-21T15:57:12Z</time>
      </trkpt>
      <trkpt lat="44.41922" lon="0.96954">
        <ele>160.68</ele>
        <time>2015-11-21T15:57:14Z</time>
      </trkpt>
      <trkpt lat="44.41922" lon="0.96934">
        <ele>161.16</ele>
        <time>2015-11-21T15:57:17Z</time>
      </trkpt>
      <trkpt lat="44.41921" lon="0.96927">
        <ele>161.16</ele>
        <time>2015-11-21T15:57:18Z</time>
      </trkpt>
      <trkpt lat="44.41919" lon="0.96921">
        <ele>161.16</ele>
        <time>2015-11-21T15:57:19Z</time>
      </trkpt>
      <trkpt lat="44.41896" lon="0.96829">
        <ele>161.16</ele>
        <time>2015-11-21T15:57:33Z</time>
      </trkpt>
      <trkpt lat="44.41868" lon="0.96734">
        <ele>161.64</ele>
        <time>2015-11-21T15:57:49Z</time>
      </trkpt>
      <trkpt lat="44.41866" lon="0.96729">
        <ele>161.64</ele>
        <time>2015-11-21T15:57:50Z</time>
      </trkpt>
      <trkpt lat="44.41854" lon="0.96677">
        <ele>162.6</ele>
        <time>2015-11-21T15:57:59Z</time>
      </trkpt>
      <trkpt lat="44.41852" lon="0.96664">
        <ele>163.08</ele>
        <time>2015-11-21T15:58:01Z</time>
      </trkpt>
      <trkpt lat="44.41855" lon="0.96607">
        <ele>163.56</ele>
        <time>2015-11-21T15:58:12Z</time>
      </trkpt>
      <trkpt lat="44.41856" lon="0.96601">
        <ele>163.56</ele>
        <time>2015-11-21T15:58:13Z</time>
      </trkpt>
      <trkpt lat="44.41865" lon="0.96573">
        <ele>163.08</ele>
        <time>2015-11-21T15:58:18Z</time>
      </trkpt>
      <trkpt lat="44.41869" lon="0.96562">
        <ele>163.08</ele>
        <time>2015-11-21T15:58:20Z</time>
      </trkpt>
      <trkpt lat="44.41921" lon="0.96488">
        <ele>164.04</ele>
        <time>2015-11-21T15:58:36Z</time>
      </trkpt>
      <trkpt lat="44.41992" lon="0.96394">
        <ele>162.12</ele>
        <time>2015-11-21T15:58:56Z</time>
      </trkpt>
      <trkpt lat="44.42052" lon="0.96302">
        <ele>159.72</ele>
        <time>2015-11-21T15:59:14Z</time>
      </trkpt>
      <trkpt lat="44.42095" lon="0.96207">
        <ele>157.79</ele>
        <time>2015-11-21T15:59:31Z</time>
      </trkpt>
      <trkpt lat="44.4213" lon="0.96108">
        <ele>155.87</ele>
        <time>2015-11-21T15:59:48Z</time>
      </trkpt>
      <trkpt lat="44.42142" lon="0.96074">
        <ele>155.39</ele>
        <time>2015-11-21T15:59:54Z</time>
      </trkpt>
      <trkpt lat="44.42179" lon="0.95972">
        <ele>153.47</ele>
        <time>2015-11-21T16:00:11Z</time>
      </trkpt>
      <trkpt lat="44.42233" lon="0.95866">
        <ele>152.99</ele>
        <time>2015-11-21T16:00:30Z</time>
      </trkpt>
      <trkpt lat="44.42298" lon="0.95761">
        <ele>152.03</ele>
        <time>2015-11-21T16:00:51Z</time>
      </trkpt>
      <trkpt lat="44.4236" lon="0.95696">
        <ele>152.51</ele>
        <time>2015-11-21T16:01:08Z</time>
      </trkpt>
      <trkpt lat="44.42433" lon="0.95674">
        <ele>151.54</ele>
        <time>2015-11-21T16:01:24Z</time>
      </trkpt>
      <trkpt lat="44.42501" lon="0.95629">
        <ele>149.62</ele>
        <time>2015-11-21T16:01:40Z</time>
      </trkpt>
      <trkpt lat="44.42552" lon="0.95571">
        <ele>149.62</ele>
        <time>2015-11-21T16:01:54Z</time>
      </trkpt>
      <trkpt lat="44.42586" lon="0.95559">
        <ele>149.14</ele>
        <time>2015-11-21T16:02:01Z</time>
      </trkpt>
      <trkpt lat="44.42655" lon="0.95571">
        <ele>147.22</ele>
        <time>2015-11-21T16:02:15Z</time>
      </trkpt>
      <trkpt lat="44.42751" lon="0.95583">
        <ele>144.82</ele>
        <time>2015-11-21T16:02:34Z</time>
      </trkpt>
      <trkpt lat="44.4282" lon="0.95541">
        <ele>144.34</ele>
        <time>2015-11-21T16:02:49Z</time>
      </trkpt>
      <trkpt lat="44.4289" lon="0.95474">
        <ele>142.41</ele>
        <time>2015-11-21T16:03:06Z</time>
      </trkpt>
      <trkpt lat="44.42894" lon="0.9547">
        <ele>142.41</ele>
        <time>2015-11-21T16:03:07Z</time>
      </trkpt>
      <trkpt lat="44.42898" lon="0.95466">
        <ele>142.41</ele>
        <time>2015-11-21T16:03:08Z</time>
      </trkpt>
      <trkpt lat="44.42902" lon="0.95462">
        <ele>141.93</ele>
        <time>2015-11-21T16:03:09Z</time>
      </trkpt>
      <trkpt lat="44.42907" lon="0.95458">
        <ele>141.93</ele>
        <time>2015-11-21T16:03:10Z</time>
      </trkpt>
      <trkpt lat="44.4294" lon="0.95427">
        <ele>140.97</ele>
        <time>2015-11-21T16:03:18Z</time>
      </trkpt>
      <trkpt lat="44.43005" lon="0.95362">
        <ele>139.05</ele>
        <time>2015-11-21T16:03:34Z</time>
      </trkpt>
      <trkpt lat="44.43067" lon="0.95287">
        <ele>136.64</ele>
        <time>2015-11-21T16:03:49Z</time>
      </trkpt>
      <trkpt lat="44.43128" lon="0.95195">
        <ele>133.76</ele>
        <time>2015-11-21T16:04:07Z</time>
      </trkpt>
      <trkpt lat="44.43132" lon="0.9519">
        <ele>133.28</ele>
        <time>2015-11-21T16:04:08Z</time>
      </trkpt>
      <trkpt lat="44.43177" lon="0.95118">
        <ele>132.32</ele>
        <time>2015-11-21T16:04:23Z</time>
      </trkpt>
      <trkpt lat="44.43234" lon="0.95032">
        <ele>130.4</ele>
        <time>2015-11-21T16:04:42Z</time>
      </trkpt>
      <trkpt lat="44.43303" lon="0.94966">
        <ele>132.32</ele>
        <time>2015-11-21T16:05:00Z</time>
      </trkpt>
      <trkpt lat="44.43374" lon="0.94914">
        <ele>133.28</ele>
        <time>2015-11-21T16:05:16Z</time>
      </trkpt>
      <trkpt lat="44.43435" lon="0.94868">
        <ele>133.76</ele>
        <time>2015-11-21T16:05:30Z</time>
      </trkpt>
      <trkpt lat="44.43462" lon="0.94848">
        <ele>133.28</ele>
        <time>2015-11-21T16:05:37Z</time>
      </trkpt>
      <trkpt lat="44.43466" lon="0.94845">
        <ele>133.28</ele>
        <time>2015-11-21T16:05:38Z</time>
      </trkpt>
      <trkpt lat="44.4347" lon="0.94842">
        <ele>133.28</ele>
        <time>2015-11-21T16:05:39Z</time>
      </trkpt>
      <trkpt lat="44.43474" lon="0.94839">
        <ele>132.8</ele>
        <time>2015-11-21T16:05:40Z</time>
      </trkpt>
      <trkpt lat="44.43478" lon="0.94836">
        <ele>132.8</ele>
        <time>2015-11-21T16:05:41Z</time>
      </trkpt>
      <trkpt lat="44.4354" lon="0.9479">
        <ele>134.72</ele>
        <time>2015-11-21T16:05:57Z</time>
      </trkpt>
      <trkpt lat="44.43552" lon="0.94781">
        <ele>134.72</ele>
        <time>2015-11-21T16:06:00Z</time>
      </trkpt>
      <trkpt lat="44.43605" lon="0.94727">
        <ele>133.76</ele>
        <time>2015-11-21T16:06:14Z</time>
      </trkpt>
      <trkpt lat="44.43609" lon="0.94724">
        <ele>133.76</ele>
        <time>2015-11-21T16:06:15Z</time>
      </trkpt>
      <trkpt lat="44.43614" lon="0.94722">
        <ele>133.76</ele>
        <time>2015-11-21T16:06:16Z</time>
      </trkpt>
      <trkpt lat="44.43647" lon="0.94709">
        <ele>135.2</ele>
        <time>2015-11-21T16:06:25Z</time>
      </trkpt>
      <trkpt lat="44.43654" lon="0.94702">
        <ele>136.16</ele>
        <time>2015-11-21T16:06:27Z</time>
      </trkpt>
      <trkpt lat="44.43658" lon="0.94698">
        <ele>136.64</ele>
        <time>2015-11-21T16:06:28Z</time>
      </trkpt>
      <trkpt lat="44.43661" lon="0.94694">
        <ele>137.13</ele>
        <time>2015-11-21T16:06:29Z</time>
      </trkpt>
      <trkpt lat="44.43667" lon="0.94686">
        <ele>137.61</ele>
        <time>2015-11-21T16:06:31Z</time>
      </trkpt>
      <trkpt lat="44.4367" lon="0.94682">
        <ele>137.61</ele>
        <time>2015-11-21T16:06:32Z</time>
      </trkpt>
      <trkpt lat="44.43674" lon="0.94677">
        <ele>137.61</ele>
        <time>2015-11-21T16:06:33Z</time>
      </trkpt>
      <trkpt lat="44.43677" lon="0.94672">
        <ele>137.61</ele>
        <time>2015-11-21T16:06:34Z</time>
      </trkpt>
      <trkpt lat="44.4368" lon="0.94668">
        <ele>138.09</ele>
        <time>2015-11-21T16:06:35Z</time>
      </trkpt>
      <trkpt lat="44.43683" lon="0.94664">
        <ele>138.57</ele>
        <time>2015-11-21T16:06:36Z</time>
      </trkpt>
      <trkpt lat="44.43686" lon="0.9466">
        <ele>138.57</ele>
        <time>2015-11-21T16:06:37Z</time>
      </trkpt>
      <trkpt lat="44.43689" lon="0.94656">
        <ele>138.57</ele>
        <time>2015-11-21T16:06:38Z</time>
      </trkpt>
      <trkpt lat="44.43692" lon="0.94651">
        <ele>139.05</ele>
        <time>2015-11-21T16:06:39Z</time>
      </trkpt>
      <trkpt lat="44.437" lon="0.94641">
        <ele>139.05</ele>
        <time>2015-11-21T16:06:41Z</time>
      </trkpt>
      <trkpt lat="44.43725" lon="0.94612">
        <ele>139.05</ele>
        <time>2015-11-21T16:06:48Z</time>
      </trkpt>
      <trkpt lat="44.43743" lon="0.94629">
        <ele>131.36</ele>
        <time>2015-11-21T16:06:57Z</time>
      </trkpt>
      <trkpt lat="44.43762" lon="0.9468">
        <ele>129.43</ele>
        <time>2015-11-21T16:07:10Z</time>
      </trkpt>
      <trkpt lat="44.43778" lon="0.94718">
        <ele>126.55</ele>
        <time>2015-11-21T16:07:19Z</time>
      </trkpt>
      <trkpt lat="44.43784" lon="0.94763">
        <ele>126.07</ele>
        <time>2015-11-21T16:07:28Z</time>
      </trkpt>
      <trkpt lat="44.43787" lon="0.94804">
        <ele>128.47</ele>
        <time>2015-11-21T16:07:37Z</time>
      </trkpt>
      <trkpt lat="44.43792" lon="0.94861">
        <ele>131.84</ele>
        <time>2015-11-21T16:07:47Z</time>
      </trkpt>
      <trkpt lat="44.43799" lon="0.94891">
        <ele>130.4</ele>
        <time>2015-11-21T16:07:52Z</time>
      </trkpt>
      <trkpt lat="44.43804" lon="0.94906">
        <ele>128.95</ele>
        <time>2015-11-21T16:07:55Z</time>
      </trkpt>
      <trkpt lat="44.43823" lon="0.94937">
        <ele>124.63</ele>
        <time>2015-11-21T16:08:03Z</time>
      </trkpt>
      <trkpt lat="44.43828" lon="0.94954">
        <ele>122.71</ele>
        <time>2015-11-21T16:08:08Z</time>
      </trkpt>
      <trkpt lat="44.4387" lon="0.95">
        <ele>115.5</ele>
        <time>2015-11-21T16:08:19Z</time>
      </trkpt>
      <trkpt lat="44.43883" lon="0.9502">
        <ele>111.17</ele>
        <time>2015-11-21T16:08:23Z</time>
      </trkpt>
      <trkpt lat="44.43887" lon="0.95039">
        <ele>109.73</ele>
        <time>2015-11-21T16:08:28Z</time>
      </trkpt>
      <trkpt lat="44.43874" lon="0.95082">
        <ele>106.84</ele>
        <time>2015-11-21T16:08:40Z</time>
      </trkpt>
      <trkpt lat="44.4386" lon="0.95096">
        <ele>104.92</ele>
        <time>2015-11-21T16:08:48Z</time>
      </trkpt>
      <trkpt lat="44.43859" lon="0.95106">
        <ele>105.4</ele>
        <time>2015-11-21T16:08:53Z</time>
      </trkpt>
      <trkpt lat="44.43857" lon="0.95131">
        <ele>107.81</ele>
        <time>2015-11-21T16:09:08Z</time>
      </trkpt>
      <trkpt lat="44.43859" lon="0.95133">
        <ele>108.29</ele>
        <time>2015-11-21T16:09:14Z</time>
      </trkpt>
      <trkpt lat="44.43861" lon="0.95145">
        <ele>110.21</ele>
        <time>2015-11-21T16:09:25Z</time>
      </trkpt>
      <trkpt lat="44.43862" lon="0.95157">
        <ele>110.69</ele>
        <time>2015-11-21T16:09:37Z</time>
      </trkpt>
      <trkpt lat="44.43862" lon="0.95163">
        <ele>110.21</ele>
        <time>2015-11-21T16:09:58Z</time>
      </trkpt>
      <trkpt lat="44.43863" lon="0.95167">
        <ele>111.17</ele>
        <time>2015-11-21T16:10:12Z</time>
      </trkpt>
      <trkpt lat="44.43864" lon="0.95172">
        <ele>111.65</ele>
        <time>2015-11-21T16:10:15Z</time>
      </trkpt>
      <trkpt lat="44.43865" lon="0.95183">
        <ele>113.57</ele>
        <time>2015-11-21T16:10:20Z</time>
      </trkpt>
      <trkpt lat="44.43861" lon="0.95207">
        <ele>118.86</ele>
        <time>2015-11-21T16:10:29Z</time>
      </trkpt>
      <trkpt lat="44.43866" lon="0.95241">
        <ele>127.51</ele>
        <time>2015-11-21T16:10:39Z</time>
      </trkpt>
      <trkpt lat="44.43862" lon="0.95259">
        <ele>128.95</ele>
        <time>2015-11-21T16:10:43Z</time>
      </trkpt>
      <trkpt lat="44.43839" lon="0.95325">
        <ele>130.4</ele>
        <time>2015-11-21T16:10:59Z</time>
      </trkpt>
      <trkpt lat="44.43838" lon="0.95367">
        <ele>127.99</ele>
        <time>2015-11-21T16:11:11Z</time>
      </trkpt>
      <trkpt lat="44.43844" lon="0.95412">
        <ele>126.07</ele>
        <time>2015-11-21T16:11:25Z</time>
      </trkpt>
      <trkpt lat="44.43848" lon="0.95448">
        <ele>124.63</ele>
        <time>2015-11-21T16:11:37Z</time>
      </trkpt>
      <trkpt lat="44.43835" lon="0.95483">
        <ele>121.26</ele>
        <time>2015-11-21T16:11:50Z</time>
      </trkpt>
      <trkpt lat="44.43818" lon="0.95533">
        <ele>119.82</ele>
        <time>2015-11-21T16:12:08Z</time>
      </trkpt>
      <trkpt lat="44.43799" lon="0.95583">
        <ele>118.86</ele>
        <time>2015-11-21T16:12:27Z</time>
      </trkpt>
      <trkpt lat="44.43781" lon="0.95606">
        <ele>116.46</ele>
        <time>2015-11-21T16:12:39Z</time>
      </trkpt>
      <trkpt lat="44.43764" lon="0.95638">
        <ele>114.05</ele>
        <time>2015-11-21T16:12:51Z</time>
      </trkpt>
      <trkpt lat="44.43741" lon="0.95681">
        <ele>113.57</ele>
        <time>2015-11-21T16:13:06Z</time>
      </trkpt>
      <trkpt lat="44.43735" lon="0.95693">
        <ele>113.09</ele>
        <time>2015-11-21T16:13:11Z</time>
      </trkpt>
      <trkpt lat="44.43742" lon="0.95714">
        <ele>117.42</ele>
        <time>2015-11-21T16:13:23Z</time>
      </trkpt>
      <trkpt lat="44.43741" lon="0.95716">
        <ele>117.9</ele>
        <time>2015-11-21T16:13:40Z</time>
      </trkpt>
      <trkpt lat="44.43742" lon="0.95715">
        <ele>115.98</ele>
        <time>2015-11-21T16:14:02Z</time>
      </trkpt>
      <trkpt lat="44.43742" lon="0.95716">
        <ele>115.98</ele>
        <time>2015-11-21T16:14:29Z</time>
      </trkpt>
      <trkpt lat="44.43743" lon="0.95716">
        <ele>115.98</ele>
        <time>2015-11-21T16:14:44Z</time>
      </trkpt>
      <trkpt lat="44.43755" lon="0.95717">
        <ele>116.46</ele>
        <time>2015-11-21T16:14:50Z</time>
      </trkpt>
      <trkpt lat="44.43811" lon="0.95718">
        <ele>113.57</ele>
        <time>2015-11-21T16:15:05Z</time>
      </trkpt>
      <trkpt lat="44.43884" lon="0.95713">
        <ele>109.25</ele>
        <time>2015-11-21T16:15:18Z</time>
      </trkpt>
      <trkpt lat="44.43926" lon="0.95701">
        <ele>110.69</ele>
        <time>2015-11-21T16:15:30Z</time>
      </trkpt>
      <trkpt lat="44.4395" lon="0.95677">
        <ele>117.42</ele>
        <time>2015-11-21T16:15:40Z</time>
      </trkpt>
      <trkpt lat="44.43984" lon="0.95674">
        <ele>120.3</ele>
        <time>2015-11-21T16:15:52Z</time>
      </trkpt>
      <trkpt lat="44.44011" lon="0.95657">
        <ele>121.74</ele>
        <time>2015-11-21T16:16:04Z</time>
      </trkpt>
      <trkpt lat="44.44031" lon="0.95627">
        <ele>123.19</ele>
        <time>2015-11-21T16:16:16Z</time>
      </trkpt>
      <trkpt lat="44.44063" lon="0.95593">
        <ele>124.63</ele>
        <time>2015-11-21T16:16:32Z</time>
      </trkpt>
      <trkpt lat="44.44103" lon="0.95556">
        <ele>123.67</ele>
        <time>2015-11-21T16:16:50Z</time>
      </trkpt>
      <trkpt lat="44.44141" lon="0.95522">
        <ele>121.26</ele>
        <time>2015-11-21T16:17:06Z</time>
      </trkpt>
      <trkpt lat="44.44187" lon="0.9548">
        <ele>119.34</ele>
        <time>2015-11-21T16:17:22Z</time>
      </trkpt>
      <trkpt lat="44.4422" lon="0.95453">
        <ele>121.26</ele>
        <time>2015-11-21T16:17:35Z</time>
      </trkpt>
      <trkpt lat="44.44258" lon="0.95419">
        <ele>122.22</ele>
        <time>2015-11-21T16:17:50Z</time>
      </trkpt>
      <trkpt lat="44.443" lon="0.95387">
        <ele>123.67</ele>
        <time>2015-11-21T16:18:04Z</time>
      </trkpt>
      <trkpt lat="44.44328" lon="0.95359">
        <ele>122.71</ele>
        <time>2015-11-21T16:18:16Z</time>
      </trkpt>
      <trkpt lat="44.44359" lon="0.95317">
        <ele>120.78</ele>
        <time>2015-11-21T16:18:30Z</time>
      </trkpt>
      <trkpt lat="44.44384" lon="0.95276">
        <ele>120.3</ele>
        <time>2015-11-21T16:18:45Z</time>
      </trkpt>
      <trkpt lat="44.44395" lon="0.95264">
        <ele>121.74</ele>
        <time>2015-11-21T16:18:57Z</time>
      </trkpt>
      <trkpt lat="44.44398" lon="0.95261">
        <ele>120.78</ele>
        <time>2015-11-21T16:19:21Z</time>
      </trkpt>
      <trkpt lat="44.44406" lon="0.95249">
        <ele>119.34</ele>
        <time>2015-11-21T16:19:31Z</time>
      </trkpt>
      <trkpt lat="44.44407" lon="0.95246">
        <ele>119.34</ele>
        <time>2015-11-21T16:19:32Z</time>
      </trkpt>
      <trkpt lat="44.44409" lon="0.95245">
        <ele>119.34</ele>
        <time>2015-11-21T16:19:33Z</time>
      </trkpt>
      <trkpt lat="44.44411" lon="0.95244">
        <ele>119.34</ele>
        <time>2015-11-21T16:19:34Z</time>
      </trkpt>
      <trkpt lat="44.44413" lon="0.95242">
        <ele>119.82</ele>
        <time>2015-11-21T16:19:35Z</time>
      </trkpt>
      <trkpt lat="44.44414" lon="0.9524">
        <ele>119.82</ele>
        <time>2015-11-21T16:19:36Z</time>
      </trkpt>
      <trkpt lat="44.44416" lon="0.95238">
        <ele>119.82</ele>
        <time>2015-11-21T16:19:37Z</time>
      </trkpt>
      <trkpt lat="44.44418" lon="0.95237">
        <ele>120.3</ele>
        <time>2015-11-21T16:19:38Z</time>
      </trkpt>
      <trkpt lat="44.44419" lon="0.95235">
        <ele>120.3</ele>
        <time>2015-11-21T16:19:39Z</time>
      </trkpt>
      <trkpt lat="44.44421" lon="0.95233">
        <ele>120.3</ele>
        <time>2015-11-21T16:19:40Z</time>
      </trkpt>
      <trkpt lat="44.44428" lon="0.95226">
        <ele>120.78</ele>
        <time>2015-11-21T16:19:43Z</time>
      </trkpt>
      <trkpt lat="44.4443" lon="0.95223">
        <ele>120.3</ele>
        <time>2015-11-21T16:19:44Z</time>
      </trkpt>
      <trkpt lat="44.44432" lon="0.95221">
        <ele>120.3</ele>
        <time>2015-11-21T16:19:45Z</time>
      </trkpt>
      <trkpt lat="44.44435" lon="0.9522">
        <ele>119.82</ele>
        <time>2015-11-21T16:19:46Z</time>
      </trkpt>
      <trkpt lat="44.44438" lon="0.95217">
        <ele>119.82</ele>
        <time>2015-11-21T16:19:47Z</time>
      </trkpt>
      <trkpt lat="44.44441" lon="0.95215">
        <ele>119.82</ele>
        <time>2015-11-21T16:19:48Z</time>
      </trkpt>
      <trkpt lat="44.44468" lon="0.95194">
        <ele>119.82</ele>
        <time>2015-11-21T16:19:56Z</time>
      </trkpt>
      <trkpt lat="44.44515" lon="0.95152">
        <ele>117.42</ele>
        <time>2015-11-21T16:20:06Z</time>
      </trkpt>
      <trkpt lat="44.44587" lon="0.95096">
        <ele>116.94</ele>
        <time>2015-11-21T16:20:21Z</time>
      </trkpt>
      <trkpt lat="44.4461" lon="0.9508">
        <ele>116.94</ele>
        <time>2015-11-21T16:20:26Z</time>
      </trkpt>
      <trkpt lat="44.44615" lon="0.95077">
        <ele>116.94</ele>
        <time>2015-11-21T16:20:27Z</time>
      </trkpt>
      <trkpt lat="44.44619" lon="0.95075">
        <ele>116.94</ele>
        <time>2015-11-21T16:20:28Z</time>
      </trkpt>
      <trkpt lat="44.44643" lon="0.95061">
        <ele>117.9</ele>
        <time>2015-11-21T16:20:34Z</time>
      </trkpt>
      <trkpt lat="44.44646" lon="0.95058">
        <ele>117.9</ele>
        <time>2015-11-21T16:20:35Z</time>
      </trkpt>
      <trkpt lat="44.4465" lon="0.95055">
        <ele>118.38</ele>
        <time>2015-11-21T16:20:36Z</time>
      </trkpt>
      <trkpt lat="44.44654" lon="0.95053">
        <ele>118.38</ele>
        <time>2015-11-21T16:20:37Z</time>
      </trkpt>
      <trkpt lat="44.44658" lon="0.95051">
        <ele>118.86</ele>
        <time>2015-11-21T16:20:38Z</time>
      </trkpt>
      <trkpt lat="44.44662" lon="0.95048">
        <ele>118.86</ele>
        <time>2015-11-21T16:20:39Z</time>
      </trkpt>
      <trkpt lat="44.44701" lon="0.95028">
        <ele>120.78</ele>
        <time>2015-11-21T16:20:51Z</time>
      </trkpt>
      <trkpt lat="44.44713" lon="0.95022">
        <ele>121.26</ele>
        <time>2015-11-21T16:20:56Z</time>
      </trkpt>
      <trkpt lat="44.44717" lon="0.95021">
        <ele>120.3</ele>
        <time>2015-11-21T16:21:03Z</time>
      </trkpt>
      <trkpt lat="44.44718" lon="0.95022">
        <ele>120.3</ele>
        <time>2015-11-21T16:21:04Z</time>
      </trkpt>
      <trkpt lat="44.4472" lon="0.95021">
        <ele>120.3</ele>
        <time>2015-11-21T16:21:05Z</time>
      </trkpt>
      <trkpt lat="44.44721" lon="0.95021">
        <ele>119.82</ele>
        <time>2015-11-21T16:21:06Z</time>
      </trkpt>
      <trkpt lat="44.44724" lon="0.9502">
        <ele>119.82</ele>
        <time>2015-11-21T16:21:07Z</time>
      </trkpt>
      <trkpt lat="44.44727" lon="0.95019">
        <ele>119.82</ele>
        <time>2015-11-21T16:21:08Z</time>
      </trkpt>
      <trkpt lat="44.4473" lon="0.9502">
        <ele>119.82</ele>
        <time>2015-11-21T16:21:09Z</time>
      </trkpt>
      <trkpt lat="44.44733" lon="0.95021">
        <ele>119.82</ele>
        <time>2015-11-21T16:21:10Z</time>
      </trkpt>
      <trkpt lat="44.44779" lon="0.95015">
        <ele>123.19</ele>
        <time>2015-11-21T16:21:22Z</time>
      </trkpt>
      <trkpt lat="44.44802" lon="0.95013">
        <ele>124.15</ele>
        <time>2015-11-21T16:21:28Z</time>
      </trkpt>
      <trkpt lat="44.44823" lon="0.95015">
        <ele>124.15</ele>
        <time>2015-11-21T16:21:32Z</time>
      </trkpt>
      <trkpt lat="44.44834" lon="0.95018">
        <ele>123.19</ele>
        <time>2015-11-21T16:21:34Z</time>
      </trkpt>
      <trkpt lat="44.44869" lon="0.95012">
        <ele>120.3</ele>
        <time>2015-11-21T16:21:40Z</time>
      </trkpt>
      <trkpt lat="44.44897" lon="0.94997">
        <ele>119.82</ele>
        <time>2015-11-21T16:21:46Z</time>
      </trkpt>
      <trkpt lat="44.44931" lon="0.9497">
        <ele>121.74</ele>
        <time>2015-11-21T16:21:58Z</time>
      </trkpt>
      <trkpt lat="44.44966" lon="0.94959">
        <ele>123.67</ele>
        <time>2015-11-21T16:22:12Z</time>
      </trkpt>
      <trkpt lat="44.45006" lon="0.94948">
        <ele>122.22</ele>
        <time>2015-11-21T16:22:28Z</time>
      </trkpt>
      <trkpt lat="44.45033" lon="0.94939">
        <ele>122.71</ele>
        <time>2015-11-21T16:22:41Z</time>
      </trkpt>
      <trkpt lat="44.4505" lon="0.94932">
        <ele>123.19</ele>
        <time>2015-11-21T16:22:50Z</time>
      </trkpt>
      <trkpt lat="44.45061" lon="0.94934">
        <ele>123.19</ele>
        <time>2015-11-21T16:23:02Z</time>
      </trkpt>
      <trkpt lat="44.45062" lon="0.94934">
        <ele>124.15</ele>
        <time>2015-11-21T16:23:23Z</time>
      </trkpt>
      <trkpt lat="44.45061" lon="0.94934">
        <ele>123.19</ele>
        <time>2015-11-21T16:23:35Z</time>
      </trkpt>
      <trkpt lat="44.45075" lon="0.94893">
        <ele>123.19</ele>
        <time>2015-11-21T16:23:47Z</time>
      </trkpt>
      <trkpt lat="44.45095" lon="0.94806">
        <ele>123.67</ele>
        <time>2015-11-21T16:24:04Z</time>
      </trkpt>
      <trkpt lat="44.45086" lon="0.94735">
        <ele>122.22</ele>
        <time>2015-11-21T16:24:17Z</time>
      </trkpt>
      <trkpt lat="44.45089" lon="0.94716">
        <ele>121.74</ele>
        <time>2015-11-21T16:24:22Z</time>
      </trkpt>
      <trkpt lat="44.45092" lon="0.94714">
        <ele>122.22</ele>
        <time>2015-11-21T16:24:23Z</time>
      </trkpt>
      <trkpt lat="44.45134" lon="0.9467">
        <ele>124.15</ele>
        <time>2015-11-21T16:24:38Z</time>
      </trkpt>
      <trkpt lat="44.4514" lon="0.94663">
        <ele>124.63</ele>
        <time>2015-11-21T16:24:40Z</time>
      </trkpt>
      <trkpt lat="44.45164" lon="0.94623">
        <ele>123.67</ele>
        <time>2015-11-21T16:24:49Z</time>
      </trkpt>
      <trkpt lat="44.45196" lon="0.94576">
        <ele>122.71</ele>
        <time>2015-11-21T16:25:02Z</time>
      </trkpt>
      <trkpt lat="44.45197" lon="0.94566">
        <ele>122.22</ele>
        <time>2015-11-21T16:25:05Z</time>
      </trkpt>
      <trkpt lat="44.45171" lon="0.94527">
        <ele>122.71</ele>
        <time>2015-11-21T16:25:21Z</time>
      </trkpt>
      <trkpt lat="44.45163" lon="0.94504">
        <ele>123.19</ele>
        <time>2015-11-21T16:25:30Z</time>
      </trkpt>
      <trkpt lat="44.45171" lon="0.94497">
        <ele>122.22</ele>
        <time>2015-11-21T16:25:40Z</time>
      </trkpt>
      <trkpt lat="44.45202" lon="0.94497">
        <ele>125.11</ele>
        <time>2015-11-21T16:25:54Z</time>
      </trkpt>
      <trkpt lat="44.45253" lon="0.94495">
        <ele>130.88</ele>
        <time>2015-11-21T16:26:07Z</time>
      </trkpt>
      <trkpt lat="44.45261" lon="0.94495">
        <ele>131.36</ele>
        <time>2015-11-21T16:26:09Z</time>
      </trkpt>
      <trkpt lat="44.45319" lon="0.9449">
        <ele>135.2</ele>
        <time>2015-11-21T16:26:22Z</time>
      </trkpt>
      <trkpt lat="44.45354" lon="0.94489">
        <ele>133.76</ele>
        <time>2015-11-21T16:26:31Z</time>
      </trkpt>
      <trkpt lat="44.45405" lon="0.9449">
        <ele>129.92</ele>
        <time>2015-11-21T16:26:42Z</time>
      </trkpt>
      <trkpt lat="44.45475" lon="0.94487">
        <ele>127.51</ele>
        <time>2015-11-21T16:26:56Z</time>
      </trkpt>
      <trkpt lat="44.45514" lon="0.94486">
        <ele>125.59</ele>
        <time>2015-11-21T16:27:06Z</time>
      </trkpt>
      <trkpt lat="44.45556" lon="0.94485">
        <ele>126.07</ele>
        <time>2015-11-21T16:27:17Z</time>
      </trkpt>
      <trkpt lat="44.45591" lon="0.94483">
        <ele>124.63</ele>
        <time>2015-11-21T16:27:27Z</time>
      </trkpt>
      <trkpt lat="44.45634" lon="0.94483">
        <ele>124.15</ele>
        <time>2015-11-21T16:27:39Z</time>
      </trkpt>
      <trkpt lat="44.45686" lon="0.9448">
        <ele>121.74</ele>
        <time>2015-11-21T16:27:50Z</time>
      </trkpt>
      <trkpt lat="44.45715" lon="0.94479">
        <ele>120.78</ele>
        <time>2015-11-21T16:27:55Z</time>
      </trkpt>
      <trkpt lat="44.4575" lon="0.94477">
        <ele>117.9</ele>
        <time>2015-11-21T16:28:01Z</time>
      </trkpt>
      <trkpt lat="44.45756" lon="0.94478">
        <ele>116.94</ele>
        <time>2015-11-21T16:28:02Z</time>
      </trkpt>
      <trkpt lat="44.45776" lon="0.9448">
        <ele>114.53</ele>
        <time>2015-11-21T16:28:05Z</time>
      </trkpt>
      <trkpt lat="44.45814" lon="0.94481">
        <ele>108.77</ele>
        <time>2015-11-21T16:28:11Z</time>
      </trkpt>
      <trkpt lat="44.45849" lon="0.94492">
        <ele>100.11</ele>
        <time>2015-11-21T16:28:19Z</time>
      </trkpt>
      <trkpt lat="44.4585" lon="0.94491">
        <ele>99.63</ele>
        <time>2015-11-21T16:28:20Z</time>
      </trkpt>
      <trkpt lat="44.45849" lon="0.9449">
        <ele>95.79</ele>
        <time>2015-11-21T16:28:33Z</time>
      </trkpt>
      <trkpt lat="44.4585" lon="0.9449">
        <ele>91.46</ele>
        <time>2015-11-21T16:28:57Z</time>
      </trkpt>
      <trkpt lat="44.4585" lon="0.94489">
        <ele>90.5</ele>
        <time>2015-11-21T16:29:04Z</time>
      </trkpt>
      <trkpt lat="44.45851" lon="0.94486">
        <ele>90.5</ele>
        <time>2015-11-21T16:29:05Z</time>
      </trkpt>
      <trkpt lat="44.45872" lon="0.94438">
        <ele>89.06</ele>
        <time>2015-11-21T16:29:18Z</time>
      </trkpt>
      <trkpt lat="44.45903" lon="0.94364">
        <ele>87.14</ele>
        <time>2015-11-21T16:29:30Z</time>
      </trkpt>
      <trkpt lat="44.45925" lon="0.9431">
        <ele>85.21</ele>
        <time>2015-11-21T16:29:38Z</time>
      </trkpt>
      <trkpt lat="44.45931" lon="0.94298">
        <ele>84.73</ele>
        <time>2015-11-21T16:29:40Z</time>
      </trkpt>
      <trkpt lat="44.45934" lon="0.94291">
        <ele>84.25</ele>
        <time>2015-11-21T16:29:41Z</time>
      </trkpt>
      <trkpt lat="44.45936" lon="0.94285">
        <ele>84.25</ele>
        <time>2015-11-21T16:29:42Z</time>
      </trkpt>
      <trkpt lat="44.45939" lon="0.94279">
        <ele>84.25</ele>
        <time>2015-11-21T16:29:43Z</time>
      </trkpt>
      <trkpt lat="44.45943" lon="0.94273">
        <ele>83.77</ele>
        <time>2015-11-21T16:29:44Z</time>
      </trkpt>
      <trkpt lat="44.45946" lon="0.94266">
        <ele>83.29</ele>
        <time>2015-11-21T16:29:45Z</time>
      </trkpt>
      <trkpt lat="44.45949" lon="0.9426">
        <ele>83.29</ele>
        <time>2015-11-21T16:29:46Z</time>
      </trkpt>
      <trkpt lat="44.45952" lon="0.94253">
        <ele>82.81</ele>
        <time>2015-11-21T16:29:47Z</time>
      </trkpt>
      <trkpt lat="44.45982" lon="0.94186">
        <ele>81.37</ele>
        <time>2015-11-21T16:29:58Z</time>
      </trkpt>
      <trkpt lat="44.45985" lon="0.94181">
        <ele>81.37</ele>
        <time>2015-11-21T16:29:59Z</time>
      </trkpt>
      <trkpt lat="44.45992" lon="0.94164">
        <ele>81.85</ele>
        <time>2015-11-21T16:30:02Z</time>
      </trkpt>
      <trkpt lat="44.45995" lon="0.94159">
        <ele>81.85</ele>
        <time>2015-11-21T16:30:03Z</time>
      </trkpt>
      <trkpt lat="44.45997" lon="0.94153">
        <ele>81.85</ele>
        <time>2015-11-21T16:30:04Z</time>
      </trkpt>
      <trkpt lat="44.46026" lon="0.94085">
        <ele>81.37</ele>
        <time>2015-11-21T16:30:18Z</time>
      </trkpt>
      <trkpt lat="44.4605" lon="0.94028">
        <ele>78.48</ele>
        <time>2015-11-21T16:30:33Z</time>
      </trkpt>
      <trkpt lat="44.46069" lon="0.9398">
        <ele>77.52</ele>
        <time>2015-11-21T16:30:45Z</time>
      </trkpt>
      <trkpt lat="44.4609" lon="0.93929">
        <ele>78</ele>
        <time>2015-11-21T16:30:58Z</time>
      </trkpt>
      <trkpt lat="44.4612" lon="0.9386">
        <ele>78.97</ele>
        <time>2015-11-21T16:31:15Z</time>
      </trkpt>
      <trkpt lat="44.46127" lon="0.9385">
        <ele>79.45</ele>
        <time>2015-11-21T16:31:19Z</time>
      </trkpt>
      <trkpt lat="44.4613" lon="0.93849">
        <ele>79.45</ele>
        <time>2015-11-21T16:31:20Z</time>
      </trkpt>
      <trkpt lat="44.46133" lon="0.93848">
        <ele>79.45</ele>
        <time>2015-11-21T16:31:21Z</time>
      </trkpt>
      <trkpt lat="44.46136" lon="0.93848">
        <ele>79.45</ele>
        <time>2015-11-21T16:31:22Z</time>
      </trkpt>
      <trkpt lat="44.46139" lon="0.93848">
        <ele>79.45</ele>
        <time>2015-11-21T16:31:23Z</time>
      </trkpt>
      <trkpt lat="44.4618" lon="0.93842">
        <ele>77.04</ele>
        <time>2015-11-21T16:31:36Z</time>
      </trkpt>
      <trkpt lat="44.46208" lon="0.93805">
        <ele>75.6</ele>
        <time>2015-11-21T16:31:50Z</time>
      </trkpt>
      <trkpt lat="44.46234" lon="0.93772">
        <ele>74.64</ele>
        <time>2015-11-21T16:32:04Z</time>
      </trkpt>
      <trkpt lat="44.4625" lon="0.93731">
        <ele>74.64</ele>
        <time>2015-11-21T16:32:17Z</time>
      </trkpt>
      <trkpt lat="44.46272" lon="0.93684">
        <ele>73.2</ele>
        <time>2015-11-21T16:32:29Z</time>
      </trkpt>
      <trkpt lat="44.46282" lon="0.93674">
        <ele>73.2</ele>
        <time>2015-11-21T16:32:33Z</time>
      </trkpt>
      <trkpt lat="44.46285" lon="0.93674">
        <ele>73.2</ele>
        <time>2015-11-21T16:32:34Z</time>
      </trkpt>
      <trkpt lat="44.46288" lon="0.93675">
        <ele>73.2</ele>
        <time>2015-11-21T16:32:35Z</time>
      </trkpt>
      <trkpt lat="44.4629" lon="0.93678">
        <ele>73.68</ele>
        <time>2015-11-21T16:32:36Z</time>
      </trkpt>
      <trkpt lat="44.46293" lon="0.93681">
        <ele>73.68</ele>
        <time>2015-11-21T16:32:37Z</time>
      </trkpt>
      <trkpt lat="44.46329" lon="0.93735">
        <ele>76.08</ele>
        <time>2015-11-21T16:32:51Z</time>
      </trkpt>
      <trkpt lat="44.4634" lon="0.93751">
        <ele>76.08</ele>
        <time>2015-11-21T16:32:55Z</time>
      </trkpt>
      <trkpt lat="44.46342" lon="0.93754">
        <ele>76.08</ele>
        <time>2015-11-21T16:32:56Z</time>
      </trkpt>
      <trkpt lat="44.46385" lon="0.93815">
        <ele>75.6</ele>
        <time>2015-11-21T16:33:13Z</time>
      </trkpt>
      <trkpt lat="44.46424" lon="0.93852">
        <ele>76.08</ele>
        <time>2015-11-21T16:33:26Z</time>
      </trkpt>
      <trkpt lat="44.46459" lon="0.93857">
        <ele>77.04</ele>
        <time>2015-11-21T16:33:36Z</time>
      </trkpt>
      <trkpt lat="44.46498" lon="0.93887">
        <ele>76.56</ele>
        <time>2015-11-21T16:33:47Z</time>
      </trkpt>
      <trkpt lat="44.46565" lon="0.93948">
        <ele>77.04</ele>
        <time>2015-11-21T16:34:06Z</time>
      </trkpt>
      <trkpt lat="44.46621" lon="0.93995">
        <ele>76.56</ele>
        <time>2015-11-21T16:34:22Z</time>
      </trkpt>
      <trkpt lat="44.46666" lon="0.94013">
        <ele>77.04</ele>
        <time>2015-11-21T16:34:35Z</time>
      </trkpt>
      <trkpt lat="44.46683" lon="0.9402">
        <ele>77.52</ele>
        <time>2015-11-21T16:34:39Z</time>
      </trkpt>
      <trkpt lat="44.46723" lon="0.94031">
        <ele>78</ele>
        <time>2015-11-21T16:34:49Z</time>
      </trkpt>
      <trkpt lat="44.46727" lon="0.94029">
        <ele>78</ele>
        <time>2015-11-21T16:34:50Z</time>
      </trkpt>
      <trkpt lat="44.4673" lon="0.94025">
        <ele>78</ele>
        <time>2015-11-21T16:34:51Z</time>
      </trkpt>
      <trkpt lat="44.46732" lon="0.9402">
        <ele>78</ele>
        <time>2015-11-21T16:34:52Z</time>
      </trkpt>
      <trkpt lat="44.46734" lon="0.94015">
        <ele>78</ele>
        <time>2015-11-21T16:34:53Z</time>
      </trkpt>
      <trkpt lat="44.46736" lon="0.9401">
        <ele>78</ele>
        <time>2015-11-21T16:34:54Z</time>
      </trkpt>
      <trkpt lat="44.4674" lon="0.93999">
        <ele>78</ele>
        <time>2015-11-21T16:34:56Z</time>
      </trkpt>
      <trkpt lat="44.46767" lon="0.93921">
        <ele>77.52</ele>
        <time>2015-11-21T16:35:12Z</time>
      </trkpt>
      <trkpt lat="44.46774" lon="0.93898">
        <ele>77.52</ele>
        <time>2015-11-21T16:35:17Z</time>
      </trkpt>
      <trkpt lat="44.46776" lon="0.93893">
        <ele>77.52</ele>
        <time>2015-11-21T16:35:18Z</time>
      </trkpt>
      <trkpt lat="44.46804" lon="0.93808">
        <ele>77.04</ele>
        <time>2015-11-21T16:35:32Z</time>
      </trkpt>
      <trkpt lat="44.46838" lon="0.9371">
        <ele>76.56</ele>
        <time>2015-11-21T16:35:48Z</time>
      </trkpt>
      <trkpt lat="44.46851" lon="0.9367">
        <ele>76.08</ele>
        <time>2015-11-21T16:35:55Z</time>
      </trkpt>
      <trkpt lat="44.46865" lon="0.93636">
        <ele>75.6</ele>
        <time>2015-11-21T16:36:04Z</time>
      </trkpt>
      <trkpt lat="44.46866" lon="0.93634">
        <ele>75.6</ele>
        <time>2015-11-21T16:36:17Z</time>
      </trkpt>
      <trkpt lat="44.46868" lon="0.93632">
        <ele>75.6</ele>
        <time>2015-11-21T16:36:19Z</time>
      </trkpt>
      <trkpt lat="44.46886" lon="0.93631">
        <ele>74.64</ele>
        <time>2015-11-21T16:36:27Z</time>
      </trkpt>
      <trkpt lat="44.46898" lon="0.93593">
        <ele>72.24</ele>
        <time>2015-11-21T16:36:35Z</time>
      </trkpt>
      <trkpt lat="44.46918" lon="0.93586">
        <ele>70.31</ele>
        <time>2015-11-21T16:36:40Z</time>
      </trkpt>
      <trkpt lat="44.46957" lon="0.93596">
        <ele>69.35</ele>
        <time>2015-11-21T16:36:48Z</time>
      </trkpt>
      <trkpt lat="44.46962" lon="0.93595">
        <ele>69.35</ele>
        <time>2015-11-21T16:36:49Z</time>
      </trkpt>
      <trkpt lat="44.46967" lon="0.93592">
        <ele>69.35</ele>
        <time>2015-11-21T16:36:50Z</time>
      </trkpt>
      <trkpt lat="44.46972" lon="0.93588">
        <ele>69.35</ele>
        <time>2015-11-21T16:36:51Z</time>
      </trkpt>
      <trkpt lat="44.46977" lon="0.93584">
        <ele>69.35</ele>
        <time>2015-11-21T16:36:52Z</time>
      </trkpt>
      <trkpt lat="44.47038" lon="0.93525">
        <ele>68.87</ele>
        <time>2015-11-21T16:37:07Z</time>
      </trkpt>
      <trkpt lat="44.47041" lon="0.93522">
        <ele>68.87</ele>
        <time>2015-11-21T16:37:08Z</time>
      </trkpt>
      <trkpt lat="44.47091" lon="0.93478">
        <ele>69.83</ele>
        <time>2015-11-21T16:37:24Z</time>
      </trkpt>
      <trkpt lat="44.47092" lon="0.93478">
        <ele>69.83</ele>
        <time>2015-11-21T16:37:25Z</time>
      </trkpt>
      <trkpt lat="44.47097" lon="0.93476">
        <ele>69.35</ele>
        <time>2015-11-21T16:37:35Z</time>
      </trkpt>
      <trkpt lat="44.47099" lon="0.93478">
        <ele>69.35</ele>
        <time>2015-11-21T16:37:36Z</time>
      </trkpt>
      <trkpt lat="44.47101" lon="0.9348">
        <ele>69.35</ele>
        <time>2015-11-21T16:37:37Z</time>
      </trkpt>
      <trkpt lat="44.47107" lon="0.93488">
        <ele>68.87</ele>
        <time>2015-11-21T16:37:40Z</time>
      </trkpt>
      <trkpt lat="44.4711" lon="0.9349">
        <ele>68.87</ele>
        <time>2015-11-21T16:37:41Z</time>
      </trkpt>
      <trkpt lat="44.47113" lon="0.9349">
        <ele>68.87</ele>
        <time>2015-11-21T16:37:42Z</time>
      </trkpt>
      <trkpt lat="44.47116" lon="0.93489">
        <ele>68.39</ele>
        <time>2015-11-21T16:37:43Z</time>
      </trkpt>
      <trkpt lat="44.47119" lon="0.93488">
        <ele>68.39</ele>
        <time>2015-11-21T16:37:44Z</time>
      </trkpt>
      <trkpt lat="44.47168" lon="0.93468">
        <ele>67.43</ele>
        <time>2015-11-21T16:37:59Z</time>
      </trkpt>
      <trkpt lat="44.47194" lon="0.93441">
        <ele>66.47</ele>
        <time>2015-11-21T16:38:11Z</time>
      </trkpt>
      <trkpt lat="44.47205" lon="0.9343">
        <ele>67.91</ele>
        <time>2015-11-21T16:38:18Z</time>
      </trkpt>
      <trkpt lat="44.47205" lon="0.93427">
        <ele>68.39</ele>
        <time>2015-11-21T16:38:19Z</time>
      </trkpt>
      <trkpt lat="44.47205" lon="0.93425">
        <ele>68.39</ele>
        <time>2015-11-21T16:38:20Z</time>
      </trkpt>
      <trkpt lat="44.47205" lon="0.93423">
        <ele>68.87</ele>
        <time>2015-11-21T16:38:21Z</time>
      </trkpt>
      <trkpt lat="44.47205" lon="0.93421">
        <ele>69.83</ele>
        <time>2015-11-21T16:38:34Z</time>
      </trkpt>
      <trkpt lat="44.47207" lon="0.93421">
        <ele>70.79</ele>
        <time>2015-11-21T16:39:13Z</time>
      </trkpt>
      <trkpt lat="44.47206" lon="0.93421">
        <ele>71.27</ele>
        <time>2015-11-21T16:39:53Z</time>
      </trkpt>
      <trkpt lat="44.47207" lon="0.93421">
        <ele>71.76</ele>
        <time>2015-11-21T16:40:18Z</time>
      </trkpt>
      <trkpt lat="44.47206" lon="0.93421">
        <ele>70.79</ele>
        <time>2015-11-21T16:40:54Z</time>
      </trkpt>
      <trkpt lat="44.47206" lon="0.9342">
        <ele>70.79</ele>
        <time>2015-11-21T16:41:27Z</time>
      </trkpt>
      <trkpt lat="44.47206" lon="0.9342">
        <ele>71.27</ele>
        <time>2015-11-21T16:41:59Z</time>
      </trkpt>
      <trkpt lat="44.47207" lon="0.9342">
        <ele>70.79</ele>
        <time>2015-11-21T16:42:39Z</time>
      </trkpt>
      <trkpt lat="44.47207" lon="0.9342">
        <ele>70.31</ele>
        <time>2015-11-21T16:43:06Z</time>
      </trkpt>
      <trkpt lat="44.47206" lon="0.9342">
        <ele>70.79</ele>
        <time>2015-11-21T16:43:39Z</time>
      </trkpt>
    </trkseg>
  </trk>
</gpx>